<?xml version="1.0" encoding="UTF-8" standalone="no" ?>
<gpx xmlns="http://www.topografix.com/GPX/1/1" xmlns:xsi="http://www.w3.org/2001/XMLSchema-instance" xsi:schemaLocation="http://www.topografix.com/GPX/1/1 http://www.topografix.com/GPX/1/1/gpx.xsd" version="1.1" creator="VisuGPX - https://www.visugpx.com">
  <metadata>
    <name>cascade de l\'arpenaz</name>
    <desc><![CDATA[aller retour cascade l\'arpenaz]]></desc>
  </metadata>
  <trk>
    <name><![CDATA[2015-06-07 10:54:09]]></name>
    <trkseg>
      <trkpt lat="46.06358" lon="6.55541">
        <ele>497.03</ele>
        <time>2015-06-07T06:12:04Z</time>
      </trkpt>
      <trkpt lat="46.06358" lon="6.5555">
        <ele>497.17</ele>
        <time>2015-06-07T06:12:41Z</time>
      </trkpt>
      <trkpt lat="46.06357" lon="6.55554">
        <ele>496</ele>
        <time>2015-06-07T06:13:01Z</time>
      </trkpt>
      <trkpt lat="46.06356" lon="6.55555">
        <ele>496.39</ele>
        <time>2015-06-07T06:13:03Z</time>
      </trkpt>
      <trkpt lat="46.06337" lon="6.55577">
        <ele>496.71</ele>
        <time>2015-06-07T06:13:18Z</time>
      </trkpt>
      <trkpt lat="46.06333" lon="6.5559">
        <ele>496.6</ele>
        <time>2015-06-07T06:13:22Z</time>
      </trkpt>
      <trkpt lat="46.06331" lon="6.5559">
        <ele>496.44</ele>
        <time>2015-06-07T06:13:23Z</time>
      </trkpt>
      <trkpt lat="46.06328" lon="6.55589">
        <ele>496.47</ele>
        <time>2015-06-07T06:13:24Z</time>
      </trkpt>
      <trkpt lat="46.06298" lon="6.55576">
        <ele>497.44</ele>
        <time>2015-06-07T06:13:36Z</time>
      </trkpt>
      <trkpt lat="46.06298" lon="6.55574">
        <ele>497.26</ele>
        <time>2015-06-07T06:13:37Z</time>
      </trkpt>
      <trkpt lat="46.06299" lon="6.55571">
        <ele>497.06</ele>
        <time>2015-06-07T06:13:48Z</time>
      </trkpt>
      <trkpt lat="46.06297" lon="6.55569">
        <ele>496.75</ele>
        <time>2015-06-07T06:13:59Z</time>
      </trkpt>
      <trkpt lat="46.06295" lon="6.55568">
        <ele>497.09</ele>
        <time>2015-06-07T06:14:00Z</time>
      </trkpt>
      <trkpt lat="46.06294" lon="6.55567">
        <ele>497.24</ele>
        <time>2015-06-07T06:14:01Z</time>
      </trkpt>
      <trkpt lat="46.06285" lon="6.55569">
        <ele>497.52</ele>
        <time>2015-06-07T06:14:05Z</time>
      </trkpt>
      <trkpt lat="46.06284" lon="6.55573">
        <ele>497.55</ele>
        <time>2015-06-07T06:14:06Z</time>
      </trkpt>
      <trkpt lat="46.06283" lon="6.55578">
        <ele>497.59</ele>
        <time>2015-06-07T06:14:07Z</time>
      </trkpt>
      <trkpt lat="46.06264" lon="6.55687">
        <ele>496.46</ele>
        <time>2015-06-07T06:14:26Z</time>
      </trkpt>
      <trkpt lat="46.06236" lon="6.55838">
        <ele>498.57</ele>
        <time>2015-06-07T06:14:48Z</time>
      </trkpt>
      <trkpt lat="46.06235" lon="6.55844">
        <ele>498.56</ele>
        <time>2015-06-07T06:14:49Z</time>
      </trkpt>
      <trkpt lat="46.06225" lon="6.55926">
        <ele>501.79</ele>
        <time>2015-06-07T06:15:02Z</time>
      </trkpt>
      <trkpt lat="46.06229" lon="6.56058">
        <ele>500.26</ele>
        <time>2015-06-07T06:15:22Z</time>
      </trkpt>
      <trkpt lat="46.06228" lon="6.56065">
        <ele>500.23</ele>
        <time>2015-06-07T06:15:23Z</time>
      </trkpt>
      <trkpt lat="46.06226" lon="6.56073">
        <ele>500.12</ele>
        <time>2015-06-07T06:15:24Z</time>
      </trkpt>
      <trkpt lat="46.06223" lon="6.56081">
        <ele>499.45</ele>
        <time>2015-06-07T06:15:25Z</time>
      </trkpt>
      <trkpt lat="46.0622" lon="6.56088">
        <ele>499.34</ele>
        <time>2015-06-07T06:15:26Z</time>
      </trkpt>
      <trkpt lat="46.06217" lon="6.56095">
        <ele>499.01</ele>
        <time>2015-06-07T06:15:27Z</time>
      </trkpt>
      <trkpt lat="46.06181" lon="6.56165">
        <ele>495.9</ele>
        <time>2015-06-07T06:15:36Z</time>
      </trkpt>
      <trkpt lat="46.06173" lon="6.56181">
        <ele>494.97</ele>
        <time>2015-06-07T06:15:38Z</time>
      </trkpt>
      <trkpt lat="46.0617" lon="6.56191">
        <ele>494.37</ele>
        <time>2015-06-07T06:15:39Z</time>
      </trkpt>
      <trkpt lat="46.06152" lon="6.56305">
        <ele>493.16</ele>
        <time>2015-06-07T06:15:51Z</time>
      </trkpt>
      <trkpt lat="46.06149" lon="6.56358">
        <ele>493</ele>
        <time>2015-06-07T06:15:57Z</time>
      </trkpt>
      <trkpt lat="46.06146" lon="6.56366">
        <ele>492.53</ele>
        <time>2015-06-07T06:15:58Z</time>
      </trkpt>
      <trkpt lat="46.06143" lon="6.56374">
        <ele>492.94</ele>
        <time>2015-06-07T06:15:59Z</time>
      </trkpt>
      <trkpt lat="46.06119" lon="6.56428">
        <ele>493.12</ele>
        <time>2015-06-07T06:16:07Z</time>
      </trkpt>
      <trkpt lat="46.06115" lon="6.5643">
        <ele>493.96</ele>
        <time>2015-06-07T06:16:08Z</time>
      </trkpt>
      <trkpt lat="46.0611" lon="6.56429">
        <ele>493.95</ele>
        <time>2015-06-07T06:16:09Z</time>
      </trkpt>
      <trkpt lat="46.06086" lon="6.56426">
        <ele>493.5</ele>
        <time>2015-06-07T06:16:14Z</time>
      </trkpt>
      <trkpt lat="46.06081" lon="6.56427">
        <ele>493.76</ele>
        <time>2015-06-07T06:16:15Z</time>
      </trkpt>
      <trkpt lat="46.06076" lon="6.56429">
        <ele>493.59</ele>
        <time>2015-06-07T06:16:16Z</time>
      </trkpt>
      <trkpt lat="46.06072" lon="6.56432">
        <ele>493.63</ele>
        <time>2015-06-07T06:16:17Z</time>
      </trkpt>
      <trkpt lat="46.06068" lon="6.56436">
        <ele>493.5</ele>
        <time>2015-06-07T06:16:18Z</time>
      </trkpt>
      <trkpt lat="46.06064" lon="6.56441">
        <ele>493.92</ele>
        <time>2015-06-07T06:16:19Z</time>
      </trkpt>
      <trkpt lat="46.06056" lon="6.5645">
        <ele>493.74</ele>
        <time>2015-06-07T06:16:21Z</time>
      </trkpt>
      <trkpt lat="46.06053" lon="6.56456">
        <ele>493.53</ele>
        <time>2015-06-07T06:16:22Z</time>
      </trkpt>
      <trkpt lat="46.06049" lon="6.56462">
        <ele>493.76</ele>
        <time>2015-06-07T06:16:23Z</time>
      </trkpt>
      <trkpt lat="46.06047" lon="6.56468">
        <ele>493.43</ele>
        <time>2015-06-07T06:16:24Z</time>
      </trkpt>
      <trkpt lat="46.06044" lon="6.56475">
        <ele>493.74</ele>
        <time>2015-06-07T06:16:25Z</time>
      </trkpt>
      <trkpt lat="46.06041" lon="6.56482">
        <ele>493.35</ele>
        <time>2015-06-07T06:16:26Z</time>
      </trkpt>
      <trkpt lat="46.06039" lon="6.5649">
        <ele>493.38</ele>
        <time>2015-06-07T06:16:27Z</time>
      </trkpt>
      <trkpt lat="46.05989" lon="6.56642">
        <ele>492.69</ele>
        <time>2015-06-07T06:16:47Z</time>
      </trkpt>
      <trkpt lat="46.05939" lon="6.56788">
        <ele>494.89</ele>
        <time>2015-06-07T06:17:07Z</time>
      </trkpt>
      <trkpt lat="46.05891" lon="6.56921">
        <ele>496.07</ele>
        <time>2015-06-07T06:17:27Z</time>
      </trkpt>
      <trkpt lat="46.05876" lon="6.57052">
        <ele>495.77</ele>
        <time>2015-06-07T06:17:45Z</time>
      </trkpt>
      <trkpt lat="46.05879" lon="6.57156">
        <ele>496.04</ele>
        <time>2015-06-07T06:18:01Z</time>
      </trkpt>
      <trkpt lat="46.05877" lon="6.57163">
        <ele>496.03</ele>
        <time>2015-06-07T06:18:03Z</time>
      </trkpt>
      <trkpt lat="46.05875" lon="6.57165">
        <ele>496.02</ele>
        <time>2015-06-07T06:18:04Z</time>
      </trkpt>
      <trkpt lat="46.05872" lon="6.57166">
        <ele>496.95</ele>
        <time>2015-06-07T06:18:05Z</time>
      </trkpt>
      <trkpt lat="46.05869" lon="6.57166">
        <ele>497.27</ele>
        <time>2015-06-07T06:18:06Z</time>
      </trkpt>
      <trkpt lat="46.05867" lon="6.57168">
        <ele>497.24</ele>
        <time>2015-06-07T06:18:07Z</time>
      </trkpt>
      <trkpt lat="46.05864" lon="6.5717">
        <ele>497.36</ele>
        <time>2015-06-07T06:18:08Z</time>
      </trkpt>
      <trkpt lat="46.05861" lon="6.57171">
        <ele>497.52</ele>
        <time>2015-06-07T06:18:09Z</time>
      </trkpt>
      <trkpt lat="46.05859" lon="6.57173">
        <ele>497.91</ele>
        <time>2015-06-07T06:18:10Z</time>
      </trkpt>
      <trkpt lat="46.05857" lon="6.57173">
        <ele>497.37</ele>
        <time>2015-06-07T06:18:11Z</time>
      </trkpt>
      <trkpt lat="46.05855" lon="6.57174">
        <ele>497.79</ele>
        <time>2015-06-07T06:18:12Z</time>
      </trkpt>
      <trkpt lat="46.05824" lon="6.57195">
        <ele>498.26</ele>
        <time>2015-06-07T06:18:24Z</time>
      </trkpt>
      <trkpt lat="46.05803" lon="6.57205">
        <ele>499.39</ele>
        <time>2015-06-07T06:18:31Z</time>
      </trkpt>
      <trkpt lat="46.0578" lon="6.57204">
        <ele>500.67</ele>
        <time>2015-06-07T06:18:38Z</time>
      </trkpt>
      <trkpt lat="46.05725" lon="6.5716">
        <ele>503.55</ele>
        <time>2015-06-07T06:18:54Z</time>
      </trkpt>
      <trkpt lat="46.05672" lon="6.57113">
        <ele>501.69</ele>
        <time>2015-06-07T06:19:07Z</time>
      </trkpt>
      <trkpt lat="46.05667" lon="6.57107">
        <ele>501.33</ele>
        <time>2015-06-07T06:19:08Z</time>
      </trkpt>
      <trkpt lat="46.05663" lon="6.57101">
        <ele>501.39</ele>
        <time>2015-06-07T06:19:09Z</time>
      </trkpt>
      <trkpt lat="46.05649" lon="6.57076">
        <ele>500.34</ele>
        <time>2015-06-07T06:19:13Z</time>
      </trkpt>
      <trkpt lat="46.05643" lon="6.57063">
        <ele>500.02</ele>
        <time>2015-06-07T06:19:15Z</time>
      </trkpt>
      <trkpt lat="46.05639" lon="6.57058">
        <ele>499.34</ele>
        <time>2015-06-07T06:19:16Z</time>
      </trkpt>
      <trkpt lat="46.05634" lon="6.57056">
        <ele>499.82</ele>
        <time>2015-06-07T06:19:17Z</time>
      </trkpt>
      <trkpt lat="46.05629" lon="6.57059">
        <ele>499.64</ele>
        <time>2015-06-07T06:19:18Z</time>
      </trkpt>
      <trkpt lat="46.05626" lon="6.57065">
        <ele>498.9</ele>
        <time>2015-06-07T06:19:19Z</time>
      </trkpt>
      <trkpt lat="46.05625" lon="6.57072">
        <ele>499.03</ele>
        <time>2015-06-07T06:19:20Z</time>
      </trkpt>
      <trkpt lat="46.05624" lon="6.5708">
        <ele>498.63</ele>
        <time>2015-06-07T06:19:21Z</time>
      </trkpt>
      <trkpt lat="46.05623" lon="6.57087">
        <ele>498.53</ele>
        <time>2015-06-07T06:19:22Z</time>
      </trkpt>
      <trkpt lat="46.0562" lon="6.5717">
        <ele>497.22</ele>
        <time>2015-06-07T06:19:33Z</time>
      </trkpt>
      <trkpt lat="46.05614" lon="6.57274">
        <ele>498.44</ele>
        <time>2015-06-07T06:19:47Z</time>
      </trkpt>
      <trkpt lat="46.05611" lon="6.57427">
        <ele>498.59</ele>
        <time>2015-06-07T06:20:07Z</time>
      </trkpt>
      <trkpt lat="46.05596" lon="6.57555">
        <ele>499.43</ele>
        <time>2015-06-07T06:20:25Z</time>
      </trkpt>
      <trkpt lat="46.05577" lon="6.5765">
        <ele>501.66</ele>
        <time>2015-06-07T06:20:41Z</time>
      </trkpt>
      <trkpt lat="46.05568" lon="6.5769">
        <ele>505.04</ele>
        <time>2015-06-07T06:20:50Z</time>
      </trkpt>
      <trkpt lat="46.05556" lon="6.5773">
        <ele>508.08</ele>
        <time>2015-06-07T06:20:59Z</time>
      </trkpt>
      <trkpt lat="46.05544" lon="6.57769">
        <ele>511.24</ele>
        <time>2015-06-07T06:21:08Z</time>
      </trkpt>
      <trkpt lat="46.05532" lon="6.57803">
        <ele>514.58</ele>
        <time>2015-06-07T06:21:17Z</time>
      </trkpt>
      <trkpt lat="46.05518" lon="6.57846">
        <ele>517.72</ele>
        <time>2015-06-07T06:21:31Z</time>
      </trkpt>
      <trkpt lat="46.05501" lon="6.57866">
        <ele>520.73</ele>
        <time>2015-06-07T06:21:41Z</time>
      </trkpt>
      <trkpt lat="46.05475" lon="6.57889">
        <ele>523.94</ele>
        <time>2015-06-07T06:21:57Z</time>
      </trkpt>
      <trkpt lat="46.05474" lon="6.57891">
        <ele>524.12</ele>
        <time>2015-06-07T06:21:58Z</time>
      </trkpt>
      <trkpt lat="46.05454" lon="6.5791">
        <ele>527.34</ele>
        <time>2015-06-07T06:22:12Z</time>
      </trkpt>
      <trkpt lat="46.05428" lon="6.57915">
        <ele>530.67</ele>
        <time>2015-06-07T06:22:29Z</time>
      </trkpt>
      <trkpt lat="46.05407" lon="6.57932">
        <ele>533.71</ele>
        <time>2015-06-07T06:22:44Z</time>
      </trkpt>
      <trkpt lat="46.05394" lon="6.57938">
        <ele>534.98</ele>
        <time>2015-06-07T06:23:00Z</time>
      </trkpt>
      <trkpt lat="46.05393" lon="6.5794">
        <ele>534.49</ele>
        <time>2015-06-07T06:23:10Z</time>
      </trkpt>
      <trkpt lat="46.0539" lon="6.57943">
        <ele>534.29</ele>
        <time>2015-06-07T06:23:13Z</time>
      </trkpt>
      <trkpt lat="46.05388" lon="6.57944">
        <ele>533.87</ele>
        <time>2015-06-07T06:23:14Z</time>
      </trkpt>
      <trkpt lat="46.05365" lon="6.57955">
        <ele>531.64</ele>
        <time>2015-06-07T06:23:21Z</time>
      </trkpt>
      <trkpt lat="46.0536" lon="6.57957">
        <ele>530.5</ele>
        <time>2015-06-07T06:23:22Z</time>
      </trkpt>
      <trkpt lat="46.05342" lon="6.57966">
        <ele>526.88</ele>
        <time>2015-06-07T06:23:26Z</time>
      </trkpt>
      <trkpt lat="46.05337" lon="6.57968">
        <ele>526.09</ele>
        <time>2015-06-07T06:23:27Z</time>
      </trkpt>
      <trkpt lat="46.05327" lon="6.57973">
        <ele>523.82</ele>
        <time>2015-06-07T06:23:29Z</time>
      </trkpt>
      <trkpt lat="46.05322" lon="6.57975">
        <ele>522.78</ele>
        <time>2015-06-07T06:23:30Z</time>
      </trkpt>
      <trkpt lat="46.05305" lon="6.57985">
        <ele>519.54</ele>
        <time>2015-06-07T06:23:34Z</time>
      </trkpt>
      <trkpt lat="46.05301" lon="6.57989">
        <ele>519.71</ele>
        <time>2015-06-07T06:23:35Z</time>
      </trkpt>
      <trkpt lat="46.05285" lon="6.58">
        <ele>516.21</ele>
        <time>2015-06-07T06:23:39Z</time>
      </trkpt>
      <trkpt lat="46.05278" lon="6.58007">
        <ele>515.41</ele>
        <time>2015-06-07T06:23:41Z</time>
      </trkpt>
      <trkpt lat="46.05271" lon="6.58017">
        <ele>513.51</ele>
        <time>2015-06-07T06:23:43Z</time>
      </trkpt>
      <trkpt lat="46.05263" lon="6.58029">
        <ele>511.73</ele>
        <time>2015-06-07T06:23:45Z</time>
      </trkpt>
      <trkpt lat="46.05255" lon="6.58041">
        <ele>510.29</ele>
        <time>2015-06-07T06:23:47Z</time>
      </trkpt>
      <trkpt lat="46.05235" lon="6.58061">
        <ele>506.43</ele>
        <time>2015-06-07T06:23:51Z</time>
      </trkpt>
      <trkpt lat="46.05229" lon="6.58068">
        <ele>505.86</ele>
        <time>2015-06-07T06:23:52Z</time>
      </trkpt>
      <trkpt lat="46.05211" lon="6.58093">
        <ele>503.19</ele>
        <time>2015-06-07T06:23:56Z</time>
      </trkpt>
      <trkpt lat="46.05198" lon="6.58112">
        <ele>500.71</ele>
        <time>2015-06-07T06:23:59Z</time>
      </trkpt>
      <trkpt lat="46.05195" lon="6.58118">
        <ele>500.1</ele>
        <time>2015-06-07T06:24:00Z</time>
      </trkpt>
      <trkpt lat="46.05192" lon="6.58124">
        <ele>499.86</ele>
        <time>2015-06-07T06:24:01Z</time>
      </trkpt>
      <trkpt lat="46.05188" lon="6.5813">
        <ele>498.94</ele>
        <time>2015-06-07T06:24:02Z</time>
      </trkpt>
      <trkpt lat="46.05184" lon="6.58136">
        <ele>498.19</ele>
        <time>2015-06-07T06:24:03Z</time>
      </trkpt>
      <trkpt lat="46.0518" lon="6.58142">
        <ele>498.05</ele>
        <time>2015-06-07T06:24:04Z</time>
      </trkpt>
      <trkpt lat="46.05175" lon="6.58147">
        <ele>497.41</ele>
        <time>2015-06-07T06:24:05Z</time>
      </trkpt>
      <trkpt lat="46.0517" lon="6.58152">
        <ele>496.71</ele>
        <time>2015-06-07T06:24:06Z</time>
      </trkpt>
      <trkpt lat="46.05165" lon="6.58157">
        <ele>496.18</ele>
        <time>2015-06-07T06:24:07Z</time>
      </trkpt>
      <trkpt lat="46.05108" lon="6.58216">
        <ele>496.1</ele>
        <time>2015-06-07T06:24:20Z</time>
      </trkpt>
      <trkpt lat="46.05093" lon="6.58233">
        <ele>495.9</ele>
        <time>2015-06-07T06:24:24Z</time>
      </trkpt>
      <trkpt lat="46.05058" lon="6.58287">
        <ele>497.18</ele>
        <time>2015-06-07T06:24:36Z</time>
      </trkpt>
      <trkpt lat="46.0502" lon="6.58327">
        <ele>499.29</ele>
        <time>2015-06-07T06:24:49Z</time>
      </trkpt>
      <trkpt lat="46.04956" lon="6.58398">
        <ele>497.97</ele>
        <time>2015-06-07T06:25:09Z</time>
      </trkpt>
      <trkpt lat="46.0491" lon="6.58473">
        <ele>497.82</ele>
        <time>2015-06-07T06:25:24Z</time>
      </trkpt>
      <trkpt lat="46.04887" lon="6.58534">
        <ele>498.76</ele>
        <time>2015-06-07T06:25:36Z</time>
      </trkpt>
      <trkpt lat="46.0486" lon="6.58602">
        <ele>499.28</ele>
        <time>2015-06-07T06:25:50Z</time>
      </trkpt>
      <trkpt lat="46.04854" lon="6.58611">
        <ele>499.14</ele>
        <time>2015-06-07T06:25:52Z</time>
      </trkpt>
      <trkpt lat="46.04841" lon="6.58637">
        <ele>498.4</ele>
        <time>2015-06-07T06:25:57Z</time>
      </trkpt>
      <trkpt lat="46.04838" lon="6.58642">
        <ele>498.46</ele>
        <time>2015-06-07T06:25:58Z</time>
      </trkpt>
      <trkpt lat="46.04835" lon="6.58645">
        <ele>498.23</ele>
        <time>2015-06-07T06:25:59Z</time>
      </trkpt>
      <trkpt lat="46.04826" lon="6.58655">
        <ele>498.24</ele>
        <time>2015-06-07T06:26:02Z</time>
      </trkpt>
      <trkpt lat="46.0481" lon="6.58675">
        <ele>498.66</ele>
        <time>2015-06-07T06:26:07Z</time>
      </trkpt>
      <trkpt lat="46.04806" lon="6.58678">
        <ele>498.61</ele>
        <time>2015-06-07T06:26:08Z</time>
      </trkpt>
      <trkpt lat="46.04802" lon="6.58679">
        <ele>498.52</ele>
        <time>2015-06-07T06:26:09Z</time>
      </trkpt>
      <trkpt lat="46.04798" lon="6.58682">
        <ele>498.86</ele>
        <time>2015-06-07T06:26:10Z</time>
      </trkpt>
      <trkpt lat="46.04794" lon="6.58684">
        <ele>498.7</ele>
        <time>2015-06-07T06:26:11Z</time>
      </trkpt>
      <trkpt lat="46.0479" lon="6.58686">
        <ele>498.58</ele>
        <time>2015-06-07T06:26:12Z</time>
      </trkpt>
      <trkpt lat="46.04786" lon="6.58688">
        <ele>499.26</ele>
        <time>2015-06-07T06:26:13Z</time>
      </trkpt>
      <trkpt lat="46.04763" lon="6.58706">
        <ele>498.96</ele>
        <time>2015-06-07T06:26:19Z</time>
      </trkpt>
      <trkpt lat="46.04725" lon="6.58755">
        <ele>498.88</ele>
        <time>2015-06-07T06:26:30Z</time>
      </trkpt>
      <trkpt lat="46.04723" lon="6.58761">
        <ele>498.9</ele>
        <time>2015-06-07T06:26:31Z</time>
      </trkpt>
      <trkpt lat="46.04722" lon="6.58768">
        <ele>499.16</ele>
        <time>2015-06-07T06:26:32Z</time>
      </trkpt>
      <trkpt lat="46.04721" lon="6.58774">
        <ele>498.58</ele>
        <time>2015-06-07T06:26:33Z</time>
      </trkpt>
      <trkpt lat="46.0472" lon="6.5878">
        <ele>499.51</ele>
        <time>2015-06-07T06:26:34Z</time>
      </trkpt>
      <trkpt lat="46.04721" lon="6.58787">
        <ele>498.6</ele>
        <time>2015-06-07T06:26:35Z</time>
      </trkpt>
      <trkpt lat="46.04721" lon="6.58793">
        <ele>498.65</ele>
        <time>2015-06-07T06:26:36Z</time>
      </trkpt>
      <trkpt lat="46.04722" lon="6.58799">
        <ele>498.9</ele>
        <time>2015-06-07T06:26:37Z</time>
      </trkpt>
      <trkpt lat="46.04722" lon="6.58806">
        <ele>497.79</ele>
        <time>2015-06-07T06:26:38Z</time>
      </trkpt>
      <trkpt lat="46.04723" lon="6.58813">
        <ele>498.07</ele>
        <time>2015-06-07T06:26:39Z</time>
      </trkpt>
      <trkpt lat="46.04722" lon="6.58821">
        <ele>497.87</ele>
        <time>2015-06-07T06:26:40Z</time>
      </trkpt>
      <trkpt lat="46.04721" lon="6.58827">
        <ele>497.33</ele>
        <time>2015-06-07T06:26:41Z</time>
      </trkpt>
      <trkpt lat="46.04719" lon="6.58834">
        <ele>497.38</ele>
        <time>2015-06-07T06:26:42Z</time>
      </trkpt>
      <trkpt lat="46.04717" lon="6.5884">
        <ele>497.45</ele>
        <time>2015-06-07T06:26:43Z</time>
      </trkpt>
      <trkpt lat="46.04701" lon="6.5889">
        <ele>496.41</ele>
        <time>2015-06-07T06:26:51Z</time>
      </trkpt>
      <trkpt lat="46.04697" lon="6.58903">
        <ele>496.11</ele>
        <time>2015-06-07T06:26:53Z</time>
      </trkpt>
      <trkpt lat="46.0467" lon="6.58966">
        <ele>498.38</ele>
        <time>2015-06-07T06:27:05Z</time>
      </trkpt>
      <trkpt lat="46.04655" lon="6.5898">
        <ele>498.19</ele>
        <time>2015-06-07T06:27:11Z</time>
      </trkpt>
      <trkpt lat="46.04654" lon="6.58984">
        <ele>497.97</ele>
        <time>2015-06-07T06:27:12Z</time>
      </trkpt>
      <trkpt lat="46.04652" lon="6.58988">
        <ele>498.01</ele>
        <time>2015-06-07T06:27:13Z</time>
      </trkpt>
      <trkpt lat="46.0465" lon="6.58992">
        <ele>498.16</ele>
        <time>2015-06-07T06:27:14Z</time>
      </trkpt>
      <trkpt lat="46.04647" lon="6.58996">
        <ele>498.29</ele>
        <time>2015-06-07T06:27:15Z</time>
      </trkpt>
      <trkpt lat="46.04611" lon="6.59048">
        <ele>497.46</ele>
        <time>2015-06-07T06:27:27Z</time>
      </trkpt>
      <trkpt lat="46.04608" lon="6.59054">
        <ele>497.95</ele>
        <time>2015-06-07T06:27:28Z</time>
      </trkpt>
      <trkpt lat="46.04598" lon="6.59077">
        <ele>497.5</ele>
        <time>2015-06-07T06:27:32Z</time>
      </trkpt>
      <trkpt lat="46.04589" lon="6.59142">
        <ele>496.85</ele>
        <time>2015-06-07T06:27:42Z</time>
      </trkpt>
      <trkpt lat="46.04587" lon="6.59157">
        <ele>496.15</ele>
        <time>2015-06-07T06:27:44Z</time>
      </trkpt>
      <trkpt lat="46.04586" lon="6.59163">
        <ele>496.13</ele>
        <time>2015-06-07T06:27:45Z</time>
      </trkpt>
      <trkpt lat="46.04583" lon="6.59177">
        <ele>496.56</ele>
        <time>2015-06-07T06:27:47Z</time>
      </trkpt>
      <trkpt lat="46.04581" lon="6.59183">
        <ele>496.74</ele>
        <time>2015-06-07T06:27:48Z</time>
      </trkpt>
      <trkpt lat="46.0455" lon="6.59261">
        <ele>497.19</ele>
        <time>2015-06-07T06:28:02Z</time>
      </trkpt>
      <trkpt lat="46.04532" lon="6.59299">
        <ele>497.14</ele>
        <time>2015-06-07T06:28:10Z</time>
      </trkpt>
      <trkpt lat="46.04531" lon="6.59305">
        <ele>497.34</ele>
        <time>2015-06-07T06:28:11Z</time>
      </trkpt>
      <trkpt lat="46.04529" lon="6.59311">
        <ele>497.16</ele>
        <time>2015-06-07T06:28:12Z</time>
      </trkpt>
      <trkpt lat="46.04528" lon="6.59318">
        <ele>497.4</ele>
        <time>2015-06-07T06:28:13Z</time>
      </trkpt>
      <trkpt lat="46.04527" lon="6.59325">
        <ele>497.86</ele>
        <time>2015-06-07T06:28:14Z</time>
      </trkpt>
      <trkpt lat="46.04526" lon="6.59332">
        <ele>498.09</ele>
        <time>2015-06-07T06:28:15Z</time>
      </trkpt>
      <trkpt lat="46.04526" lon="6.59338">
        <ele>497.92</ele>
        <time>2015-06-07T06:28:16Z</time>
      </trkpt>
      <trkpt lat="46.04525" lon="6.59345">
        <ele>497.89</ele>
        <time>2015-06-07T06:28:17Z</time>
      </trkpt>
      <trkpt lat="46.04525" lon="6.59352">
        <ele>498.53</ele>
        <time>2015-06-07T06:28:18Z</time>
      </trkpt>
      <trkpt lat="46.04525" lon="6.59358">
        <ele>499.12</ele>
        <time>2015-06-07T06:28:19Z</time>
      </trkpt>
      <trkpt lat="46.04525" lon="6.59363">
        <ele>499.41</ele>
        <time>2015-06-07T06:28:20Z</time>
      </trkpt>
      <trkpt lat="46.04525" lon="6.59368">
        <ele>499.93</ele>
        <time>2015-06-07T06:28:21Z</time>
      </trkpt>
      <trkpt lat="46.04524" lon="6.59373">
        <ele>499.63</ele>
        <time>2015-06-07T06:28:22Z</time>
      </trkpt>
      <trkpt lat="46.04518" lon="6.59426">
        <ele>500.66</ele>
        <time>2015-06-07T06:28:32Z</time>
      </trkpt>
      <trkpt lat="46.04514" lon="6.59453">
        <ele>500.5</ele>
        <time>2015-06-07T06:28:37Z</time>
      </trkpt>
      <trkpt lat="46.04513" lon="6.5946">
        <ele>499.98</ele>
        <time>2015-06-07T06:28:38Z</time>
      </trkpt>
      <trkpt lat="46.04514" lon="6.59467">
        <ele>500.39</ele>
        <time>2015-06-07T06:28:39Z</time>
      </trkpt>
      <trkpt lat="46.04515" lon="6.59483">
        <ele>499.37</ele>
        <time>2015-06-07T06:28:41Z</time>
      </trkpt>
      <trkpt lat="46.04516" lon="6.59491">
        <ele>499.35</ele>
        <time>2015-06-07T06:28:42Z</time>
      </trkpt>
      <trkpt lat="46.04517" lon="6.5954">
        <ele>499.31</ele>
        <time>2015-06-07T06:28:48Z</time>
      </trkpt>
      <trkpt lat="46.04517" lon="6.59552">
        <ele>499.75</ele>
        <time>2015-06-07T06:28:50Z</time>
      </trkpt>
      <trkpt lat="46.04517" lon="6.59574">
        <ele>498.55</ele>
        <time>2015-06-07T06:28:53Z</time>
      </trkpt>
      <trkpt lat="46.04517" lon="6.5958">
        <ele>498.43</ele>
        <time>2015-06-07T06:28:54Z</time>
      </trkpt>
      <trkpt lat="46.04517" lon="6.59587">
        <ele>498.54</ele>
        <time>2015-06-07T06:28:55Z</time>
      </trkpt>
      <trkpt lat="46.04518" lon="6.59594">
        <ele>498.69</ele>
        <time>2015-06-07T06:28:56Z</time>
      </trkpt>
      <trkpt lat="46.04519" lon="6.59601">
        <ele>498.6</ele>
        <time>2015-06-07T06:28:57Z</time>
      </trkpt>
      <trkpt lat="46.04519" lon="6.59607">
        <ele>499.3</ele>
        <time>2015-06-07T06:28:58Z</time>
      </trkpt>
      <trkpt lat="46.04523" lon="6.59649">
        <ele>498.15</ele>
        <time>2015-06-07T06:29:04Z</time>
      </trkpt>
      <trkpt lat="46.04524" lon="6.59656">
        <ele>498.57</ele>
        <time>2015-06-07T06:29:05Z</time>
      </trkpt>
      <trkpt lat="46.04526" lon="6.5967">
        <ele>497.83</ele>
        <time>2015-06-07T06:29:07Z</time>
      </trkpt>
      <trkpt lat="46.04526" lon="6.59677">
        <ele>497.78</ele>
        <time>2015-06-07T06:29:08Z</time>
      </trkpt>
      <trkpt lat="46.0453" lon="6.59697">
        <ele>497.99</ele>
        <time>2015-06-07T06:29:11Z</time>
      </trkpt>
      <trkpt lat="46.04531" lon="6.59703">
        <ele>497.45</ele>
        <time>2015-06-07T06:29:12Z</time>
      </trkpt>
      <trkpt lat="46.04531" lon="6.59723">
        <ele>497.49</ele>
        <time>2015-06-07T06:29:15Z</time>
      </trkpt>
      <trkpt lat="46.04531" lon="6.5973">
        <ele>497.66</ele>
        <time>2015-06-07T06:29:16Z</time>
      </trkpt>
      <trkpt lat="46.04531" lon="6.59746">
        <ele>497.01</ele>
        <time>2015-06-07T06:29:18Z</time>
      </trkpt>
      <trkpt lat="46.0453" lon="6.59753">
        <ele>496.76</ele>
        <time>2015-06-07T06:29:19Z</time>
      </trkpt>
      <trkpt lat="46.04529" lon="6.5976">
        <ele>496.8</ele>
        <time>2015-06-07T06:29:20Z</time>
      </trkpt>
      <trkpt lat="46.04527" lon="6.59767">
        <ele>496.89</ele>
        <time>2015-06-07T06:29:21Z</time>
      </trkpt>
      <trkpt lat="46.04525" lon="6.59773">
        <ele>497.39</ele>
        <time>2015-06-07T06:29:22Z</time>
      </trkpt>
      <trkpt lat="46.04524" lon="6.59779">
        <ele>497.11</ele>
        <time>2015-06-07T06:29:23Z</time>
      </trkpt>
      <trkpt lat="46.04522" lon="6.59784">
        <ele>497.32</ele>
        <time>2015-06-07T06:29:24Z</time>
      </trkpt>
      <trkpt lat="46.04521" lon="6.5979">
        <ele>497.79</ele>
        <time>2015-06-07T06:29:25Z</time>
      </trkpt>
      <trkpt lat="46.04519" lon="6.59795">
        <ele>497.71</ele>
        <time>2015-06-07T06:29:26Z</time>
      </trkpt>
      <trkpt lat="46.04519" lon="6.59801">
        <ele>497.97</ele>
        <time>2015-06-07T06:29:27Z</time>
      </trkpt>
      <trkpt lat="46.04518" lon="6.59807">
        <ele>498.4</ele>
        <time>2015-06-07T06:29:28Z</time>
      </trkpt>
      <trkpt lat="46.04516" lon="6.59811">
        <ele>498.77</ele>
        <time>2015-06-07T06:29:29Z</time>
      </trkpt>
      <trkpt lat="46.04513" lon="6.59822">
        <ele>498.47</ele>
        <time>2015-06-07T06:29:32Z</time>
      </trkpt>
      <trkpt lat="46.04512" lon="6.59827">
        <ele>498.29</ele>
        <time>2015-06-07T06:29:33Z</time>
      </trkpt>
      <trkpt lat="46.04511" lon="6.59831">
        <ele>498.75</ele>
        <time>2015-06-07T06:29:34Z</time>
      </trkpt>
      <trkpt lat="46.0451" lon="6.59835">
        <ele>498.24</ele>
        <time>2015-06-07T06:29:35Z</time>
      </trkpt>
      <trkpt lat="46.04509" lon="6.59839">
        <ele>497.85</ele>
        <time>2015-06-07T06:29:36Z</time>
      </trkpt>
      <trkpt lat="46.04508" lon="6.59842">
        <ele>497.35</ele>
        <time>2015-06-07T06:29:37Z</time>
      </trkpt>
      <trkpt lat="46.04506" lon="6.59845">
        <ele>497.04</ele>
        <time>2015-06-07T06:29:38Z</time>
      </trkpt>
      <trkpt lat="46.04492" lon="6.59883">
        <ele>495.82</ele>
        <time>2015-06-07T06:29:44Z</time>
      </trkpt>
      <trkpt lat="46.04486" lon="6.59898">
        <ele>494.72</ele>
        <time>2015-06-07T06:29:46Z</time>
      </trkpt>
      <trkpt lat="46.04477" lon="6.59921">
        <ele>494.26</ele>
        <time>2015-06-07T06:29:49Z</time>
      </trkpt>
      <trkpt lat="46.04465" lon="6.59945">
        <ele>494.18</ele>
        <time>2015-06-07T06:29:53Z</time>
      </trkpt>
      <trkpt lat="46.04446" lon="6.59996">
        <ele>494.04</ele>
        <time>2015-06-07T06:30:02Z</time>
      </trkpt>
      <trkpt lat="46.04425" lon="6.60029">
        <ele>494.3</ele>
        <time>2015-06-07T06:30:12Z</time>
      </trkpt>
      <trkpt lat="46.04424" lon="6.60034">
        <ele>494.77</ele>
        <time>2015-06-07T06:30:13Z</time>
      </trkpt>
      <trkpt lat="46.04423" lon="6.60038">
        <ele>494.66</ele>
        <time>2015-06-07T06:30:14Z</time>
      </trkpt>
      <trkpt lat="46.04422" lon="6.60043">
        <ele>495.33</ele>
        <time>2015-06-07T06:30:15Z</time>
      </trkpt>
      <trkpt lat="46.0442" lon="6.60047">
        <ele>495.61</ele>
        <time>2015-06-07T06:30:16Z</time>
      </trkpt>
      <trkpt lat="46.04418" lon="6.60051">
        <ele>495.2</ele>
        <time>2015-06-07T06:30:17Z</time>
      </trkpt>
      <trkpt lat="46.04386" lon="6.60103">
        <ele>495.17</ele>
        <time>2015-06-07T06:30:29Z</time>
      </trkpt>
      <trkpt lat="46.04377" lon="6.60117">
        <ele>495.06</ele>
        <time>2015-06-07T06:30:32Z</time>
      </trkpt>
      <trkpt lat="46.04369" lon="6.60129">
        <ele>495.27</ele>
        <time>2015-06-07T06:30:35Z</time>
      </trkpt>
      <trkpt lat="46.04366" lon="6.60134">
        <ele>495.59</ele>
        <time>2015-06-07T06:30:36Z</time>
      </trkpt>
      <trkpt lat="46.04353" lon="6.60156">
        <ele>495.06</ele>
        <time>2015-06-07T06:30:41Z</time>
      </trkpt>
      <trkpt lat="46.04349" lon="6.6016">
        <ele>494.97</ele>
        <time>2015-06-07T06:30:42Z</time>
      </trkpt>
      <trkpt lat="46.04346" lon="6.60162">
        <ele>494.96</ele>
        <time>2015-06-07T06:30:43Z</time>
      </trkpt>
      <trkpt lat="46.04342" lon="6.60165">
        <ele>494.71</ele>
        <time>2015-06-07T06:30:44Z</time>
      </trkpt>
      <trkpt lat="46.04339" lon="6.6017">
        <ele>495.14</ele>
        <time>2015-06-07T06:30:45Z</time>
      </trkpt>
      <trkpt lat="46.04336" lon="6.60174">
        <ele>494.7</ele>
        <time>2015-06-07T06:30:46Z</time>
      </trkpt>
      <trkpt lat="46.04314" lon="6.602">
        <ele>495.18</ele>
        <time>2015-06-07T06:30:56Z</time>
      </trkpt>
      <trkpt lat="46.04293" lon="6.60209">
        <ele>494.83</ele>
        <time>2015-06-07T06:31:07Z</time>
      </trkpt>
      <trkpt lat="46.04253" lon="6.60238">
        <ele>495.49</ele>
        <time>2015-06-07T06:31:19Z</time>
      </trkpt>
      <trkpt lat="46.04236" lon="6.60246">
        <ele>495.16</ele>
        <time>2015-06-07T06:31:28Z</time>
      </trkpt>
      <trkpt lat="46.04234" lon="6.60248">
        <ele>495.26</ele>
        <time>2015-06-07T06:31:29Z</time>
      </trkpt>
      <trkpt lat="46.04233" lon="6.6025">
        <ele>495.76</ele>
        <time>2015-06-07T06:31:30Z</time>
      </trkpt>
      <trkpt lat="46.0423" lon="6.60252">
        <ele>495.67</ele>
        <time>2015-06-07T06:31:31Z</time>
      </trkpt>
      <trkpt lat="46.04227" lon="6.60254">
        <ele>495.64</ele>
        <time>2015-06-07T06:31:32Z</time>
      </trkpt>
      <trkpt lat="46.04224" lon="6.60256">
        <ele>495.55</ele>
        <time>2015-06-07T06:31:33Z</time>
      </trkpt>
      <trkpt lat="46.04221" lon="6.60258">
        <ele>495.24</ele>
        <time>2015-06-07T06:31:34Z</time>
      </trkpt>
      <trkpt lat="46.04217" lon="6.6026">
        <ele>495.33</ele>
        <time>2015-06-07T06:31:35Z</time>
      </trkpt>
      <trkpt lat="46.04214" lon="6.60262">
        <ele>495.48</ele>
        <time>2015-06-07T06:31:36Z</time>
      </trkpt>
      <trkpt lat="46.0421" lon="6.60263">
        <ele>495.25</ele>
        <time>2015-06-07T06:31:37Z</time>
      </trkpt>
      <trkpt lat="46.04183" lon="6.60289">
        <ele>494.98</ele>
        <time>2015-06-07T06:31:46Z</time>
      </trkpt>
      <trkpt lat="46.04181" lon="6.60289">
        <ele>495.55</ele>
        <time>2015-06-07T06:31:47Z</time>
      </trkpt>
      <trkpt lat="46.04179" lon="6.60288">
        <ele>495.63</ele>
        <time>2015-06-07T06:31:48Z</time>
      </trkpt>
      <trkpt lat="46.04177" lon="6.60288">
        <ele>495.13</ele>
        <time>2015-06-07T06:31:49Z</time>
      </trkpt>
      <trkpt lat="46.04175" lon="6.60289">
        <ele>494.93</ele>
        <time>2015-06-07T06:31:50Z</time>
      </trkpt>
      <trkpt lat="46.04172" lon="6.6029">
        <ele>494.97</ele>
        <time>2015-06-07T06:31:51Z</time>
      </trkpt>
      <trkpt lat="46.0417" lon="6.60291">
        <ele>495.41</ele>
        <time>2015-06-07T06:31:52Z</time>
      </trkpt>
      <trkpt lat="46.04167" lon="6.60292">
        <ele>495.5</ele>
        <time>2015-06-07T06:31:53Z</time>
      </trkpt>
      <trkpt lat="46.04165" lon="6.60294">
        <ele>495.68</ele>
        <time>2015-06-07T06:31:54Z</time>
      </trkpt>
      <trkpt lat="46.04164" lon="6.60295">
        <ele>495.3</ele>
        <time>2015-06-07T06:31:55Z</time>
      </trkpt>
      <trkpt lat="46.04161" lon="6.60297">
        <ele>495.55</ele>
        <time>2015-06-07T06:31:56Z</time>
      </trkpt>
      <trkpt lat="46.0416" lon="6.60299">
        <ele>496.07</ele>
        <time>2015-06-07T06:31:57Z</time>
      </trkpt>
      <trkpt lat="46.04158" lon="6.60302">
        <ele>496.01</ele>
        <time>2015-06-07T06:31:58Z</time>
      </trkpt>
      <trkpt lat="46.04157" lon="6.60304">
        <ele>495.91</ele>
        <time>2015-06-07T06:31:59Z</time>
      </trkpt>
      <trkpt lat="46.04156" lon="6.60307">
        <ele>495.43</ele>
        <time>2015-06-07T06:32:00Z</time>
      </trkpt>
      <trkpt lat="46.04155" lon="6.6031">
        <ele>495.57</ele>
        <time>2015-06-07T06:32:01Z</time>
      </trkpt>
      <trkpt lat="46.04153" lon="6.60313">
        <ele>495.66</ele>
        <time>2015-06-07T06:32:02Z</time>
      </trkpt>
      <trkpt lat="46.04152" lon="6.60316">
        <ele>496.01</ele>
        <time>2015-06-07T06:32:03Z</time>
      </trkpt>
      <trkpt lat="46.04147" lon="6.60362">
        <ele>496.43</ele>
        <time>2015-06-07T06:32:16Z</time>
      </trkpt>
      <trkpt lat="46.04141" lon="6.60396">
        <ele>498.02</ele>
        <time>2015-06-07T06:32:29Z</time>
      </trkpt>
      <trkpt lat="46.04135" lon="6.60406">
        <ele>501.05</ele>
        <time>2015-06-07T06:32:34Z</time>
      </trkpt>
      <trkpt lat="46.04129" lon="6.60413">
        <ele>503.15</ele>
        <time>2015-06-07T06:32:39Z</time>
      </trkpt>
      <trkpt lat="46.04123" lon="6.60424">
        <ele>505.72</ele>
        <time>2015-06-07T06:32:45Z</time>
      </trkpt>
      <trkpt lat="46.04114" lon="6.60435">
        <ele>508.82</ele>
        <time>2015-06-07T06:32:53Z</time>
      </trkpt>
      <trkpt lat="46.04114" lon="6.60437">
        <ele>509.25</ele>
        <time>2015-06-07T06:32:54Z</time>
      </trkpt>
      <trkpt lat="46.04113" lon="6.60438">
        <ele>509.53</ele>
        <time>2015-06-07T06:32:55Z</time>
      </trkpt>
      <trkpt lat="46.04112" lon="6.6044">
        <ele>509.78</ele>
        <time>2015-06-07T06:32:56Z</time>
      </trkpt>
      <trkpt lat="46.04111" lon="6.60442">
        <ele>510.31</ele>
        <time>2015-06-07T06:32:58Z</time>
      </trkpt>
      <trkpt lat="46.04103" lon="6.60449">
        <ele>512.08</ele>
        <time>2015-06-07T06:33:12Z</time>
      </trkpt>
      <trkpt lat="46.04099" lon="6.60455">
        <ele>514.28</ele>
        <time>2015-06-07T06:33:30Z</time>
      </trkpt>
      <trkpt lat="46.04091" lon="6.60452">
        <ele>517.38</ele>
        <time>2015-06-07T06:33:47Z</time>
      </trkpt>
      <trkpt lat="46.04085" lon="6.60452">
        <ele>517.16</ele>
        <time>2015-06-07T06:34:02Z</time>
      </trkpt>
      <trkpt lat="46.04083" lon="6.60451">
        <ele>517.4</ele>
        <time>2015-06-07T06:34:03Z</time>
      </trkpt>
      <trkpt lat="46.04081" lon="6.6045">
        <ele>517.17</ele>
        <time>2015-06-07T06:34:04Z</time>
      </trkpt>
      <trkpt lat="46.04079" lon="6.60449">
        <ele>516.62</ele>
        <time>2015-06-07T06:34:05Z</time>
      </trkpt>
      <trkpt lat="46.04078" lon="6.60446">
        <ele>516.56</ele>
        <time>2015-06-07T06:34:06Z</time>
      </trkpt>
      <trkpt lat="46.04076" lon="6.60443">
        <ele>516.31</ele>
        <time>2015-06-07T06:34:07Z</time>
      </trkpt>
      <trkpt lat="46.04071" lon="6.60423">
        <ele>518.57</ele>
        <time>2015-06-07T06:34:16Z</time>
      </trkpt>
      <trkpt lat="46.04063" lon="6.60394">
        <ele>518.54</ele>
        <time>2015-06-07T06:34:30Z</time>
      </trkpt>
      <trkpt lat="46.04061" lon="6.60374">
        <ele>515.34</ele>
        <time>2015-06-07T06:34:38Z</time>
      </trkpt>
      <trkpt lat="46.04051" lon="6.60356">
        <ele>511.63</ele>
        <time>2015-06-07T06:34:43Z</time>
      </trkpt>
      <trkpt lat="46.04043" lon="6.60351">
        <ele>509.8</ele>
        <time>2015-06-07T06:34:45Z</time>
      </trkpt>
      <trkpt lat="46.04038" lon="6.6035">
        <ele>509.6</ele>
        <time>2015-06-07T06:34:46Z</time>
      </trkpt>
      <trkpt lat="46.04034" lon="6.60347">
        <ele>510.61</ele>
        <time>2015-06-07T06:34:47Z</time>
      </trkpt>
      <trkpt lat="46.04031" lon="6.60346">
        <ele>510.45</ele>
        <time>2015-06-07T06:34:48Z</time>
      </trkpt>
      <trkpt lat="46.04029" lon="6.60344">
        <ele>510.4</ele>
        <time>2015-06-07T06:34:49Z</time>
      </trkpt>
      <trkpt lat="46.04028" lon="6.60342">
        <ele>509.2</ele>
        <time>2015-06-07T06:34:50Z</time>
      </trkpt>
      <trkpt lat="46.04026" lon="6.6034">
        <ele>510.21</ele>
        <time>2015-06-07T06:34:51Z</time>
      </trkpt>
      <trkpt lat="46.04024" lon="6.60338">
        <ele>510.38</ele>
        <time>2015-06-07T06:34:52Z</time>
      </trkpt>
      <trkpt lat="46.04022" lon="6.60337">
        <ele>510.19</ele>
        <time>2015-06-07T06:34:53Z</time>
      </trkpt>
      <trkpt lat="46.04008" lon="6.6033">
        <ele>508.1</ele>
        <time>2015-06-07T06:35:07Z</time>
      </trkpt>
      <trkpt lat="46.03993" lon="6.60324">
        <ele>504.63</ele>
        <time>2015-06-07T06:35:17Z</time>
      </trkpt>
      <trkpt lat="46.03981" lon="6.60315">
        <ele>501.45</ele>
        <time>2015-06-07T06:35:23Z</time>
      </trkpt>
      <trkpt lat="46.03952" lon="6.60313">
        <ele>499.82</ele>
        <time>2015-06-07T06:35:32Z</time>
      </trkpt>
      <trkpt lat="46.03922" lon="6.60313">
        <ele>503.16</ele>
        <time>2015-06-07T06:35:44Z</time>
      </trkpt>
      <trkpt lat="46.03897" lon="6.60314">
        <ele>506.25</ele>
        <time>2015-06-07T06:35:56Z</time>
      </trkpt>
      <trkpt lat="46.03883" lon="6.60307">
        <ele>508.91</ele>
        <time>2015-06-07T06:36:05Z</time>
      </trkpt>
      <trkpt lat="46.03853" lon="6.60301">
        <ele>509.24</ele>
        <time>2015-06-07T06:36:21Z</time>
      </trkpt>
      <trkpt lat="46.03821" lon="6.60296">
        <ele>509.44</ele>
        <time>2015-06-07T06:36:36Z</time>
      </trkpt>
      <trkpt lat="46.03819" lon="6.60295">
        <ele>509.59</ele>
        <time>2015-06-07T06:36:37Z</time>
      </trkpt>
      <trkpt lat="46.03817" lon="6.60294">
        <ele>510.5</ele>
        <time>2015-06-07T06:36:38Z</time>
      </trkpt>
      <trkpt lat="46.03815" lon="6.60293">
        <ele>510.17</ele>
        <time>2015-06-07T06:36:39Z</time>
      </trkpt>
      <trkpt lat="46.03812" lon="6.60292">
        <ele>510.63</ele>
        <time>2015-06-07T06:36:40Z</time>
      </trkpt>
      <trkpt lat="46.03811" lon="6.60292">
        <ele>510.81</ele>
        <time>2015-06-07T06:36:41Z</time>
      </trkpt>
      <trkpt lat="46.03809" lon="6.60292">
        <ele>511.01</ele>
        <time>2015-06-07T06:36:42Z</time>
      </trkpt>
      <trkpt lat="46.03807" lon="6.60292">
        <ele>510.93</ele>
        <time>2015-06-07T06:36:43Z</time>
      </trkpt>
      <trkpt lat="46.03805" lon="6.60292">
        <ele>510.66</ele>
        <time>2015-06-07T06:36:44Z</time>
      </trkpt>
      <trkpt lat="46.03803" lon="6.60291">
        <ele>510.84</ele>
        <time>2015-06-07T06:36:45Z</time>
      </trkpt>
      <trkpt lat="46.03762" lon="6.60301">
        <ele>509.34</ele>
        <time>2015-06-07T06:37:01Z</time>
      </trkpt>
      <trkpt lat="46.03753" lon="6.60308">
        <ele>508.76</ele>
        <time>2015-06-07T06:37:03Z</time>
      </trkpt>
      <trkpt lat="46.03742" lon="6.60313">
        <ele>507.55</ele>
        <time>2015-06-07T06:37:05Z</time>
      </trkpt>
      <trkpt lat="46.03737" lon="6.60316">
        <ele>506.29</ele>
        <time>2015-06-07T06:37:06Z</time>
      </trkpt>
      <trkpt lat="46.03731" lon="6.60319">
        <ele>506</ele>
        <time>2015-06-07T06:37:07Z</time>
      </trkpt>
      <trkpt lat="46.03725" lon="6.60322">
        <ele>505.14</ele>
        <time>2015-06-07T06:37:08Z</time>
      </trkpt>
      <trkpt lat="46.03713" lon="6.60332">
        <ele>504.34</ele>
        <time>2015-06-07T06:37:10Z</time>
      </trkpt>
      <trkpt lat="46.03707" lon="6.60338">
        <ele>502.67</ele>
        <time>2015-06-07T06:37:11Z</time>
      </trkpt>
      <trkpt lat="46.03688" lon="6.6036">
        <ele>499.34</ele>
        <time>2015-06-07T06:37:14Z</time>
      </trkpt>
      <trkpt lat="46.03682" lon="6.60369">
        <ele>499.15</ele>
        <time>2015-06-07T06:37:15Z</time>
      </trkpt>
      <trkpt lat="46.03663" lon="6.604">
        <ele>496.11</ele>
        <time>2015-06-07T06:37:18Z</time>
      </trkpt>
      <trkpt lat="46.03616" lon="6.60502">
        <ele>495.71</ele>
        <time>2015-06-07T06:37:29Z</time>
      </trkpt>
      <trkpt lat="46.03562" lon="6.60608">
        <ele>495.77</ele>
        <time>2015-06-07T06:37:45Z</time>
      </trkpt>
      <trkpt lat="46.03544" lon="6.60645">
        <ele>495.84</ele>
        <time>2015-06-07T06:37:51Z</time>
      </trkpt>
      <trkpt lat="46.03507" lon="6.60701">
        <ele>496.14</ele>
        <time>2015-06-07T06:38:01Z</time>
      </trkpt>
      <trkpt lat="46.03505" lon="6.60707">
        <ele>496.75</ele>
        <time>2015-06-07T06:38:02Z</time>
      </trkpt>
      <trkpt lat="46.03503" lon="6.60714">
        <ele>496.34</ele>
        <time>2015-06-07T06:38:03Z</time>
      </trkpt>
      <trkpt lat="46.03502" lon="6.60721">
        <ele>496.05</ele>
        <time>2015-06-07T06:38:04Z</time>
      </trkpt>
      <trkpt lat="46.03501" lon="6.60728">
        <ele>495.91</ele>
        <time>2015-06-07T06:38:05Z</time>
      </trkpt>
      <trkpt lat="46.03497" lon="6.60881">
        <ele>495.99</ele>
        <time>2015-06-07T06:38:26Z</time>
      </trkpt>
      <trkpt lat="46.03494" lon="6.61011">
        <ele>496.8</ele>
        <time>2015-06-07T06:38:44Z</time>
      </trkpt>
      <trkpt lat="46.03487" lon="6.61074">
        <ele>496.7</ele>
        <time>2015-06-07T06:38:53Z</time>
      </trkpt>
      <trkpt lat="46.03476" lon="6.61104">
        <ele>496.33</ele>
        <time>2015-06-07T06:38:58Z</time>
      </trkpt>
      <trkpt lat="46.03473" lon="6.61109">
        <ele>496.55</ele>
        <time>2015-06-07T06:38:59Z</time>
      </trkpt>
      <trkpt lat="46.03469" lon="6.61114">
        <ele>496.34</ele>
        <time>2015-06-07T06:39:00Z</time>
      </trkpt>
      <trkpt lat="46.03398" lon="6.61171">
        <ele>496.87</ele>
        <time>2015-06-07T06:39:17Z</time>
      </trkpt>
      <trkpt lat="46.03354" lon="6.61183">
        <ele>498.25</ele>
        <time>2015-06-07T06:39:27Z</time>
      </trkpt>
      <trkpt lat="46.03338" lon="6.61184">
        <ele>498.91</ele>
        <time>2015-06-07T06:39:31Z</time>
      </trkpt>
      <trkpt lat="46.03334" lon="6.61183">
        <ele>498.9</ele>
        <time>2015-06-07T06:39:32Z</time>
      </trkpt>
      <trkpt lat="46.03273" lon="6.61169">
        <ele>501.14</ele>
        <time>2015-06-07T06:39:49Z</time>
      </trkpt>
      <trkpt lat="46.03221" lon="6.61177">
        <ele>502.19</ele>
        <time>2015-06-07T06:40:04Z</time>
      </trkpt>
      <trkpt lat="46.03155" lon="6.61193">
        <ele>502.31</ele>
        <time>2015-06-07T06:40:21Z</time>
      </trkpt>
      <trkpt lat="46.03134" lon="6.61203">
        <ele>502.44</ele>
        <time>2015-06-07T06:40:26Z</time>
      </trkpt>
      <trkpt lat="46.03129" lon="6.61203">
        <ele>501.37</ele>
        <time>2015-06-07T06:40:27Z</time>
      </trkpt>
      <trkpt lat="46.03116" lon="6.61205">
        <ele>501.82</ele>
        <time>2015-06-07T06:40:30Z</time>
      </trkpt>
      <trkpt lat="46.03112" lon="6.61204">
        <ele>502.19</ele>
        <time>2015-06-07T06:40:31Z</time>
      </trkpt>
      <trkpt lat="46.03108" lon="6.61203">
        <ele>502.44</ele>
        <time>2015-06-07T06:40:32Z</time>
      </trkpt>
      <trkpt lat="46.0304" lon="6.61163">
        <ele>503.73</ele>
        <time>2015-06-07T06:40:51Z</time>
      </trkpt>
      <trkpt lat="46.02987" lon="6.61146">
        <ele>505.05</ele>
        <time>2015-06-07T06:41:05Z</time>
      </trkpt>
      <trkpt lat="46.02938" lon="6.61098">
        <ele>503.7</ele>
        <time>2015-06-07T06:41:19Z</time>
      </trkpt>
      <trkpt lat="46.02918" lon="6.61079">
        <ele>503.86</ele>
        <time>2015-06-07T06:41:24Z</time>
      </trkpt>
      <trkpt lat="46.02913" lon="6.61077">
        <ele>503.86</ele>
        <time>2015-06-07T06:41:25Z</time>
      </trkpt>
      <trkpt lat="46.02909" lon="6.61075">
        <ele>503.44</ele>
        <time>2015-06-07T06:41:26Z</time>
      </trkpt>
      <trkpt lat="46.02904" lon="6.61074">
        <ele>503.74</ele>
        <time>2015-06-07T06:41:27Z</time>
      </trkpt>
      <trkpt lat="46.02898" lon="6.61074">
        <ele>503.44</ele>
        <time>2015-06-07T06:41:28Z</time>
      </trkpt>
      <trkpt lat="46.02893" lon="6.61074">
        <ele>503.82</ele>
        <time>2015-06-07T06:41:29Z</time>
      </trkpt>
      <trkpt lat="46.02792" lon="6.61061">
        <ele>503.43</ele>
        <time>2015-06-07T06:41:48Z</time>
      </trkpt>
      <trkpt lat="46.02687" lon="6.6105">
        <ele>505.12</ele>
        <time>2015-06-07T06:42:09Z</time>
      </trkpt>
      <trkpt lat="46.02649" lon="6.61051">
        <ele>507.53</ele>
        <time>2015-06-07T06:42:20Z</time>
      </trkpt>
      <trkpt lat="46.02606" lon="6.61039">
        <ele>508.54</ele>
        <time>2015-06-07T06:42:32Z</time>
      </trkpt>
      <trkpt lat="46.02564" lon="6.61015">
        <ele>507.73</ele>
        <time>2015-06-07T06:42:42Z</time>
      </trkpt>
      <trkpt lat="46.02527" lon="6.60999">
        <ele>505.27</ele>
        <time>2015-06-07T06:42:48Z</time>
      </trkpt>
      <trkpt lat="46.0252" lon="6.60999">
        <ele>504.89</ele>
        <time>2015-06-07T06:42:49Z</time>
      </trkpt>
      <trkpt lat="46.02513" lon="6.61">
        <ele>504.8</ele>
        <time>2015-06-07T06:42:50Z</time>
      </trkpt>
      <trkpt lat="46.02479" lon="6.61012">
        <ele>504.02</ele>
        <time>2015-06-07T06:42:55Z</time>
      </trkpt>
      <trkpt lat="46.02459" lon="6.61017">
        <ele>503.85</ele>
        <time>2015-06-07T06:42:58Z</time>
      </trkpt>
      <trkpt lat="46.02453" lon="6.6102">
        <ele>504.13</ele>
        <time>2015-06-07T06:42:59Z</time>
      </trkpt>
      <trkpt lat="46.02389" lon="6.61074">
        <ele>503.89</ele>
        <time>2015-06-07T06:43:14Z</time>
      </trkpt>
      <trkpt lat="46.02368" lon="6.61095">
        <ele>504.06</ele>
        <time>2015-06-07T06:43:20Z</time>
      </trkpt>
      <trkpt lat="46.02365" lon="6.61099">
        <ele>504.18</ele>
        <time>2015-06-07T06:43:21Z</time>
      </trkpt>
      <trkpt lat="46.02362" lon="6.61103">
        <ele>503.97</ele>
        <time>2015-06-07T06:43:22Z</time>
      </trkpt>
      <trkpt lat="46.02359" lon="6.61106">
        <ele>504.62</ele>
        <time>2015-06-07T06:43:23Z</time>
      </trkpt>
      <trkpt lat="46.02355" lon="6.61109">
        <ele>504.36</ele>
        <time>2015-06-07T06:43:24Z</time>
      </trkpt>
      <trkpt lat="46.02352" lon="6.6111">
        <ele>504.65</ele>
        <time>2015-06-07T06:43:25Z</time>
      </trkpt>
      <trkpt lat="46.02291" lon="6.61135">
        <ele>505.83</ele>
        <time>2015-06-07T06:43:41Z</time>
      </trkpt>
      <trkpt lat="46.02242" lon="6.61171">
        <ele>506.29</ele>
        <time>2015-06-07T06:43:53Z</time>
      </trkpt>
      <trkpt lat="46.02239" lon="6.61176">
        <ele>506.34</ele>
        <time>2015-06-07T06:43:54Z</time>
      </trkpt>
      <trkpt lat="46.02237" lon="6.61181">
        <ele>506.43</ele>
        <time>2015-06-07T06:43:55Z</time>
      </trkpt>
      <trkpt lat="46.02225" lon="6.61208">
        <ele>506.13</ele>
        <time>2015-06-07T06:44:00Z</time>
      </trkpt>
      <trkpt lat="46.02222" lon="6.61213">
        <ele>506.21</ele>
        <time>2015-06-07T06:44:01Z</time>
      </trkpt>
      <trkpt lat="46.0222" lon="6.61217">
        <ele>506.39</ele>
        <time>2015-06-07T06:44:02Z</time>
      </trkpt>
      <trkpt lat="46.02172" lon="6.61258">
        <ele>507.1</ele>
        <time>2015-06-07T06:44:16Z</time>
      </trkpt>
      <trkpt lat="46.02143" lon="6.6129">
        <ele>507.57</ele>
        <time>2015-06-07T06:44:25Z</time>
      </trkpt>
      <trkpt lat="46.02139" lon="6.61293">
        <ele>507.18</ele>
        <time>2015-06-07T06:44:26Z</time>
      </trkpt>
      <trkpt lat="46.02136" lon="6.61296">
        <ele>506.77</ele>
        <time>2015-06-07T06:44:27Z</time>
      </trkpt>
      <trkpt lat="46.02129" lon="6.61304">
        <ele>507.05</ele>
        <time>2015-06-07T06:44:29Z</time>
      </trkpt>
      <trkpt lat="46.02116" lon="6.61315">
        <ele>506.6</ele>
        <time>2015-06-07T06:44:32Z</time>
      </trkpt>
      <trkpt lat="46.02086" lon="6.61334">
        <ele>506.39</ele>
        <time>2015-06-07T06:44:39Z</time>
      </trkpt>
      <trkpt lat="46.02082" lon="6.61338">
        <ele>506.02</ele>
        <time>2015-06-07T06:44:40Z</time>
      </trkpt>
      <trkpt lat="46.02078" lon="6.61343">
        <ele>506.22</ele>
        <time>2015-06-07T06:44:41Z</time>
      </trkpt>
      <trkpt lat="46.02075" lon="6.61348">
        <ele>506.46</ele>
        <time>2015-06-07T06:44:42Z</time>
      </trkpt>
      <trkpt lat="46.02072" lon="6.61353">
        <ele>506.31</ele>
        <time>2015-06-07T06:44:43Z</time>
      </trkpt>
      <trkpt lat="46.02069" lon="6.61359">
        <ele>505.91</ele>
        <time>2015-06-07T06:44:44Z</time>
      </trkpt>
      <trkpt lat="46.02056" lon="6.61381">
        <ele>506.03</ele>
        <time>2015-06-07T06:44:48Z</time>
      </trkpt>
      <trkpt lat="46.02052" lon="6.61385">
        <ele>506.07</ele>
        <time>2015-06-07T06:44:49Z</time>
      </trkpt>
      <trkpt lat="46.02048" lon="6.61388">
        <ele>505.5</ele>
        <time>2015-06-07T06:44:50Z</time>
      </trkpt>
      <trkpt lat="46.02044" lon="6.61391">
        <ele>506.05</ele>
        <time>2015-06-07T06:44:51Z</time>
      </trkpt>
      <trkpt lat="46.02039" lon="6.61394">
        <ele>505.85</ele>
        <time>2015-06-07T06:44:52Z</time>
      </trkpt>
      <trkpt lat="46.02004" lon="6.61409">
        <ele>506.29</ele>
        <time>2015-06-07T06:45:00Z</time>
      </trkpt>
      <trkpt lat="46.01999" lon="6.61408">
        <ele>506.61</ele>
        <time>2015-06-07T06:45:01Z</time>
      </trkpt>
      <trkpt lat="46.01945" lon="6.6138">
        <ele>507.87</ele>
        <time>2015-06-07T06:45:14Z</time>
      </trkpt>
      <trkpt lat="46.01893" lon="6.61378">
        <ele>508.32</ele>
        <time>2015-06-07T06:45:28Z</time>
      </trkpt>
      <trkpt lat="46.01863" lon="6.61383">
        <ele>506.4</ele>
        <time>2015-06-07T06:45:33Z</time>
      </trkpt>
      <trkpt lat="46.01857" lon="6.61383">
        <ele>506.44</ele>
        <time>2015-06-07T06:45:34Z</time>
      </trkpt>
      <trkpt lat="46.01792" lon="6.61369">
        <ele>506.72</ele>
        <time>2015-06-07T06:45:46Z</time>
      </trkpt>
      <trkpt lat="46.01756" lon="6.6136">
        <ele>506.96</ele>
        <time>2015-06-07T06:45:54Z</time>
      </trkpt>
      <trkpt lat="46.01752" lon="6.61358">
        <ele>506.9</ele>
        <time>2015-06-07T06:45:55Z</time>
      </trkpt>
      <trkpt lat="46.01748" lon="6.61357">
        <ele>506.22</ele>
        <time>2015-06-07T06:45:56Z</time>
      </trkpt>
      <trkpt lat="46.01725" lon="6.61353">
        <ele>506.43</ele>
        <time>2015-06-07T06:46:01Z</time>
      </trkpt>
      <trkpt lat="46.01657" lon="6.61327">
        <ele>508.62</ele>
        <time>2015-06-07T06:46:19Z</time>
      </trkpt>
      <trkpt lat="46.01618" lon="6.61312">
        <ele>511</ele>
        <time>2015-06-07T06:46:34Z</time>
      </trkpt>
      <trkpt lat="46.01593" lon="6.61306">
        <ele>514.46</ele>
        <time>2015-06-07T06:46:46Z</time>
      </trkpt>
      <trkpt lat="46.01591" lon="6.61305">
        <ele>514.73</ele>
        <time>2015-06-07T06:46:47Z</time>
      </trkpt>
      <trkpt lat="46.01573" lon="6.61304">
        <ele>517.93</ele>
        <time>2015-06-07T06:46:56Z</time>
      </trkpt>
      <trkpt lat="46.01553" lon="6.613">
        <ele>520.94</ele>
        <time>2015-06-07T06:47:07Z</time>
      </trkpt>
      <trkpt lat="46.0155" lon="6.613">
        <ele>521.89</ele>
        <time>2015-06-07T06:47:09Z</time>
      </trkpt>
      <trkpt lat="46.01538" lon="6.61297">
        <ele>523.3</ele>
        <time>2015-06-07T06:47:17Z</time>
      </trkpt>
      <trkpt lat="46.01537" lon="6.61297">
        <ele>524.08</ele>
        <time>2015-06-07T06:47:18Z</time>
      </trkpt>
      <trkpt lat="46.01523" lon="6.61293">
        <ele>526.32</ele>
        <time>2015-06-07T06:47:27Z</time>
      </trkpt>
      <trkpt lat="46.01504" lon="6.61288">
        <ele>529.91</ele>
        <time>2015-06-07T06:47:37Z</time>
      </trkpt>
      <trkpt lat="46.01492" lon="6.61287">
        <ele>531.71</ele>
        <time>2015-06-07T06:47:47Z</time>
      </trkpt>
      <trkpt lat="46.01491" lon="6.61285">
        <ele>531.78</ele>
        <time>2015-06-07T06:47:48Z</time>
      </trkpt>
      <trkpt lat="46.01465" lon="6.61284">
        <ele>533.21</ele>
        <time>2015-06-07T06:48:07Z</time>
      </trkpt>
      <trkpt lat="46.0143" lon="6.61314">
        <ele>533.15</ele>
        <time>2015-06-07T06:48:24Z</time>
      </trkpt>
      <trkpt lat="46.01372" lon="6.61373">
        <ele>530.82</ele>
        <time>2015-06-07T06:48:40Z</time>
      </trkpt>
      <trkpt lat="46.0134" lon="6.61409">
        <ele>528.55</ele>
        <time>2015-06-07T06:48:47Z</time>
      </trkpt>
      <trkpt lat="46.01324" lon="6.61423">
        <ele>528.05</ele>
        <time>2015-06-07T06:48:50Z</time>
      </trkpt>
      <trkpt lat="46.01318" lon="6.61426">
        <ele>527.62</ele>
        <time>2015-06-07T06:48:51Z</time>
      </trkpt>
      <trkpt lat="46.01312" lon="6.61429">
        <ele>527.67</ele>
        <time>2015-06-07T06:48:52Z</time>
      </trkpt>
      <trkpt lat="46.01306" lon="6.61431">
        <ele>527.17</ele>
        <time>2015-06-07T06:48:53Z</time>
      </trkpt>
      <trkpt lat="46.01299" lon="6.61432">
        <ele>527.24</ele>
        <time>2015-06-07T06:48:54Z</time>
      </trkpt>
      <trkpt lat="46.01266" lon="6.6144">
        <ele>525.78</ele>
        <time>2015-06-07T06:48:59Z</time>
      </trkpt>
      <trkpt lat="46.01245" lon="6.61446">
        <ele>524.28</ele>
        <time>2015-06-07T06:49:02Z</time>
      </trkpt>
      <trkpt lat="46.01238" lon="6.61446">
        <ele>523.74</ele>
        <time>2015-06-07T06:49:03Z</time>
      </trkpt>
      <trkpt lat="46.01219" lon="6.61451">
        <ele>524.63</ele>
        <time>2015-06-07T06:49:06Z</time>
      </trkpt>
      <trkpt lat="46.01213" lon="6.61454">
        <ele>524.49</ele>
        <time>2015-06-07T06:49:07Z</time>
      </trkpt>
      <trkpt lat="46.01144" lon="6.61475">
        <ele>524.75</ele>
        <time>2015-06-07T06:49:22Z</time>
      </trkpt>
      <trkpt lat="46.01113" lon="6.61481">
        <ele>526.53</ele>
        <time>2015-06-07T06:49:30Z</time>
      </trkpt>
      <trkpt lat="46.01097" lon="6.61482">
        <ele>527.89</ele>
        <time>2015-06-07T06:49:35Z</time>
      </trkpt>
      <trkpt lat="46.01088" lon="6.61482">
        <ele>528.76</ele>
        <time>2015-06-07T06:49:40Z</time>
      </trkpt>
      <trkpt lat="46.01087" lon="6.61483">
        <ele>529.02</ele>
        <time>2015-06-07T06:49:41Z</time>
      </trkpt>
      <trkpt lat="46.01085" lon="6.61484">
        <ele>529.33</ele>
        <time>2015-06-07T06:49:42Z</time>
      </trkpt>
      <trkpt lat="46.01083" lon="6.61484">
        <ele>529.22</ele>
        <time>2015-06-07T06:49:43Z</time>
      </trkpt>
      <trkpt lat="46.01081" lon="6.61485">
        <ele>528.99</ele>
        <time>2015-06-07T06:49:44Z</time>
      </trkpt>
      <trkpt lat="46.01079" lon="6.61485">
        <ele>529.14</ele>
        <time>2015-06-07T06:49:45Z</time>
      </trkpt>
      <trkpt lat="46.01077" lon="6.61485">
        <ele>529.71</ele>
        <time>2015-06-07T06:49:46Z</time>
      </trkpt>
      <trkpt lat="46.01075" lon="6.61486">
        <ele>529.71</ele>
        <time>2015-06-07T06:49:47Z</time>
      </trkpt>
      <trkpt lat="46.01074" lon="6.61488">
        <ele>529.12</ele>
        <time>2015-06-07T06:49:48Z</time>
      </trkpt>
      <trkpt lat="46.01072" lon="6.61506">
        <ele>527.64</ele>
        <time>2015-06-07T06:49:54Z</time>
      </trkpt>
      <trkpt lat="46.01069" lon="6.61508">
        <ele>528.13</ele>
        <time>2015-06-07T06:49:55Z</time>
      </trkpt>
      <trkpt lat="46.01067" lon="6.61509">
        <ele>528.04</ele>
        <time>2015-06-07T06:49:56Z</time>
      </trkpt>
      <trkpt lat="46.01037" lon="6.61539">
        <ele>529.67</ele>
        <time>2015-06-07T06:50:10Z</time>
      </trkpt>
      <trkpt lat="46.01017" lon="6.61557">
        <ele>527.15</ele>
        <time>2015-06-07T06:50:22Z</time>
      </trkpt>
      <trkpt lat="46.01007" lon="6.61563">
        <ele>523.18</ele>
        <time>2015-06-07T06:50:25Z</time>
      </trkpt>
      <trkpt lat="46.01004" lon="6.61565">
        <ele>523.27</ele>
        <time>2015-06-07T06:50:26Z</time>
      </trkpt>
      <trkpt lat="46.00974" lon="6.61571">
        <ele>522.37</ele>
        <time>2015-06-07T06:50:37Z</time>
      </trkpt>
      <trkpt lat="46.0096" lon="6.61575">
        <ele>522.72</ele>
        <time>2015-06-07T06:50:50Z</time>
      </trkpt>
      <trkpt lat="46.00963" lon="6.61575">
        <ele>522.64</ele>
        <time>2015-06-07T06:50:53Z</time>
      </trkpt>
      <trkpt lat="46.00966" lon="6.61575">
        <ele>522.32</ele>
        <time>2015-06-07T06:50:54Z</time>
      </trkpt>
      <trkpt lat="46.00968" lon="6.61577">
        <ele>521.91</ele>
        <time>2015-06-07T06:50:55Z</time>
      </trkpt>
      <trkpt lat="46.00969" lon="6.61579">
        <ele>521.61</ele>
        <time>2015-06-07T06:50:56Z</time>
      </trkpt>
      <trkpt lat="46.0097" lon="6.61582">
        <ele>521.24</ele>
        <time>2015-06-07T06:50:57Z</time>
      </trkpt>
      <trkpt lat="46.0097" lon="6.61585">
        <ele>521.39</ele>
        <time>2015-06-07T06:50:58Z</time>
      </trkpt>
      <trkpt lat="46.0097" lon="6.61588">
        <ele>520.99</ele>
        <time>2015-06-07T06:50:59Z</time>
      </trkpt>
      <trkpt lat="46.0097" lon="6.61592">
        <ele>520.43</ele>
        <time>2015-06-07T06:51:00Z</time>
      </trkpt>
      <trkpt lat="46.00971" lon="6.61603">
        <ele>519.46</ele>
        <time>2015-06-07T06:51:02Z</time>
      </trkpt>
      <trkpt lat="46.00976" lon="6.61633">
        <ele>517.34</ele>
        <time>2015-06-07T06:51:06Z</time>
      </trkpt>
      <trkpt lat="46.00976" lon="6.61643">
        <ele>517.1</ele>
        <time>2015-06-07T06:51:07Z</time>
      </trkpt>
      <trkpt lat="46.00974" lon="6.61652">
        <ele>516.21</ele>
        <time>2015-06-07T06:51:08Z</time>
      </trkpt>
      <trkpt lat="46.00972" lon="6.61662">
        <ele>516.09</ele>
        <time>2015-06-07T06:51:09Z</time>
      </trkpt>
      <trkpt lat="46.00968" lon="6.61671">
        <ele>515.19</ele>
        <time>2015-06-07T06:51:10Z</time>
      </trkpt>
      <trkpt lat="46.00965" lon="6.61681">
        <ele>514.61</ele>
        <time>2015-06-07T06:51:11Z</time>
      </trkpt>
      <trkpt lat="46.00958" lon="6.61701">
        <ele>513.18</ele>
        <time>2015-06-07T06:51:13Z</time>
      </trkpt>
      <trkpt lat="46.00956" lon="6.61713">
        <ele>512.52</ele>
        <time>2015-06-07T06:51:14Z</time>
      </trkpt>
      <trkpt lat="46.00955" lon="6.61725">
        <ele>511.7</ele>
        <time>2015-06-07T06:51:15Z</time>
      </trkpt>
      <trkpt lat="46.00954" lon="6.61748">
        <ele>510.79</ele>
        <time>2015-06-07T06:51:17Z</time>
      </trkpt>
      <trkpt lat="46.00965" lon="6.61841">
        <ele>508.01</ele>
        <time>2015-06-07T06:51:26Z</time>
      </trkpt>
      <trkpt lat="46.00968" lon="6.6185">
        <ele>508</ele>
        <time>2015-06-07T06:51:27Z</time>
      </trkpt>
      <trkpt lat="46.00972" lon="6.61858">
        <ele>508.47</ele>
        <time>2015-06-07T06:51:28Z</time>
      </trkpt>
      <trkpt lat="46.00976" lon="6.61866">
        <ele>507.78</ele>
        <time>2015-06-07T06:51:29Z</time>
      </trkpt>
      <trkpt lat="46.0098" lon="6.61873">
        <ele>508.1</ele>
        <time>2015-06-07T06:51:30Z</time>
      </trkpt>
      <trkpt lat="46.00998" lon="6.61918">
        <ele>508.13</ele>
        <time>2015-06-07T06:51:38Z</time>
      </trkpt>
      <trkpt lat="46.00996" lon="6.61922">
        <ele>508.2</ele>
        <time>2015-06-07T06:51:39Z</time>
      </trkpt>
      <trkpt lat="46.00961" lon="6.61992">
        <ele>508.82</ele>
        <time>2015-06-07T06:51:55Z</time>
      </trkpt>
      <trkpt lat="46.00943" lon="6.62028">
        <ele>509.19</ele>
        <time>2015-06-07T06:52:07Z</time>
      </trkpt>
      <trkpt lat="46.00912" lon="6.62085">
        <ele>508.59</ele>
        <time>2015-06-07T06:52:20Z</time>
      </trkpt>
      <trkpt lat="46.0091" lon="6.6209">
        <ele>509.06</ele>
        <time>2015-06-07T06:52:21Z</time>
      </trkpt>
      <trkpt lat="46.00869" lon="6.62171">
        <ele>508.54</ele>
        <time>2015-06-07T06:52:37Z</time>
      </trkpt>
      <trkpt lat="46.00828" lon="6.6225">
        <ele>509.17</ele>
        <time>2015-06-07T06:52:53Z</time>
      </trkpt>
      <trkpt lat="46.00803" lon="6.62298">
        <ele>509.29</ele>
        <time>2015-06-07T06:53:03Z</time>
      </trkpt>
      <trkpt lat="46.008" lon="6.62302">
        <ele>509.19</ele>
        <time>2015-06-07T06:53:04Z</time>
      </trkpt>
      <trkpt lat="46.00798" lon="6.62307">
        <ele>509.64</ele>
        <time>2015-06-07T06:53:05Z</time>
      </trkpt>
      <trkpt lat="46.00762" lon="6.62394">
        <ele>509.34</ele>
        <time>2015-06-07T06:53:23Z</time>
      </trkpt>
      <trkpt lat="46.00775" lon="6.62452">
        <ele>510.16</ele>
        <time>2015-06-07T06:53:37Z</time>
      </trkpt>
      <trkpt lat="46.00755" lon="6.62505">
        <ele>510.44</ele>
        <time>2015-06-07T06:53:49Z</time>
      </trkpt>
      <trkpt lat="46.00679" lon="6.62554">
        <ele>510.8</ele>
        <time>2015-06-07T06:54:08Z</time>
      </trkpt>
      <trkpt lat="46.00624" lon="6.62584">
        <ele>511.86</ele>
        <time>2015-06-07T06:54:22Z</time>
      </trkpt>
      <trkpt lat="46.0062" lon="6.62584">
        <ele>512.49</ele>
        <time>2015-06-07T06:54:23Z</time>
      </trkpt>
      <trkpt lat="46.00616" lon="6.62583">
        <ele>511.94</ele>
        <time>2015-06-07T06:54:24Z</time>
      </trkpt>
      <trkpt lat="46.00612" lon="6.62582">
        <ele>511.93</ele>
        <time>2015-06-07T06:54:25Z</time>
      </trkpt>
      <trkpt lat="46.00608" lon="6.6258">
        <ele>512.06</ele>
        <time>2015-06-07T06:54:26Z</time>
      </trkpt>
      <trkpt lat="46.00604" lon="6.62578">
        <ele>512.03</ele>
        <time>2015-06-07T06:54:27Z</time>
      </trkpt>
      <trkpt lat="46.006" lon="6.62576">
        <ele>511.4</ele>
        <time>2015-06-07T06:54:28Z</time>
      </trkpt>
      <trkpt lat="46.00597" lon="6.62573">
        <ele>511.59</ele>
        <time>2015-06-07T06:54:29Z</time>
      </trkpt>
      <trkpt lat="46.00593" lon="6.62569">
        <ele>512.07</ele>
        <time>2015-06-07T06:54:30Z</time>
      </trkpt>
      <trkpt lat="46.00511" lon="6.62491">
        <ele>511.87</ele>
        <time>2015-06-07T06:54:52Z</time>
      </trkpt>
      <trkpt lat="46.005" lon="6.62479">
        <ele>512.32</ele>
        <time>2015-06-07T06:54:55Z</time>
      </trkpt>
      <trkpt lat="46.00497" lon="6.62475">
        <ele>512.19</ele>
        <time>2015-06-07T06:54:56Z</time>
      </trkpt>
      <trkpt lat="46.00494" lon="6.6247">
        <ele>512.61</ele>
        <time>2015-06-07T06:54:57Z</time>
      </trkpt>
      <trkpt lat="46.00491" lon="6.62465">
        <ele>512.51</ele>
        <time>2015-06-07T06:54:58Z</time>
      </trkpt>
      <trkpt lat="46.00489" lon="6.62459">
        <ele>512.25</ele>
        <time>2015-06-07T06:54:59Z</time>
      </trkpt>
      <trkpt lat="46.00451" lon="6.62352">
        <ele>514.31</ele>
        <time>2015-06-07T06:55:18Z</time>
      </trkpt>
      <trkpt lat="46.00419" lon="6.62254">
        <ele>516.54</ele>
        <time>2015-06-07T06:55:37Z</time>
      </trkpt>
      <trkpt lat="46.0038" lon="6.62147">
        <ele>519.88</ele>
        <time>2015-06-07T06:55:59Z</time>
      </trkpt>
      <trkpt lat="46.0034" lon="6.62054">
        <ele>522.82</ele>
        <time>2015-06-07T06:56:20Z</time>
      </trkpt>
      <trkpt lat="46.00315" lon="6.6201">
        <ele>525.86</ele>
        <time>2015-06-07T06:56:32Z</time>
      </trkpt>
      <trkpt lat="46.00283" lon="6.61958">
        <ele>529.1</ele>
        <time>2015-06-07T06:56:50Z</time>
      </trkpt>
      <trkpt lat="46.00252" lon="6.6197">
        <ele>528.25</ele>
        <time>2015-06-07T06:57:01Z</time>
      </trkpt>
      <trkpt lat="46.00201" lon="6.62007">
        <ele>528.26</ele>
        <time>2015-06-07T06:57:14Z</time>
      </trkpt>
      <trkpt lat="46.00197" lon="6.62008">
        <ele>528.35</ele>
        <time>2015-06-07T06:57:15Z</time>
      </trkpt>
      <trkpt lat="46.00193" lon="6.6201">
        <ele>527.99</ele>
        <time>2015-06-07T06:57:16Z</time>
      </trkpt>
      <trkpt lat="46.00143" lon="6.62038">
        <ele>524.78</ele>
        <time>2015-06-07T06:57:27Z</time>
      </trkpt>
      <trkpt lat="46.00112" lon="6.62058">
        <ele>525.34</ele>
        <time>2015-06-07T06:57:33Z</time>
      </trkpt>
      <trkpt lat="46.00107" lon="6.62061">
        <ele>525.6</ele>
        <time>2015-06-07T06:57:34Z</time>
      </trkpt>
      <trkpt lat="46.00068" lon="6.6208">
        <ele>526.45</ele>
        <time>2015-06-07T06:57:46Z</time>
      </trkpt>
      <trkpt lat="46.00031" lon="6.62098">
        <ele>523.43</ele>
        <time>2015-06-07T06:57:54Z</time>
      </trkpt>
      <trkpt lat="46.00007" lon="6.62113">
        <ele>523.41</ele>
        <time>2015-06-07T06:57:59Z</time>
      </trkpt>
      <trkpt lat="45.99983" lon="6.6214">
        <ele>522.98</ele>
        <time>2015-06-07T06:58:06Z</time>
      </trkpt>
      <trkpt lat="45.99962" lon="6.62154">
        <ele>520.45</ele>
        <time>2015-06-07T06:58:11Z</time>
      </trkpt>
      <trkpt lat="45.99933" lon="6.62166">
        <ele>519.95</ele>
        <time>2015-06-07T06:58:16Z</time>
      </trkpt>
      <trkpt lat="45.99896" lon="6.62181">
        <ele>521.98</ele>
        <time>2015-06-07T06:58:25Z</time>
      </trkpt>
      <trkpt lat="45.99858" lon="6.62208">
        <ele>520.75</ele>
        <time>2015-06-07T06:58:37Z</time>
      </trkpt>
      <trkpt lat="45.99795" lon="6.62249">
        <ele>517.89</ele>
        <time>2015-06-07T06:58:50Z</time>
      </trkpt>
      <trkpt lat="45.9979" lon="6.62252">
        <ele>517.59</ele>
        <time>2015-06-07T06:58:51Z</time>
      </trkpt>
      <trkpt lat="45.99711" lon="6.62289">
        <ele>515.04</ele>
        <time>2015-06-07T06:59:05Z</time>
      </trkpt>
      <trkpt lat="45.9967" lon="6.62309">
        <ele>516.85</ele>
        <time>2015-06-07T06:59:16Z</time>
      </trkpt>
      <trkpt lat="45.99643" lon="6.62316">
        <ele>514.52</ele>
        <time>2015-06-07T06:59:28Z</time>
      </trkpt>
      <trkpt lat="45.99632" lon="6.6232">
        <ele>514</ele>
        <time>2015-06-07T06:59:42Z</time>
      </trkpt>
      <trkpt lat="45.99633" lon="6.62321">
        <ele>514.6</ele>
        <time>2015-06-07T06:59:48Z</time>
      </trkpt>
      <trkpt lat="45.99647" lon="6.62318">
        <ele>515.25</ele>
        <time>2015-06-07T07:00:02Z</time>
      </trkpt>
      <trkpt lat="45.99652" lon="6.62316">
        <ele>516.34</ele>
        <time>2015-06-07T07:00:06Z</time>
      </trkpt>
      <trkpt lat="45.99652" lon="6.62307">
        <ele>517.56</ele>
        <time>2015-06-07T07:00:19Z</time>
      </trkpt>
      <trkpt lat="45.99641" lon="6.62312">
        <ele>517.54</ele>
        <time>2015-06-07T07:00:35Z</time>
      </trkpt>
      <trkpt lat="45.99635" lon="6.62314">
        <ele>517.65</ele>
        <time>2015-06-07T07:00:52Z</time>
      </trkpt>
      <trkpt lat="45.9963" lon="6.62314">
        <ele>517.95</ele>
        <time>2015-06-07T07:01:11Z</time>
      </trkpt>
      <trkpt lat="45.99627" lon="6.62315">
        <ele>517.79</ele>
        <time>2015-06-07T07:01:29Z</time>
      </trkpt>
      <trkpt lat="45.99625" lon="6.62316">
        <ele>517.78</ele>
        <time>2015-06-07T07:01:50Z</time>
      </trkpt>
      <trkpt lat="45.99622" lon="6.62317">
        <ele>518.39</ele>
        <time>2015-06-07T07:02:14Z</time>
      </trkpt>
      <trkpt lat="45.99622" lon="6.62318">
        <ele>516.83</ele>
        <time>2015-06-07T07:02:37Z</time>
      </trkpt>
      <trkpt lat="45.99621" lon="6.62321">
        <ele>517.57</ele>
        <time>2015-06-07T07:03:09Z</time>
      </trkpt>
      <trkpt lat="45.9962" lon="6.6232">
        <ele>516.61</ele>
        <time>2015-06-07T07:03:29Z</time>
      </trkpt>
      <trkpt lat="45.99618" lon="6.6232">
        <ele>516.12</ele>
        <time>2015-06-07T07:03:51Z</time>
      </trkpt>
      <trkpt lat="45.99619" lon="6.62326">
        <ele>515.84</ele>
        <time>2015-06-07T07:04:21Z</time>
      </trkpt>
      <trkpt lat="45.99619" lon="6.62325">
        <ele>514.74</ele>
        <time>2015-06-07T07:04:47Z</time>
      </trkpt>
      <trkpt lat="45.99614" lon="6.62325">
        <ele>513.39</ele>
        <time>2015-06-07T07:05:05Z</time>
      </trkpt>
      <trkpt lat="45.99611" lon="6.62328">
        <ele>513.05</ele>
        <time>2015-06-07T07:05:10Z</time>
      </trkpt>
      <trkpt lat="45.99599" lon="6.62335">
        <ele>513.99</ele>
        <time>2015-06-07T07:05:21Z</time>
      </trkpt>
      <trkpt lat="45.99581" lon="6.62347">
        <ele>513.58</ele>
        <time>2015-06-07T07:05:30Z</time>
      </trkpt>
      <trkpt lat="45.9957" lon="6.62354">
        <ele>514.22</ele>
        <time>2015-06-07T07:05:41Z</time>
      </trkpt>
      <trkpt lat="45.99561" lon="6.62362">
        <ele>513.4</ele>
        <time>2015-06-07T07:05:58Z</time>
      </trkpt>
      <trkpt lat="45.99562" lon="6.62362">
        <ele>513.7</ele>
        <time>2015-06-07T07:06:00Z</time>
      </trkpt>
      <trkpt lat="45.99563" lon="6.62359">
        <ele>513.29</ele>
        <time>2015-06-07T07:06:10Z</time>
      </trkpt>
      <trkpt lat="45.9957" lon="6.62356">
        <ele>514.15</ele>
        <time>2015-06-07T07:06:44Z</time>
      </trkpt>
      <trkpt lat="45.99573" lon="6.62355">
        <ele>514.67</ele>
        <time>2015-06-07T07:07:02Z</time>
      </trkpt>
      <trkpt lat="45.99573" lon="6.62351">
        <ele>516.38</ele>
        <time>2015-06-07T07:07:24Z</time>
      </trkpt>
      <trkpt lat="45.99576" lon="6.62353">
        <ele>513.97</ele>
        <time>2015-06-07T07:07:43Z</time>
      </trkpt>
      <trkpt lat="45.99586" lon="6.62345">
        <ele>514.42</ele>
        <time>2015-06-07T07:07:59Z</time>
      </trkpt>
      <trkpt lat="45.99594" lon="6.62337">
        <ele>514.66</ele>
        <time>2015-06-07T07:08:11Z</time>
      </trkpt>
      <trkpt lat="45.99599" lon="6.62332">
        <ele>515.07</ele>
        <time>2015-06-07T07:08:26Z</time>
      </trkpt>
      <trkpt lat="45.99612" lon="6.62329">
        <ele>514.62</ele>
        <time>2015-06-07T07:08:44Z</time>
      </trkpt>
      <trkpt lat="45.99616" lon="6.62326">
        <ele>511.17</ele>
        <time>2015-06-07T07:08:52Z</time>
      </trkpt>
      <trkpt lat="45.99616" lon="6.62325">
        <ele>514.73</ele>
        <time>2015-06-07T07:08:54Z</time>
      </trkpt>
      <trkpt lat="45.99617" lon="6.62326">
        <ele>515.49</ele>
        <time>2015-06-07T07:08:56Z</time>
      </trkpt>
      <trkpt lat="45.99617" lon="6.62325">
        <ele>514.41</ele>
        <time>2015-06-07T07:08:58Z</time>
      </trkpt>
      <trkpt lat="45.99623" lon="6.62329">
        <ele>513.71</ele>
        <time>2015-06-07T07:09:18Z</time>
      </trkpt>
      <trkpt lat="45.9963" lon="6.62326">
        <ele>514.73</ele>
        <time>2015-06-07T07:09:37Z</time>
      </trkpt>
      <trkpt lat="45.99637" lon="6.62324">
        <ele>514.74</ele>
        <time>2015-06-07T07:09:53Z</time>
      </trkpt>
      <trkpt lat="45.99651" lon="6.62318">
        <ele>516.69</ele>
        <time>2015-06-07T07:10:07Z</time>
      </trkpt>
      <trkpt lat="45.99655" lon="6.62314">
        <ele>517.14</ele>
        <time>2015-06-07T07:10:21Z</time>
      </trkpt>
      <trkpt lat="45.99663" lon="6.62313">
        <ele>516.76</ele>
        <time>2015-06-07T07:10:42Z</time>
      </trkpt>
      <trkpt lat="45.99665" lon="6.62313">
        <ele>516.96</ele>
        <time>2015-06-07T07:10:53Z</time>
      </trkpt>
      <trkpt lat="45.99667" lon="6.62312">
        <ele>516.88</ele>
        <time>2015-06-07T07:11:14Z</time>
      </trkpt>
      <trkpt lat="45.99694" lon="6.62298">
        <ele>516.94</ele>
        <time>2015-06-07T07:11:29Z</time>
      </trkpt>
      <trkpt lat="45.99741" lon="6.62284">
        <ele>516.4</ele>
        <time>2015-06-07T07:11:44Z</time>
      </trkpt>
      <trkpt lat="45.99796" lon="6.62252">
        <ele>519.53</ele>
        <time>2015-06-07T07:12:04Z</time>
      </trkpt>
      <trkpt lat="45.99845" lon="6.62222">
        <ele>520.84</ele>
        <time>2015-06-07T07:12:25Z</time>
      </trkpt>
      <trkpt lat="45.99866" lon="6.62213">
        <ele>521.71</ele>
        <time>2015-06-07T07:12:38Z</time>
      </trkpt>
      <trkpt lat="45.99873" lon="6.62211">
        <ele>522.03</ele>
        <time>2015-06-07T07:13:09Z</time>
      </trkpt>
      <trkpt lat="45.99894" lon="6.62192">
        <ele>521.38</ele>
        <time>2015-06-07T07:13:21Z</time>
      </trkpt>
      <trkpt lat="45.99897" lon="6.62191">
        <ele>521.08</ele>
        <time>2015-06-07T07:13:22Z</time>
      </trkpt>
      <trkpt lat="45.99908" lon="6.62186">
        <ele>519.64</ele>
        <time>2015-06-07T07:13:25Z</time>
      </trkpt>
      <trkpt lat="45.99927" lon="6.62178">
        <ele>519.47</ele>
        <time>2015-06-07T07:13:29Z</time>
      </trkpt>
      <trkpt lat="45.99963" lon="6.62158">
        <ele>521.88</ele>
        <time>2015-06-07T07:13:40Z</time>
      </trkpt>
      <trkpt lat="46.00004" lon="6.62121">
        <ele>523.17</ele>
        <time>2015-06-07T07:13:54Z</time>
      </trkpt>
      <trkpt lat="46.00053" lon="6.62091">
        <ele>525.09</ele>
        <time>2015-06-07T07:14:10Z</time>
      </trkpt>
      <trkpt lat="46.00092" lon="6.62073">
        <ele>526.73</ele>
        <time>2015-06-07T07:14:24Z</time>
      </trkpt>
      <trkpt lat="46.00106" lon="6.62064">
        <ele>525.42</ele>
        <time>2015-06-07T07:14:28Z</time>
      </trkpt>
      <trkpt lat="46.00114" lon="6.62061">
        <ele>525.43</ele>
        <time>2015-06-07T07:14:30Z</time>
      </trkpt>
      <trkpt lat="46.00118" lon="6.62058">
        <ele>525.64</ele>
        <time>2015-06-07T07:14:31Z</time>
      </trkpt>
      <trkpt lat="46.00175" lon="6.62017">
        <ele>528.13</ele>
        <time>2015-06-07T07:14:47Z</time>
      </trkpt>
      <trkpt lat="46.00206" lon="6.62009">
        <ele>529.38</ele>
        <time>2015-06-07T07:14:57Z</time>
      </trkpt>
      <trkpt lat="46.00261" lon="6.61974">
        <ele>528.69</ele>
        <time>2015-06-07T07:15:15Z</time>
      </trkpt>
      <trkpt lat="46.00277" lon="6.61959">
        <ele>529.66</ele>
        <time>2015-06-07T07:15:25Z</time>
      </trkpt>
      <trkpt lat="46.00268" lon="6.61928">
        <ele>531.26</ele>
        <time>2015-06-07T07:15:34Z</time>
      </trkpt>
      <trkpt lat="46.00244" lon="6.61876">
        <ele>534.57</ele>
        <time>2015-06-07T07:15:48Z</time>
      </trkpt>
      <trkpt lat="46.00214" lon="6.61864">
        <ele>537.28</ele>
        <time>2015-06-07T07:16:00Z</time>
      </trkpt>
      <trkpt lat="46.00177" lon="6.61888">
        <ele>540.65</ele>
        <time>2015-06-07T07:16:14Z</time>
      </trkpt>
      <trkpt lat="46.00143" lon="6.61895">
        <ele>541.32</ele>
        <time>2015-06-07T07:16:27Z</time>
      </trkpt>
      <trkpt lat="46.00122" lon="6.61897">
        <ele>540.62</ele>
        <time>2015-06-07T07:16:32Z</time>
      </trkpt>
      <trkpt lat="46.0005" lon="6.6189">
        <ele>542.89</ele>
        <time>2015-06-07T07:16:50Z</time>
      </trkpt>
      <trkpt lat="46.00019" lon="6.61871">
        <ele>545.96</ele>
        <time>2015-06-07T07:17:02Z</time>
      </trkpt>
      <trkpt lat="45.99989" lon="6.61859">
        <ele>549.78</ele>
        <time>2015-06-07T07:17:14Z</time>
      </trkpt>
      <trkpt lat="45.9995" lon="6.61868">
        <ele>553.25</ele>
        <time>2015-06-07T07:17:30Z</time>
      </trkpt>
      <trkpt lat="45.99914" lon="6.61873">
        <ele>556.52</ele>
        <time>2015-06-07T07:17:45Z</time>
      </trkpt>
      <trkpt lat="45.99885" lon="6.61899">
        <ele>559.68</ele>
        <time>2015-06-07T07:18:00Z</time>
      </trkpt>
      <trkpt lat="45.99863" lon="6.61933">
        <ele>563.07</ele>
        <time>2015-06-07T07:18:14Z</time>
      </trkpt>
      <trkpt lat="45.99836" lon="6.61936">
        <ele>566.31</ele>
        <time>2015-06-07T07:18:28Z</time>
      </trkpt>
      <trkpt lat="45.99815" lon="6.61917">
        <ele>569.89</ele>
        <time>2015-06-07T07:18:40Z</time>
      </trkpt>
      <trkpt lat="45.99813" lon="6.61915">
        <ele>569.64</ele>
        <time>2015-06-07T07:18:41Z</time>
      </trkpt>
      <trkpt lat="45.99787" lon="6.6189">
        <ele>572.72</ele>
        <time>2015-06-07T07:18:56Z</time>
      </trkpt>
      <trkpt lat="45.99765" lon="6.61873">
        <ele>575.75</ele>
        <time>2015-06-07T07:19:09Z</time>
      </trkpt>
      <trkpt lat="45.9976" lon="6.61869">
        <ele>576.05</ele>
        <time>2015-06-07T07:19:12Z</time>
      </trkpt>
      <trkpt lat="45.99759" lon="6.61869">
        <ele>576.63</ele>
        <time>2015-06-07T07:19:13Z</time>
      </trkpt>
      <trkpt lat="45.99758" lon="6.61869">
        <ele>576.31</ele>
        <time>2015-06-07T07:19:14Z</time>
      </trkpt>
      <trkpt lat="45.9974" lon="6.61891">
        <ele>578.6</ele>
        <time>2015-06-07T07:19:26Z</time>
      </trkpt>
      <trkpt lat="45.99718" lon="6.61922">
        <ele>581.04</ele>
        <time>2015-06-07T07:19:40Z</time>
      </trkpt>
      <trkpt lat="45.99702" lon="6.61953">
        <ele>584.05</ele>
        <time>2015-06-07T07:19:53Z</time>
      </trkpt>
      <trkpt lat="45.99695" lon="6.62001">
        <ele>586.44</ele>
        <time>2015-06-07T07:20:08Z</time>
      </trkpt>
      <trkpt lat="45.99683" lon="6.6203">
        <ele>589.57</ele>
        <time>2015-06-07T07:20:22Z</time>
      </trkpt>
      <trkpt lat="45.99664" lon="6.62056">
        <ele>592.42</ele>
        <time>2015-06-07T07:20:35Z</time>
      </trkpt>
      <trkpt lat="45.99651" lon="6.62084">
        <ele>593.94</ele>
        <time>2015-06-07T07:20:47Z</time>
      </trkpt>
      <trkpt lat="45.99631" lon="6.62103">
        <ele>597.13</ele>
        <time>2015-06-07T07:21:01Z</time>
      </trkpt>
      <trkpt lat="45.99597" lon="6.62121">
        <ele>600.5</ele>
        <time>2015-06-07T07:21:16Z</time>
      </trkpt>
      <trkpt lat="45.99581" lon="6.6212">
        <ele>602.67</ele>
        <time>2015-06-07T07:21:25Z</time>
      </trkpt>
      <trkpt lat="45.99547" lon="6.62116">
        <ele>605.7</ele>
        <time>2015-06-07T07:21:45Z</time>
      </trkpt>
      <trkpt lat="45.9952" lon="6.62111">
        <ele>608.84</ele>
        <time>2015-06-07T07:22:01Z</time>
      </trkpt>
      <trkpt lat="45.99492" lon="6.62124">
        <ele>611.03</ele>
        <time>2015-06-07T07:22:17Z</time>
      </trkpt>
      <trkpt lat="45.99465" lon="6.62136">
        <ele>611.2</ele>
        <time>2015-06-07T07:22:30Z</time>
      </trkpt>
      <trkpt lat="45.99433" lon="6.62159">
        <ele>610.04</ele>
        <time>2015-06-07T07:22:41Z</time>
      </trkpt>
      <trkpt lat="45.99431" lon="6.62163">
        <ele>609.97</ele>
        <time>2015-06-07T07:22:42Z</time>
      </trkpt>
      <trkpt lat="45.9938" lon="6.62222">
        <ele>607.26</ele>
        <time>2015-06-07T07:22:56Z</time>
      </trkpt>
      <trkpt lat="45.9937" lon="6.62228">
        <ele>607.01</ele>
        <time>2015-06-07T07:22:58Z</time>
      </trkpt>
      <trkpt lat="45.99312" lon="6.62274">
        <ele>603.39</ele>
        <time>2015-06-07T07:23:09Z</time>
      </trkpt>
      <trkpt lat="45.99307" lon="6.62279">
        <ele>603.33</ele>
        <time>2015-06-07T07:23:10Z</time>
      </trkpt>
      <trkpt lat="45.99298" lon="6.62289">
        <ele>602.42</ele>
        <time>2015-06-07T07:23:12Z</time>
      </trkpt>
      <trkpt lat="45.99293" lon="6.62293">
        <ele>601.9</ele>
        <time>2015-06-07T07:23:13Z</time>
      </trkpt>
      <trkpt lat="45.99288" lon="6.62296">
        <ele>601.22</ele>
        <time>2015-06-07T07:23:14Z</time>
      </trkpt>
      <trkpt lat="45.99283" lon="6.62297">
        <ele>600.99</ele>
        <time>2015-06-07T07:23:15Z</time>
      </trkpt>
      <trkpt lat="45.99278" lon="6.62296">
        <ele>600.55</ele>
        <time>2015-06-07T07:23:16Z</time>
      </trkpt>
      <trkpt lat="45.99273" lon="6.62293">
        <ele>600.46</ele>
        <time>2015-06-07T07:23:17Z</time>
      </trkpt>
      <trkpt lat="45.99269" lon="6.62288">
        <ele>598.96</ele>
        <time>2015-06-07T07:23:18Z</time>
      </trkpt>
      <trkpt lat="45.99264" lon="6.62282">
        <ele>598.35</ele>
        <time>2015-06-07T07:23:19Z</time>
      </trkpt>
      <trkpt lat="45.99259" lon="6.62275">
        <ele>597.65</ele>
        <time>2015-06-07T07:23:20Z</time>
      </trkpt>
      <trkpt lat="45.99254" lon="6.62269">
        <ele>597.14</ele>
        <time>2015-06-07T07:23:21Z</time>
      </trkpt>
      <trkpt lat="45.99247" lon="6.62265">
        <ele>596.36</ele>
        <time>2015-06-07T07:23:22Z</time>
      </trkpt>
      <trkpt lat="45.9924" lon="6.62263">
        <ele>595.74</ele>
        <time>2015-06-07T07:23:23Z</time>
      </trkpt>
      <trkpt lat="45.99234" lon="6.62264">
        <ele>595.17</ele>
        <time>2015-06-07T07:23:24Z</time>
      </trkpt>
      <trkpt lat="45.99229" lon="6.62266">
        <ele>594.59</ele>
        <time>2015-06-07T07:23:25Z</time>
      </trkpt>
      <trkpt lat="45.99223" lon="6.62271">
        <ele>594.03</ele>
        <time>2015-06-07T07:23:26Z</time>
      </trkpt>
      <trkpt lat="45.99217" lon="6.62276">
        <ele>593.3</ele>
        <time>2015-06-07T07:23:27Z</time>
      </trkpt>
      <trkpt lat="45.99211" lon="6.62281">
        <ele>592.68</ele>
        <time>2015-06-07T07:23:28Z</time>
      </trkpt>
      <trkpt lat="45.99192" lon="6.62294">
        <ele>591.31</ele>
        <time>2015-06-07T07:23:31Z</time>
      </trkpt>
      <trkpt lat="45.99182" lon="6.62305">
        <ele>590.38</ele>
        <time>2015-06-07T07:23:33Z</time>
      </trkpt>
      <trkpt lat="45.99149" lon="6.62338">
        <ele>587.23</ele>
        <time>2015-06-07T07:23:40Z</time>
      </trkpt>
      <trkpt lat="45.99106" lon="6.62378">
        <ele>583.06</ele>
        <time>2015-06-07T07:23:49Z</time>
      </trkpt>
      <trkpt lat="45.991" lon="6.62382">
        <ele>582.91</ele>
        <time>2015-06-07T07:23:50Z</time>
      </trkpt>
      <trkpt lat="45.99094" lon="6.62384">
        <ele>582.42</ele>
        <time>2015-06-07T07:23:51Z</time>
      </trkpt>
      <trkpt lat="45.9909" lon="6.62385">
        <ele>582.01</ele>
        <time>2015-06-07T07:23:52Z</time>
      </trkpt>
      <trkpt lat="45.99086" lon="6.62385">
        <ele>582.13</ele>
        <time>2015-06-07T07:23:53Z</time>
      </trkpt>
      <trkpt lat="45.99082" lon="6.62384">
        <ele>581.8</ele>
        <time>2015-06-07T07:23:54Z</time>
      </trkpt>
      <trkpt lat="45.9908" lon="6.62384">
        <ele>581.69</ele>
        <time>2015-06-07T07:23:55Z</time>
      </trkpt>
      <trkpt lat="45.99077" lon="6.62385">
        <ele>581.7</ele>
        <time>2015-06-07T07:24:07Z</time>
      </trkpt>
      <trkpt lat="45.99074" lon="6.62387">
        <ele>581.66</ele>
        <time>2015-06-07T07:24:45Z</time>
      </trkpt>
      <trkpt lat="45.99072" lon="6.62389">
        <ele>581.55</ele>
        <time>2015-06-07T07:24:50Z</time>
      </trkpt>
      <trkpt lat="45.9907" lon="6.6239">
        <ele>581.7</ele>
        <time>2015-06-07T07:24:51Z</time>
      </trkpt>
      <trkpt lat="45.99067" lon="6.62392">
        <ele>580.51</ele>
        <time>2015-06-07T07:24:52Z</time>
      </trkpt>
      <trkpt lat="45.99058" lon="6.62396">
        <ele>578.96</ele>
        <time>2015-06-07T07:24:54Z</time>
      </trkpt>
      <trkpt lat="45.99054" lon="6.624">
        <ele>578.42</ele>
        <time>2015-06-07T07:24:55Z</time>
      </trkpt>
      <trkpt lat="45.99049" lon="6.62404">
        <ele>577.86</ele>
        <time>2015-06-07T07:24:56Z</time>
      </trkpt>
      <trkpt lat="45.99044" lon="6.62407">
        <ele>577.06</ele>
        <time>2015-06-07T07:24:57Z</time>
      </trkpt>
      <trkpt lat="45.99038" lon="6.62409">
        <ele>576.16</ele>
        <time>2015-06-07T07:24:58Z</time>
      </trkpt>
      <trkpt lat="45.99034" lon="6.62411">
        <ele>574.57</ele>
        <time>2015-06-07T07:24:59Z</time>
      </trkpt>
      <trkpt lat="45.9903" lon="6.62414">
        <ele>574.32</ele>
        <time>2015-06-07T07:25:00Z</time>
      </trkpt>
      <trkpt lat="45.99019" lon="6.62423">
        <ele>572.94</ele>
        <time>2015-06-07T07:25:03Z</time>
      </trkpt>
      <trkpt lat="45.99014" lon="6.62427">
        <ele>570.69</ele>
        <time>2015-06-07T07:25:04Z</time>
      </trkpt>
      <trkpt lat="45.9901" lon="6.6243">
        <ele>570.71</ele>
        <time>2015-06-07T07:25:05Z</time>
      </trkpt>
      <trkpt lat="45.99006" lon="6.62435">
        <ele>570.27</ele>
        <time>2015-06-07T07:25:06Z</time>
      </trkpt>
      <trkpt lat="45.99002" lon="6.62441">
        <ele>569.83</ele>
        <time>2015-06-07T07:25:07Z</time>
      </trkpt>
      <trkpt lat="45.98999" lon="6.62446">
        <ele>568.88</ele>
        <time>2015-06-07T07:25:08Z</time>
      </trkpt>
      <trkpt lat="45.98992" lon="6.62457">
        <ele>567.36</ele>
        <time>2015-06-07T07:25:10Z</time>
      </trkpt>
      <trkpt lat="45.98989" lon="6.62462">
        <ele>566.82</ele>
        <time>2015-06-07T07:25:11Z</time>
      </trkpt>
      <trkpt lat="45.98973" lon="6.62486">
        <ele>563.43</ele>
        <time>2015-06-07T07:25:16Z</time>
      </trkpt>
      <trkpt lat="45.98971" lon="6.62492">
        <ele>562.89</ele>
        <time>2015-06-07T07:25:17Z</time>
      </trkpt>
      <trkpt lat="45.98967" lon="6.62504">
        <ele>562.16</ele>
        <time>2015-06-07T07:25:19Z</time>
      </trkpt>
      <trkpt lat="45.98965" lon="6.6251">
        <ele>560.64</ele>
        <time>2015-06-07T07:25:20Z</time>
      </trkpt>
      <trkpt lat="45.98964" lon="6.62517">
        <ele>560.57</ele>
        <time>2015-06-07T07:25:21Z</time>
      </trkpt>
      <trkpt lat="45.98963" lon="6.62524">
        <ele>560.23</ele>
        <time>2015-06-07T07:25:22Z</time>
      </trkpt>
      <trkpt lat="45.98962" lon="6.62548">
        <ele>557.17</ele>
        <time>2015-06-07T07:25:25Z</time>
      </trkpt>
      <trkpt lat="45.98962" lon="6.62555">
        <ele>556.16</ele>
        <time>2015-06-07T07:25:26Z</time>
      </trkpt>
      <trkpt lat="45.98962" lon="6.62562">
        <ele>556.24</ele>
        <time>2015-06-07T07:25:27Z</time>
      </trkpt>
      <trkpt lat="45.98963" lon="6.62568">
        <ele>555.4</ele>
        <time>2015-06-07T07:25:28Z</time>
      </trkpt>
      <trkpt lat="45.98964" lon="6.62574">
        <ele>555.18</ele>
        <time>2015-06-07T07:25:29Z</time>
      </trkpt>
      <trkpt lat="45.98965" lon="6.62579">
        <ele>554.26</ele>
        <time>2015-06-07T07:25:30Z</time>
      </trkpt>
      <trkpt lat="45.98965" lon="6.62583">
        <ele>554.09</ele>
        <time>2015-06-07T07:25:31Z</time>
      </trkpt>
      <trkpt lat="45.9896" lon="6.62606">
        <ele>550.3</ele>
        <time>2015-06-07T07:25:37Z</time>
      </trkpt>
      <trkpt lat="45.98958" lon="6.6261">
        <ele>550.36</ele>
        <time>2015-06-07T07:25:38Z</time>
      </trkpt>
      <trkpt lat="45.98953" lon="6.62621">
        <ele>549.01</ele>
        <time>2015-06-07T07:25:41Z</time>
      </trkpt>
      <trkpt lat="45.98945" lon="6.6263">
        <ele>547.21</ele>
        <time>2015-06-07T07:25:44Z</time>
      </trkpt>
      <trkpt lat="45.98942" lon="6.62635">
        <ele>545.9</ele>
        <time>2015-06-07T07:25:45Z</time>
      </trkpt>
      <trkpt lat="45.98931" lon="6.62657">
        <ele>544.03</ele>
        <time>2015-06-07T07:25:49Z</time>
      </trkpt>
      <trkpt lat="45.98929" lon="6.62661">
        <ele>542.68</ele>
        <time>2015-06-07T07:25:50Z</time>
      </trkpt>
      <trkpt lat="45.98926" lon="6.62664">
        <ele>541.82</ele>
        <time>2015-06-07T07:25:51Z</time>
      </trkpt>
      <trkpt lat="45.98923" lon="6.62665">
        <ele>541.76</ele>
        <time>2015-06-07T07:25:52Z</time>
      </trkpt>
      <trkpt lat="45.98919" lon="6.62667">
        <ele>541.22</ele>
        <time>2015-06-07T07:25:53Z</time>
      </trkpt>
      <trkpt lat="45.98915" lon="6.62667">
        <ele>539.96</ele>
        <time>2015-06-07T07:25:54Z</time>
      </trkpt>
      <trkpt lat="45.98911" lon="6.6267">
        <ele>539.52</ele>
        <time>2015-06-07T07:25:55Z</time>
      </trkpt>
      <trkpt lat="45.98907" lon="6.62671">
        <ele>538.32</ele>
        <time>2015-06-07T07:25:56Z</time>
      </trkpt>
      <trkpt lat="45.98903" lon="6.62674">
        <ele>537.88</ele>
        <time>2015-06-07T07:25:57Z</time>
      </trkpt>
      <trkpt lat="45.989" lon="6.62676">
        <ele>537.62</ele>
        <time>2015-06-07T07:25:58Z</time>
      </trkpt>
      <trkpt lat="45.98886" lon="6.62677">
        <ele>535.39</ele>
        <time>2015-06-07T07:26:03Z</time>
      </trkpt>
      <trkpt lat="45.98883" lon="6.62678">
        <ele>535.21</ele>
        <time>2015-06-07T07:26:04Z</time>
      </trkpt>
      <trkpt lat="45.98881" lon="6.62681">
        <ele>535.23</ele>
        <time>2015-06-07T07:26:05Z</time>
      </trkpt>
      <trkpt lat="45.9888" lon="6.62684">
        <ele>534.94</ele>
        <time>2015-06-07T07:26:06Z</time>
      </trkpt>
      <trkpt lat="45.98879" lon="6.62686">
        <ele>535.02</ele>
        <time>2015-06-07T07:26:07Z</time>
      </trkpt>
      <trkpt lat="45.98878" lon="6.62688">
        <ele>535.21</ele>
        <time>2015-06-07T07:26:08Z</time>
      </trkpt>
      <trkpt lat="45.98872" lon="6.62696">
        <ele>535.41</ele>
        <time>2015-06-07T07:26:19Z</time>
      </trkpt>
      <trkpt lat="45.98865" lon="6.627">
        <ele>536.47</ele>
        <time>2015-06-07T07:26:38Z</time>
      </trkpt>
      <trkpt lat="45.98866" lon="6.62704">
        <ele>535.97</ele>
        <time>2015-06-07T07:26:51Z</time>
      </trkpt>
      <trkpt lat="45.98868" lon="6.62704">
        <ele>535.26</ele>
        <time>2015-06-07T07:26:52Z</time>
      </trkpt>
      <trkpt lat="45.98877" lon="6.62709">
        <ele>533.3</ele>
        <time>2015-06-07T07:26:57Z</time>
      </trkpt>
      <trkpt lat="45.98892" lon="6.62717">
        <ele>529.6</ele>
        <time>2015-06-07T07:27:03Z</time>
      </trkpt>
      <trkpt lat="45.98894" lon="6.62719">
        <ele>529.64</ele>
        <time>2015-06-07T07:27:04Z</time>
      </trkpt>
      <trkpt lat="45.989" lon="6.62722">
        <ele>528.37</ele>
        <time>2015-06-07T07:27:06Z</time>
      </trkpt>
      <trkpt lat="45.98906" lon="6.62724">
        <ele>526.91</ele>
        <time>2015-06-07T07:27:08Z</time>
      </trkpt>
      <trkpt lat="45.98917" lon="6.62727">
        <ele>525.17</ele>
        <time>2015-06-07T07:27:11Z</time>
      </trkpt>
      <trkpt lat="45.98928" lon="6.6273">
        <ele>523.46</ele>
        <time>2015-06-07T07:27:14Z</time>
      </trkpt>
      <trkpt lat="45.98935" lon="6.62736">
        <ele>521.52</ele>
        <time>2015-06-07T07:27:17Z</time>
      </trkpt>
      <trkpt lat="45.98936" lon="6.62739">
        <ele>521.05</ele>
        <time>2015-06-07T07:27:18Z</time>
      </trkpt>
      <trkpt lat="45.98936" lon="6.62741">
        <ele>520.98</ele>
        <time>2015-06-07T07:27:19Z</time>
      </trkpt>
      <trkpt lat="45.98928" lon="6.62747">
        <ele>520.69</ele>
        <time>2015-06-07T07:27:25Z</time>
      </trkpt>
      <trkpt lat="45.98925" lon="6.62746">
        <ele>520.53</ele>
        <time>2015-06-07T07:27:26Z</time>
      </trkpt>
      <trkpt lat="45.98882" lon="6.62744">
        <ele>519.71</ele>
        <time>2015-06-07T07:27:39Z</time>
      </trkpt>
      <trkpt lat="45.98843" lon="6.62714">
        <ele>519.78</ele>
        <time>2015-06-07T07:27:51Z</time>
      </trkpt>
      <trkpt lat="45.98807" lon="6.62705">
        <ele>519.68</ele>
        <time>2015-06-07T07:28:00Z</time>
      </trkpt>
      <trkpt lat="45.98803" lon="6.62705">
        <ele>520.2</ele>
        <time>2015-06-07T07:28:01Z</time>
      </trkpt>
      <trkpt lat="45.9879" lon="6.62703">
        <ele>520.23</ele>
        <time>2015-06-07T07:28:04Z</time>
      </trkpt>
      <trkpt lat="45.98786" lon="6.62702">
        <ele>520.81</ele>
        <time>2015-06-07T07:28:05Z</time>
      </trkpt>
      <trkpt lat="45.98783" lon="6.62701">
        <ele>521.29</ele>
        <time>2015-06-07T07:28:06Z</time>
      </trkpt>
      <trkpt lat="45.98779" lon="6.62699">
        <ele>520.85</ele>
        <time>2015-06-07T07:28:07Z</time>
      </trkpt>
      <trkpt lat="45.98776" lon="6.62696">
        <ele>521.02</ele>
        <time>2015-06-07T07:28:08Z</time>
      </trkpt>
      <trkpt lat="45.98756" lon="6.62687">
        <ele>523.9</ele>
        <time>2015-06-07T07:28:14Z</time>
      </trkpt>
      <trkpt lat="45.98728" lon="6.62685">
        <ele>526.54</ele>
        <time>2015-06-07T07:28:24Z</time>
      </trkpt>
      <trkpt lat="45.98692" lon="6.62679">
        <ele>524.58</ele>
        <time>2015-06-07T07:28:35Z</time>
      </trkpt>
      <trkpt lat="45.98677" lon="6.62677">
        <ele>524.04</ele>
        <time>2015-06-07T07:28:38Z</time>
      </trkpt>
      <trkpt lat="45.98673" lon="6.62677">
        <ele>524.05</ele>
        <time>2015-06-07T07:28:39Z</time>
      </trkpt>
      <trkpt lat="45.98669" lon="6.62677">
        <ele>524.31</ele>
        <time>2015-06-07T07:28:40Z</time>
      </trkpt>
      <trkpt lat="45.98639" lon="6.62671">
        <ele>526.41</ele>
        <time>2015-06-07T07:28:48Z</time>
      </trkpt>
      <trkpt lat="45.98604" lon="6.62653">
        <ele>526.97</ele>
        <time>2015-06-07T07:28:59Z</time>
      </trkpt>
      <trkpt lat="45.98564" lon="6.62643">
        <ele>524.54</ele>
        <time>2015-06-07T07:29:10Z</time>
      </trkpt>
      <trkpt lat="45.9856" lon="6.62642">
        <ele>524.06</ele>
        <time>2015-06-07T07:29:11Z</time>
      </trkpt>
      <trkpt lat="45.98556" lon="6.62643">
        <ele>524.44</ele>
        <time>2015-06-07T07:29:12Z</time>
      </trkpt>
      <trkpt lat="45.98516" lon="6.62643">
        <ele>524.06</ele>
        <time>2015-06-07T07:29:22Z</time>
      </trkpt>
      <trkpt lat="45.98477" lon="6.62647">
        <ele>524.96</ele>
        <time>2015-06-07T07:29:33Z</time>
      </trkpt>
      <trkpt lat="45.98453" lon="6.62649">
        <ele>523.12</ele>
        <time>2015-06-07T07:29:40Z</time>
      </trkpt>
      <trkpt lat="45.98448" lon="6.62652">
        <ele>523</ele>
        <time>2015-06-07T07:29:41Z</time>
      </trkpt>
      <trkpt lat="45.98444" lon="6.62655">
        <ele>522.22</ele>
        <time>2015-06-07T07:29:42Z</time>
      </trkpt>
      <trkpt lat="45.98435" lon="6.62662">
        <ele>522.46</ele>
        <time>2015-06-07T07:29:44Z</time>
      </trkpt>
      <trkpt lat="45.98399" lon="6.62683">
        <ele>522.67</ele>
        <time>2015-06-07T07:29:53Z</time>
      </trkpt>
      <trkpt lat="45.98342" lon="6.62703">
        <ele>522.48</ele>
        <time>2015-06-07T07:30:08Z</time>
      </trkpt>
      <trkpt lat="45.98301" lon="6.62737">
        <ele>522.46</ele>
        <time>2015-06-07T07:30:20Z</time>
      </trkpt>
      <trkpt lat="45.98268" lon="6.62767">
        <ele>523.05</ele>
        <time>2015-06-07T07:30:32Z</time>
      </trkpt>
      <trkpt lat="45.98224" lon="6.62808">
        <ele>522.97</ele>
        <time>2015-06-07T07:30:47Z</time>
      </trkpt>
      <trkpt lat="45.98204" lon="6.62822">
        <ele>523.46</ele>
        <time>2015-06-07T07:30:58Z</time>
      </trkpt>
      <trkpt lat="45.98204" lon="6.62822">
        <ele>523.59</ele>
        <time>2015-06-07T07:31:19Z</time>
      </trkpt>
      <trkpt lat="45.98203" lon="6.62823">
        <ele>523.59</ele>
        <time>2015-06-07T07:31:20Z</time>
      </trkpt>
      <trkpt lat="45.98202" lon="6.62825">
        <ele>523.55</ele>
        <time>2015-06-07T07:31:21Z</time>
      </trkpt>
      <trkpt lat="45.982" lon="6.62828">
        <ele>523.69</ele>
        <time>2015-06-07T07:31:22Z</time>
      </trkpt>
      <trkpt lat="45.98197" lon="6.6283">
        <ele>523.18</ele>
        <time>2015-06-07T07:31:23Z</time>
      </trkpt>
      <trkpt lat="45.98195" lon="6.62832">
        <ele>523.52</ele>
        <time>2015-06-07T07:31:24Z</time>
      </trkpt>
      <trkpt lat="45.98192" lon="6.62834">
        <ele>523.53</ele>
        <time>2015-06-07T07:31:25Z</time>
      </trkpt>
      <trkpt lat="45.98189" lon="6.62837">
        <ele>523.05</ele>
        <time>2015-06-07T07:31:26Z</time>
      </trkpt>
      <trkpt lat="45.98187" lon="6.6284">
        <ele>522.92</ele>
        <time>2015-06-07T07:31:27Z</time>
      </trkpt>
      <trkpt lat="45.9816" lon="6.62864">
        <ele>522.93</ele>
        <time>2015-06-07T07:31:37Z</time>
      </trkpt>
      <trkpt lat="45.98123" lon="6.62888">
        <ele>523.39</ele>
        <time>2015-06-07T07:31:49Z</time>
      </trkpt>
      <trkpt lat="45.98067" lon="6.62898">
        <ele>523.25</ele>
        <time>2015-06-07T07:32:03Z</time>
      </trkpt>
      <trkpt lat="45.98032" lon="6.62902">
        <ele>523.63</ele>
        <time>2015-06-07T07:32:11Z</time>
      </trkpt>
      <trkpt lat="45.98028" lon="6.62903">
        <ele>523.52</ele>
        <time>2015-06-07T07:32:12Z</time>
      </trkpt>
      <trkpt lat="45.98024" lon="6.62905">
        <ele>523.43</ele>
        <time>2015-06-07T07:32:13Z</time>
      </trkpt>
      <trkpt lat="45.97955" lon="6.62913">
        <ele>523.03</ele>
        <time>2015-06-07T07:32:28Z</time>
      </trkpt>
      <trkpt lat="45.9795" lon="6.62912">
        <ele>522.74</ele>
        <time>2015-06-07T07:32:29Z</time>
      </trkpt>
      <trkpt lat="45.97945" lon="6.62912">
        <ele>523.12</ele>
        <time>2015-06-07T07:32:30Z</time>
      </trkpt>
      <trkpt lat="45.97922" lon="6.62916">
        <ele>522.89</ele>
        <time>2015-06-07T07:32:35Z</time>
      </trkpt>
      <trkpt lat="45.97917" lon="6.62918">
        <ele>523.03</ele>
        <time>2015-06-07T07:32:36Z</time>
      </trkpt>
      <trkpt lat="45.97913" lon="6.62918">
        <ele>523.39</ele>
        <time>2015-06-07T07:32:37Z</time>
      </trkpt>
      <trkpt lat="45.97903" lon="6.6292">
        <ele>522.92</ele>
        <time>2015-06-07T07:32:39Z</time>
      </trkpt>
      <trkpt lat="45.97894" lon="6.62923">
        <ele>523.09</ele>
        <time>2015-06-07T07:32:41Z</time>
      </trkpt>
      <trkpt lat="45.97889" lon="6.62924">
        <ele>523.27</ele>
        <time>2015-06-07T07:32:42Z</time>
      </trkpt>
      <trkpt lat="45.97884" lon="6.62924">
        <ele>523.31</ele>
        <time>2015-06-07T07:32:43Z</time>
      </trkpt>
      <trkpt lat="45.97814" lon="6.62924">
        <ele>526.37</ele>
        <time>2015-06-07T07:32:59Z</time>
      </trkpt>
      <trkpt lat="45.97738" lon="6.62929">
        <ele>528.66</ele>
        <time>2015-06-07T07:33:20Z</time>
      </trkpt>
      <trkpt lat="45.9767" lon="6.6293">
        <ele>531.13</ele>
        <time>2015-06-07T07:33:40Z</time>
      </trkpt>
      <trkpt lat="45.97624" lon="6.62931">
        <ele>532.84</ele>
        <time>2015-06-07T07:33:54Z</time>
      </trkpt>
      <trkpt lat="45.97573" lon="6.62927">
        <ele>534.81</ele>
        <time>2015-06-07T07:34:09Z</time>
      </trkpt>
      <trkpt lat="45.97508" lon="6.62918">
        <ele>534.52</ele>
        <time>2015-06-07T07:34:27Z</time>
      </trkpt>
      <trkpt lat="45.97439" lon="6.62905">
        <ele>537.57</ele>
        <time>2015-06-07T07:34:47Z</time>
      </trkpt>
      <trkpt lat="45.97395" lon="6.62898">
        <ele>539.21</ele>
        <time>2015-06-07T07:35:03Z</time>
      </trkpt>
      <trkpt lat="45.9735" lon="6.62893">
        <ele>540.89</ele>
        <time>2015-06-07T07:35:19Z</time>
      </trkpt>
      <trkpt lat="45.973" lon="6.62878">
        <ele>539.95</ele>
        <time>2015-06-07T07:35:36Z</time>
      </trkpt>
      <trkpt lat="45.97224" lon="6.62872">
        <ele>539.75</ele>
        <time>2015-06-07T07:39:40Z</time>
      </trkpt>
      <trkpt lat="45.97202" lon="6.62878">
        <ele>538.49</ele>
        <time>2015-06-07T07:39:44Z</time>
      </trkpt>
      <trkpt lat="45.97178" lon="6.6288">
        <ele>537.51</ele>
        <time>2015-06-07T07:39:48Z</time>
      </trkpt>
      <trkpt lat="45.97172" lon="6.62883">
        <ele>536.84</ele>
        <time>2015-06-07T07:39:49Z</time>
      </trkpt>
      <trkpt lat="45.97126" lon="6.62904">
        <ele>534.77</ele>
        <time>2015-06-07T07:39:57Z</time>
      </trkpt>
      <trkpt lat="45.97119" lon="6.62905">
        <ele>534.5</ele>
        <time>2015-06-07T07:39:58Z</time>
      </trkpt>
      <trkpt lat="45.97113" lon="6.62903">
        <ele>534.19</ele>
        <time>2015-06-07T07:39:59Z</time>
      </trkpt>
      <trkpt lat="45.97015" lon="6.62859">
        <ele>532.13</ele>
        <time>2015-06-07T07:40:16Z</time>
      </trkpt>
      <trkpt lat="45.96999" lon="6.62852">
        <ele>531.73</ele>
        <time>2015-06-07T07:40:19Z</time>
      </trkpt>
      <trkpt lat="45.96913" lon="6.6283">
        <ele>529.06</ele>
        <time>2015-06-07T07:40:36Z</time>
      </trkpt>
      <trkpt lat="45.96908" lon="6.62832">
        <ele>528.49</ele>
        <time>2015-06-07T07:40:37Z</time>
      </trkpt>
      <trkpt lat="45.96903" lon="6.62835">
        <ele>528.72</ele>
        <time>2015-06-07T07:40:38Z</time>
      </trkpt>
      <trkpt lat="45.96899" lon="6.62839">
        <ele>527.89</ele>
        <time>2015-06-07T07:40:39Z</time>
      </trkpt>
      <trkpt lat="45.96894" lon="6.62844">
        <ele>527.97</ele>
        <time>2015-06-07T07:40:40Z</time>
      </trkpt>
      <trkpt lat="45.9689" lon="6.62848">
        <ele>528.07</ele>
        <time>2015-06-07T07:40:41Z</time>
      </trkpt>
      <trkpt lat="45.96885" lon="6.62852">
        <ele>528.03</ele>
        <time>2015-06-07T07:40:42Z</time>
      </trkpt>
      <trkpt lat="45.96881" lon="6.62857">
        <ele>528.27</ele>
        <time>2015-06-07T07:40:43Z</time>
      </trkpt>
      <trkpt lat="45.96878" lon="6.62862">
        <ele>527.68</ele>
        <time>2015-06-07T07:40:44Z</time>
      </trkpt>
      <trkpt lat="45.96861" lon="6.62886">
        <ele>528.95</ele>
        <time>2015-06-07T07:40:49Z</time>
      </trkpt>
      <trkpt lat="45.96859" lon="6.62891">
        <ele>528.53</ele>
        <time>2015-06-07T07:40:50Z</time>
      </trkpt>
      <trkpt lat="45.96854" lon="6.6291">
        <ele>528.87</ele>
        <time>2015-06-07T07:40:53Z</time>
      </trkpt>
      <trkpt lat="45.96853" lon="6.62916">
        <ele>529.02</ele>
        <time>2015-06-07T07:40:54Z</time>
      </trkpt>
      <trkpt lat="45.96852" lon="6.62989">
        <ele>531.16</ele>
        <time>2015-06-07T07:41:09Z</time>
      </trkpt>
      <trkpt lat="45.96851" lon="6.63004">
        <ele>530.42</ele>
        <time>2015-06-07T07:41:20Z</time>
      </trkpt>
      <trkpt lat="45.96848" lon="6.63034">
        <ele>528.81</ele>
        <time>2015-06-07T07:41:35Z</time>
      </trkpt>
      <trkpt lat="45.96847" lon="6.63041">
        <ele>528.57</ele>
        <time>2015-06-07T07:41:36Z</time>
      </trkpt>
      <trkpt lat="45.96842" lon="6.63078">
        <ele>529.54</ele>
        <time>2015-06-07T07:41:44Z</time>
      </trkpt>
      <trkpt lat="45.96839" lon="6.6308">
        <ele>529.65</ele>
        <time>2015-06-07T07:41:45Z</time>
      </trkpt>
      <trkpt lat="45.96836" lon="6.6308">
        <ele>529.67</ele>
        <time>2015-06-07T07:41:46Z</time>
      </trkpt>
      <trkpt lat="45.96832" lon="6.63079">
        <ele>529.57</ele>
        <time>2015-06-07T07:41:47Z</time>
      </trkpt>
      <trkpt lat="45.96829" lon="6.63078">
        <ele>529.77</ele>
        <time>2015-06-07T07:41:48Z</time>
      </trkpt>
      <trkpt lat="45.96772" lon="6.63055">
        <ele>531.62</ele>
        <time>2015-06-07T07:42:06Z</time>
      </trkpt>
      <trkpt lat="45.96771" lon="6.63058">
        <ele>531.81</ele>
        <time>2015-06-07T07:42:13Z</time>
      </trkpt>
      <trkpt lat="45.96767" lon="6.63109">
        <ele>531.91</ele>
        <time>2015-06-07T07:42:26Z</time>
      </trkpt>
      <trkpt lat="45.96768" lon="6.63112">
        <ele>531.66</ele>
        <time>2015-06-07T07:42:27Z</time>
      </trkpt>
      <trkpt lat="45.96769" lon="6.63115">
        <ele>531.52</ele>
        <time>2015-06-07T07:42:28Z</time>
      </trkpt>
      <trkpt lat="45.96772" lon="6.63114">
        <ele>531.48</ele>
        <time>2015-06-07T07:42:29Z</time>
      </trkpt>
      <trkpt lat="45.96774" lon="6.63112">
        <ele>530.8</ele>
        <time>2015-06-07T07:42:30Z</time>
      </trkpt>
      <trkpt lat="45.96778" lon="6.6311">
        <ele>530.1</ele>
        <time>2015-06-07T07:42:31Z</time>
      </trkpt>
      <trkpt lat="45.96782" lon="6.63108">
        <ele>530.01</ele>
        <time>2015-06-07T07:42:32Z</time>
      </trkpt>
      <trkpt lat="45.96786" lon="6.63109">
        <ele>530.1</ele>
        <time>2015-06-07T07:42:33Z</time>
      </trkpt>
      <trkpt lat="45.9679" lon="6.63111">
        <ele>529.8</ele>
        <time>2015-06-07T07:42:34Z</time>
      </trkpt>
      <trkpt lat="45.96815" lon="6.63117">
        <ele>529.53</ele>
        <time>2015-06-07T07:42:40Z</time>
      </trkpt>
      <trkpt lat="45.96898" lon="6.63151">
        <ele>529.35</ele>
        <time>2015-06-07T07:42:58Z</time>
      </trkpt>
      <trkpt lat="45.96902" lon="6.63153">
        <ele>528.95</ele>
        <time>2015-06-07T07:42:59Z</time>
      </trkpt>
      <trkpt lat="45.96953" lon="6.63172">
        <ele>529.01</ele>
        <time>2015-06-07T07:43:10Z</time>
      </trkpt>
      <trkpt lat="45.96967" lon="6.63178">
        <ele>529.59</ele>
        <time>2015-06-07T07:43:13Z</time>
      </trkpt>
      <trkpt lat="45.96971" lon="6.63181">
        <ele>529.39</ele>
        <time>2015-06-07T07:43:14Z</time>
      </trkpt>
      <trkpt lat="45.9706" lon="6.63224">
        <ele>528.42</ele>
        <time>2015-06-07T07:43:31Z</time>
      </trkpt>
      <trkpt lat="45.97081" lon="6.63235">
        <ele>528.07</ele>
        <time>2015-06-07T07:43:35Z</time>
      </trkpt>
      <trkpt lat="45.9709" lon="6.6324">
        <ele>528.22</ele>
        <time>2015-06-07T07:43:37Z</time>
      </trkpt>
      <trkpt lat="45.97095" lon="6.63242">
        <ele>528.13</ele>
        <time>2015-06-07T07:43:38Z</time>
      </trkpt>
      <trkpt lat="45.97144" lon="6.63259">
        <ele>528.29</ele>
        <time>2015-06-07T07:43:49Z</time>
      </trkpt>
      <trkpt lat="45.97148" lon="6.63261">
        <ele>528.31</ele>
        <time>2015-06-07T07:43:50Z</time>
      </trkpt>
      <trkpt lat="45.97152" lon="6.63263">
        <ele>528.6</ele>
        <time>2015-06-07T07:43:51Z</time>
      </trkpt>
      <trkpt lat="45.97156" lon="6.63265">
        <ele>527.6</ele>
        <time>2015-06-07T07:43:52Z</time>
      </trkpt>
      <trkpt lat="45.97159" lon="6.63267">
        <ele>527.85</ele>
        <time>2015-06-07T07:43:53Z</time>
      </trkpt>
      <trkpt lat="45.97163" lon="6.63269">
        <ele>528.23</ele>
        <time>2015-06-07T07:43:54Z</time>
      </trkpt>
      <trkpt lat="45.97167" lon="6.63271">
        <ele>528.53</ele>
        <time>2015-06-07T07:43:55Z</time>
      </trkpt>
      <trkpt lat="45.97223" lon="6.63289">
        <ele>528.19</ele>
        <time>2015-06-07T07:44:10Z</time>
      </trkpt>
      <trkpt lat="45.97316" lon="6.63324">
        <ele>527.49</ele>
        <time>2015-06-07T07:44:29Z</time>
      </trkpt>
      <trkpt lat="45.97376" lon="6.63348">
        <ele>527.5</ele>
        <time>2015-06-07T07:44:42Z</time>
      </trkpt>
      <trkpt lat="45.97461" lon="6.63384">
        <ele>527.13</ele>
        <time>2015-06-07T07:44:59Z</time>
      </trkpt>
      <trkpt lat="45.97476" lon="6.63392">
        <ele>526.5</ele>
        <time>2015-06-07T07:45:02Z</time>
      </trkpt>
      <trkpt lat="45.97507" lon="6.63404">
        <ele>527.08</ele>
        <time>2015-06-07T07:45:08Z</time>
      </trkpt>
      <trkpt lat="45.97565" lon="6.63431">
        <ele>526.82</ele>
        <time>2015-06-07T07:45:21Z</time>
      </trkpt>
      <trkpt lat="45.97625" lon="6.63456">
        <ele>526.44</ele>
        <time>2015-06-07T07:45:34Z</time>
      </trkpt>
      <trkpt lat="45.97629" lon="6.63459">
        <ele>526.81</ele>
        <time>2015-06-07T07:45:35Z</time>
      </trkpt>
      <trkpt lat="45.97675" lon="6.63479">
        <ele>526.29</ele>
        <time>2015-06-07T07:45:47Z</time>
      </trkpt>
      <trkpt lat="45.97692" lon="6.63494">
        <ele>526.37</ele>
        <time>2015-06-07T07:45:59Z</time>
      </trkpt>
      <trkpt lat="45.97693" lon="6.63495">
        <ele>526.36</ele>
        <time>2015-06-07T07:46:00Z</time>
      </trkpt>
      <trkpt lat="45.97695" lon="6.63497">
        <ele>526.54</ele>
        <time>2015-06-07T07:46:01Z</time>
      </trkpt>
      <trkpt lat="45.97696" lon="6.635">
        <ele>526.46</ele>
        <time>2015-06-07T07:46:02Z</time>
      </trkpt>
      <trkpt lat="45.97696" lon="6.63504">
        <ele>526.87</ele>
        <time>2015-06-07T07:46:03Z</time>
      </trkpt>
      <trkpt lat="45.97696" lon="6.63507">
        <ele>526.11</ele>
        <time>2015-06-07T07:46:04Z</time>
      </trkpt>
      <trkpt lat="45.97696" lon="6.63511">
        <ele>526.56</ele>
        <time>2015-06-07T07:46:05Z</time>
      </trkpt>
      <trkpt lat="45.97695" lon="6.63516">
        <ele>526.51</ele>
        <time>2015-06-07T07:46:06Z</time>
      </trkpt>
      <trkpt lat="45.97694" lon="6.63521">
        <ele>526.37</ele>
        <time>2015-06-07T07:46:07Z</time>
      </trkpt>
      <trkpt lat="45.97693" lon="6.63526">
        <ele>526.81</ele>
        <time>2015-06-07T07:46:08Z</time>
      </trkpt>
      <trkpt lat="45.97692" lon="6.63532">
        <ele>526.8</ele>
        <time>2015-06-07T07:46:09Z</time>
      </trkpt>
      <trkpt lat="45.9769" lon="6.63538">
        <ele>527</ele>
        <time>2015-06-07T07:46:10Z</time>
      </trkpt>
      <trkpt lat="45.97687" lon="6.63547">
        <ele>526.95</ele>
        <time>2015-06-07T07:46:12Z</time>
      </trkpt>
      <trkpt lat="45.97685" lon="6.63552">
        <ele>527.22</ele>
        <time>2015-06-07T07:46:13Z</time>
      </trkpt>
      <trkpt lat="45.97684" lon="6.63558">
        <ele>527.34</ele>
        <time>2015-06-07T07:46:14Z</time>
      </trkpt>
      <trkpt lat="45.97683" lon="6.63563">
        <ele>527.1</ele>
        <time>2015-06-07T07:46:15Z</time>
      </trkpt>
      <trkpt lat="45.97681" lon="6.63569">
        <ele>527.74</ele>
        <time>2015-06-07T07:46:16Z</time>
      </trkpt>
      <trkpt lat="45.9768" lon="6.63575">
        <ele>527.57</ele>
        <time>2015-06-07T07:46:17Z</time>
      </trkpt>
      <trkpt lat="45.97678" lon="6.63581">
        <ele>527.34</ele>
        <time>2015-06-07T07:46:18Z</time>
      </trkpt>
      <trkpt lat="45.97677" lon="6.63586">
        <ele>527.76</ele>
        <time>2015-06-07T07:46:19Z</time>
      </trkpt>
      <trkpt lat="45.97677" lon="6.6359">
        <ele>528.17</ele>
        <time>2015-06-07T07:46:20Z</time>
      </trkpt>
      <trkpt lat="45.97676" lon="6.63593">
        <ele>527.76</ele>
        <time>2015-06-07T07:46:21Z</time>
      </trkpt>
      <trkpt lat="45.97675" lon="6.63595">
        <ele>527.9</ele>
        <time>2015-06-07T07:46:22Z</time>
      </trkpt>
      <trkpt lat="45.97674" lon="6.63598">
        <ele>527.24</ele>
        <time>2015-06-07T07:46:23Z</time>
      </trkpt>
      <trkpt lat="45.97672" lon="6.63601">
        <ele>527.13</ele>
        <time>2015-06-07T07:46:24Z</time>
      </trkpt>
      <trkpt lat="45.97671" lon="6.63604">
        <ele>526.88</ele>
        <time>2015-06-07T07:46:25Z</time>
      </trkpt>
      <trkpt lat="45.97671" lon="6.63608">
        <ele>526.82</ele>
        <time>2015-06-07T07:46:26Z</time>
      </trkpt>
      <trkpt lat="45.9767" lon="6.63612">
        <ele>526.69</ele>
        <time>2015-06-07T07:46:27Z</time>
      </trkpt>
      <trkpt lat="45.97654" lon="6.63668">
        <ele>526.8</ele>
        <time>2015-06-07T07:46:39Z</time>
      </trkpt>
      <trkpt lat="45.97648" lon="6.63705">
        <ele>527.8</ele>
        <time>2015-06-07T07:46:48Z</time>
      </trkpt>
      <trkpt lat="45.97637" lon="6.63741">
        <ele>528.55</ele>
        <time>2015-06-07T07:46:59Z</time>
      </trkpt>
      <trkpt lat="45.97622" lon="6.63773">
        <ele>528.78</ele>
        <time>2015-06-07T07:47:07Z</time>
      </trkpt>
      <trkpt lat="45.97604" lon="6.63815">
        <ele>529.54</ele>
        <time>2015-06-07T07:47:19Z</time>
      </trkpt>
      <trkpt lat="45.97599" lon="6.63823">
        <ele>529.12</ele>
        <time>2015-06-07T07:47:28Z</time>
      </trkpt>
      <trkpt lat="45.97598" lon="6.63824">
        <ele>529</ele>
        <time>2015-06-07T07:47:29Z</time>
      </trkpt>
      <trkpt lat="45.97598" lon="6.63826">
        <ele>528.87</ele>
        <time>2015-06-07T07:47:30Z</time>
      </trkpt>
      <trkpt lat="45.97597" lon="6.63828">
        <ele>528.85</ele>
        <time>2015-06-07T07:47:31Z</time>
      </trkpt>
      <trkpt lat="45.97596" lon="6.6383">
        <ele>529.07</ele>
        <time>2015-06-07T07:47:32Z</time>
      </trkpt>
      <trkpt lat="45.97594" lon="6.63833">
        <ele>528.95</ele>
        <time>2015-06-07T07:47:33Z</time>
      </trkpt>
      <trkpt lat="45.97592" lon="6.63834">
        <ele>528.7</ele>
        <time>2015-06-07T07:47:34Z</time>
      </trkpt>
      <trkpt lat="45.97589" lon="6.63834">
        <ele>528.91</ele>
        <time>2015-06-07T07:47:35Z</time>
      </trkpt>
      <trkpt lat="45.97586" lon="6.63833">
        <ele>528.37</ele>
        <time>2015-06-07T07:47:36Z</time>
      </trkpt>
      <trkpt lat="45.97582" lon="6.63832">
        <ele>528.54</ele>
        <time>2015-06-07T07:47:37Z</time>
      </trkpt>
      <trkpt lat="45.97578" lon="6.63833">
        <ele>529.04</ele>
        <time>2015-06-07T07:47:38Z</time>
      </trkpt>
      <trkpt lat="45.97574" lon="6.63834">
        <ele>528.62</ele>
        <time>2015-06-07T07:47:39Z</time>
      </trkpt>
      <trkpt lat="45.97484" lon="6.63863">
        <ele>527.89</ele>
        <time>2015-06-07T07:47:58Z</time>
      </trkpt>
      <trkpt lat="45.97445" lon="6.63876">
        <ele>528.2</ele>
        <time>2015-06-07T07:48:07Z</time>
      </trkpt>
      <trkpt lat="45.9744" lon="6.63876">
        <ele>527.91</ele>
        <time>2015-06-07T07:48:08Z</time>
      </trkpt>
      <trkpt lat="45.97436" lon="6.63878">
        <ele>528</ele>
        <time>2015-06-07T07:48:09Z</time>
      </trkpt>
      <trkpt lat="45.97433" lon="6.63881">
        <ele>528.1</ele>
        <time>2015-06-07T07:48:10Z</time>
      </trkpt>
      <trkpt lat="45.97431" lon="6.63886">
        <ele>528.18</ele>
        <time>2015-06-07T07:48:11Z</time>
      </trkpt>
      <trkpt lat="45.9743" lon="6.63892">
        <ele>528.43</ele>
        <time>2015-06-07T07:48:12Z</time>
      </trkpt>
      <trkpt lat="45.9743" lon="6.63897">
        <ele>528.72</ele>
        <time>2015-06-07T07:48:13Z</time>
      </trkpt>
      <trkpt lat="45.97436" lon="6.63932">
        <ele>529.99</ele>
        <time>2015-06-07T07:48:19Z</time>
      </trkpt>
      <trkpt lat="45.97448" lon="6.63971">
        <ele>531.45</ele>
        <time>2015-06-07T07:48:28Z</time>
      </trkpt>
      <trkpt lat="45.9745" lon="6.63973">
        <ele>531.96</ele>
        <time>2015-06-07T07:48:29Z</time>
      </trkpt>
      <trkpt lat="45.97474" lon="6.63992">
        <ele>532.89</ele>
        <time>2015-06-07T07:48:41Z</time>
      </trkpt>
      <trkpt lat="45.97475" lon="6.63993">
        <ele>531.78</ele>
        <time>2015-06-07T07:48:56Z</time>
      </trkpt>
      <trkpt lat="45.97474" lon="6.63992">
        <ele>532.39</ele>
        <time>2015-06-07T07:50:10Z</time>
      </trkpt>
      <trkpt lat="45.97473" lon="6.63993">
        <ele>532.8</ele>
        <time>2015-06-07T07:51:19Z</time>
      </trkpt>
      <trkpt lat="45.97474" lon="6.63992">
        <ele>533.23</ele>
        <time>2015-06-07T07:52:26Z</time>
      </trkpt>
      <trkpt lat="45.97473" lon="6.63991">
        <ele>533.77</ele>
        <time>2015-06-07T07:52:54Z</time>
      </trkpt>
      <trkpt lat="45.97472" lon="6.6399">
        <ele>534.06</ele>
        <time>2015-06-07T07:53:38Z</time>
      </trkpt>
      <trkpt lat="45.97451" lon="6.63972">
        <ele>533.62</ele>
        <time>2015-06-07T07:53:51Z</time>
      </trkpt>
      <trkpt lat="45.97449" lon="6.63972">
        <ele>533.39</ele>
        <time>2015-06-07T07:53:53Z</time>
      </trkpt>
      <trkpt lat="45.97449" lon="6.63983">
        <ele>533.91</ele>
        <time>2015-06-07T07:53:59Z</time>
      </trkpt>
      <trkpt lat="45.97452" lon="6.64022">
        <ele>536.6</ele>
        <time>2015-06-07T07:54:12Z</time>
      </trkpt>
      <trkpt lat="45.97452" lon="6.64032">
        <ele>538.29</ele>
        <time>2015-06-07T07:54:16Z</time>
      </trkpt>
      <trkpt lat="45.9745" lon="6.6404">
        <ele>539.27</ele>
        <time>2015-06-07T07:54:20Z</time>
      </trkpt>
      <trkpt lat="45.97451" lon="6.64044">
        <ele>540.13</ele>
        <time>2015-06-07T07:54:21Z</time>
      </trkpt>
      <trkpt lat="45.97453" lon="6.64053">
        <ele>540.57</ele>
        <time>2015-06-07T07:54:24Z</time>
      </trkpt>
      <trkpt lat="45.97454" lon="6.64056">
        <ele>541.26</ele>
        <time>2015-06-07T07:54:25Z</time>
      </trkpt>
      <trkpt lat="45.97455" lon="6.64057">
        <ele>541.27</ele>
        <time>2015-06-07T07:54:26Z</time>
      </trkpt>
      <trkpt lat="45.97457" lon="6.64059">
        <ele>541.3</ele>
        <time>2015-06-07T07:54:27Z</time>
      </trkpt>
      <trkpt lat="45.97459" lon="6.6406">
        <ele>541.39</ele>
        <time>2015-06-07T07:54:28Z</time>
      </trkpt>
      <trkpt lat="45.9748" lon="6.64065">
        <ele>544.3</ele>
        <time>2015-06-07T07:54:39Z</time>
      </trkpt>
      <trkpt lat="45.97482" lon="6.64059">
        <ele>543.19</ele>
        <time>2015-06-07T07:54:50Z</time>
      </trkpt>
      <trkpt lat="45.97482" lon="6.64057">
        <ele>541.98</ele>
        <time>2015-06-07T07:54:52Z</time>
      </trkpt>
      <trkpt lat="45.97489" lon="6.64051">
        <ele>541.51</ele>
        <time>2015-06-07T07:55:01Z</time>
      </trkpt>
      <trkpt lat="45.97494" lon="6.6405">
        <ele>541.37</ele>
        <time>2015-06-07T07:55:05Z</time>
      </trkpt>
      <trkpt lat="45.97499" lon="6.64053">
        <ele>541.04</ele>
        <time>2015-06-07T07:55:16Z</time>
      </trkpt>
      <trkpt lat="45.97499" lon="6.64054">
        <ele>541.52</ele>
        <time>2015-06-07T07:55:17Z</time>
      </trkpt>
      <trkpt lat="45.97501" lon="6.64058">
        <ele>540.96</ele>
        <time>2015-06-07T07:55:21Z</time>
      </trkpt>
      <trkpt lat="45.97503" lon="6.6405">
        <ele>539.26</ele>
        <time>2015-06-07T07:55:25Z</time>
      </trkpt>
      <trkpt lat="45.97504" lon="6.64041">
        <ele>537.54</ele>
        <time>2015-06-07T07:55:28Z</time>
      </trkpt>
      <trkpt lat="45.97511" lon="6.64037">
        <ele>536.97</ele>
        <time>2015-06-07T07:55:32Z</time>
      </trkpt>
      <trkpt lat="45.97523" lon="6.64053">
        <ele>539.59</ele>
        <time>2015-06-07T07:55:42Z</time>
      </trkpt>
      <trkpt lat="45.97525" lon="6.64055">
        <ele>539.85</ele>
        <time>2015-06-07T07:55:47Z</time>
      </trkpt>
      <trkpt lat="45.97536" lon="6.64069">
        <ele>539.35</ele>
        <time>2015-06-07T07:56:02Z</time>
      </trkpt>
      <trkpt lat="45.97543" lon="6.64072">
        <ele>539.5</ele>
        <time>2015-06-07T07:56:19Z</time>
      </trkpt>
      <trkpt lat="45.97542" lon="6.64071">
        <ele>539.3</ele>
        <time>2015-06-07T07:56:22Z</time>
      </trkpt>
      <trkpt lat="45.9754" lon="6.64067">
        <ele>539.27</ele>
        <time>2015-06-07T07:56:25Z</time>
      </trkpt>
      <trkpt lat="45.97534" lon="6.64056">
        <ele>539.15</ele>
        <time>2015-06-07T07:56:38Z</time>
      </trkpt>
      <trkpt lat="45.97524" lon="6.64043">
        <ele>537.62</ele>
        <time>2015-06-07T07:56:51Z</time>
      </trkpt>
      <trkpt lat="45.97509" lon="6.64">
        <ele>536.24</ele>
        <time>2015-06-07T07:57:03Z</time>
      </trkpt>
      <trkpt lat="45.97508" lon="6.63986">
        <ele>535.54</ele>
        <time>2015-06-07T07:57:07Z</time>
      </trkpt>
      <trkpt lat="45.97518" lon="6.63969">
        <ele>534.83</ele>
        <time>2015-06-07T07:57:14Z</time>
      </trkpt>
      <trkpt lat="45.97525" lon="6.63949">
        <ele>533.75</ele>
        <time>2015-06-07T07:57:20Z</time>
      </trkpt>
      <trkpt lat="45.9753" lon="6.63945">
        <ele>533.38</ele>
        <time>2015-06-07T07:57:22Z</time>
      </trkpt>
      <trkpt lat="45.97535" lon="6.63931">
        <ele>533.18</ele>
        <time>2015-06-07T07:57:27Z</time>
      </trkpt>
      <trkpt lat="45.97539" lon="6.63917">
        <ele>533.47</ele>
        <time>2015-06-07T07:57:38Z</time>
      </trkpt>
      <trkpt lat="45.97546" lon="6.6391">
        <ele>533.53</ele>
        <time>2015-06-07T07:57:50Z</time>
      </trkpt>
      <trkpt lat="45.97558" lon="6.63896">
        <ele>532.85</ele>
        <time>2015-06-07T07:58:02Z</time>
      </trkpt>
      <trkpt lat="45.97563" lon="6.63889">
        <ele>532.96</ele>
        <time>2015-06-07T07:58:10Z</time>
      </trkpt>
      <trkpt lat="45.97569" lon="6.63877">
        <ele>532.24</ele>
        <time>2015-06-07T07:58:16Z</time>
      </trkpt>
      <trkpt lat="45.97576" lon="6.63863">
        <ele>532.18</ele>
        <time>2015-06-07T07:58:22Z</time>
      </trkpt>
      <trkpt lat="45.97594" lon="6.63835">
        <ele>530.69</ele>
        <time>2015-06-07T07:58:32Z</time>
      </trkpt>
      <trkpt lat="45.9762" lon="6.63823">
        <ele>529.2</ele>
        <time>2015-06-07T07:58:41Z</time>
      </trkpt>
      <trkpt lat="45.97643" lon="6.63811">
        <ele>529.22</ele>
        <time>2015-06-07T07:58:46Z</time>
      </trkpt>
      <trkpt lat="45.97648" lon="6.63809">
        <ele>528.74</ele>
        <time>2015-06-07T07:58:47Z</time>
      </trkpt>
      <trkpt lat="45.97653" lon="6.63807">
        <ele>528.81</ele>
        <time>2015-06-07T07:58:48Z</time>
      </trkpt>
      <trkpt lat="45.97726" lon="6.63779">
        <ele>527.17</ele>
        <time>2015-06-07T07:59:01Z</time>
      </trkpt>
      <trkpt lat="45.97824" lon="6.63734">
        <ele>527.26</ele>
        <time>2015-06-07T07:59:18Z</time>
      </trkpt>
      <trkpt lat="45.97884" lon="6.63683">
        <ele>528.17</ele>
        <time>2015-06-07T07:59:31Z</time>
      </trkpt>
      <trkpt lat="45.97931" lon="6.63633">
        <ele>531.37</ele>
        <time>2015-06-07T07:59:43Z</time>
      </trkpt>
      <trkpt lat="45.97978" lon="6.63585">
        <ele>534.56</ele>
        <time>2015-06-07T07:59:57Z</time>
      </trkpt>
      <trkpt lat="45.98035" lon="6.63525">
        <ele>538.11</ele>
        <time>2015-06-07T08:00:16Z</time>
      </trkpt>
      <trkpt lat="45.98087" lon="6.63472">
        <ele>540.62</ele>
        <time>2015-06-07T08:00:34Z</time>
      </trkpt>
      <trkpt lat="45.98147" lon="6.63418">
        <ele>542.82</ele>
        <time>2015-06-07T08:00:54Z</time>
      </trkpt>
      <trkpt lat="45.9822" lon="6.63369">
        <ele>542.45</ele>
        <time>2015-06-07T08:01:12Z</time>
      </trkpt>
      <trkpt lat="45.98306" lon="6.63315">
        <ele>542.78</ele>
        <time>2015-06-07T08:01:30Z</time>
      </trkpt>
      <trkpt lat="45.98388" lon="6.63279">
        <ele>540.96</ele>
        <time>2015-06-07T08:01:46Z</time>
      </trkpt>
      <trkpt lat="45.98503" lon="6.63268">
        <ele>537.52</ele>
        <time>2015-06-07T08:02:03Z</time>
      </trkpt>
      <trkpt lat="45.9851" lon="6.63268">
        <ele>537.31</ele>
        <time>2015-06-07T08:02:04Z</time>
      </trkpt>
      <trkpt lat="45.98625" lon="6.6327">
        <ele>533.92</ele>
        <time>2015-06-07T08:02:21Z</time>
      </trkpt>
      <trkpt lat="45.98728" lon="6.63252">
        <ele>530.46</ele>
        <time>2015-06-07T08:02:34Z</time>
      </trkpt>
      <trkpt lat="45.98783" lon="6.63243">
        <ele>530.03</ele>
        <time>2015-06-07T08:02:45Z</time>
      </trkpt>
      <trkpt lat="45.98828" lon="6.63233">
        <ele>531.58</ele>
        <time>2015-06-07T08:02:56Z</time>
      </trkpt>
      <trkpt lat="45.98914" lon="6.6322">
        <ele>531.48</ele>
        <time>2015-06-07T08:03:14Z</time>
      </trkpt>
      <trkpt lat="45.98948" lon="6.63214">
        <ele>530.15</ele>
        <time>2015-06-07T08:03:21Z</time>
      </trkpt>
      <trkpt lat="45.9898" lon="6.63203">
        <ele>527.08</ele>
        <time>2015-06-07T08:03:26Z</time>
      </trkpt>
      <trkpt lat="45.99022" lon="6.63187">
        <ele>523.61</ele>
        <time>2015-06-07T08:03:31Z</time>
      </trkpt>
      <trkpt lat="45.99126" lon="6.63151">
        <ele>522.79</ele>
        <time>2015-06-07T08:03:44Z</time>
      </trkpt>
      <trkpt lat="45.99143" lon="6.63148">
        <ele>522.78</ele>
        <time>2015-06-07T08:03:47Z</time>
      </trkpt>
      <trkpt lat="45.99157" lon="6.63147">
        <ele>522.53</ele>
        <time>2015-06-07T08:03:51Z</time>
      </trkpt>
      <trkpt lat="45.99158" lon="6.63143">
        <ele>522.78</ele>
        <time>2015-06-07T08:03:52Z</time>
      </trkpt>
      <trkpt lat="45.99158" lon="6.63139">
        <ele>522.43</ele>
        <time>2015-06-07T08:03:53Z</time>
      </trkpt>
      <trkpt lat="45.99157" lon="6.63117">
        <ele>521.45</ele>
        <time>2015-06-07T08:03:57Z</time>
      </trkpt>
      <trkpt lat="45.99164" lon="6.63098">
        <ele>521.29</ele>
        <time>2015-06-07T08:04:01Z</time>
      </trkpt>
      <trkpt lat="45.9917" lon="6.63097">
        <ele>521.77</ele>
        <time>2015-06-07T08:04:04Z</time>
      </trkpt>
      <trkpt lat="45.99173" lon="6.63097">
        <ele>522.24</ele>
        <time>2015-06-07T08:04:05Z</time>
      </trkpt>
      <trkpt lat="45.99176" lon="6.63096">
        <ele>522.55</ele>
        <time>2015-06-07T08:04:06Z</time>
      </trkpt>
      <trkpt lat="45.9918" lon="6.63095">
        <ele>521.99</ele>
        <time>2015-06-07T08:04:07Z</time>
      </trkpt>
      <trkpt lat="45.99184" lon="6.63095">
        <ele>522.27</ele>
        <time>2015-06-07T08:04:08Z</time>
      </trkpt>
      <trkpt lat="45.99188" lon="6.63094">
        <ele>522.29</ele>
        <time>2015-06-07T08:04:09Z</time>
      </trkpt>
      <trkpt lat="45.99192" lon="6.63094">
        <ele>522.53</ele>
        <time>2015-06-07T08:04:10Z</time>
      </trkpt>
      <trkpt lat="45.99259" lon="6.63088">
        <ele>524.89</ele>
        <time>2015-06-07T08:04:25Z</time>
      </trkpt>
      <trkpt lat="45.99292" lon="6.6308">
        <ele>525.67</ele>
        <time>2015-06-07T08:04:32Z</time>
      </trkpt>
      <trkpt lat="45.99311" lon="6.63077">
        <ele>525.38</ele>
        <time>2015-06-07T08:04:36Z</time>
      </trkpt>
      <trkpt lat="45.99316" lon="6.63075">
        <ele>524.9</ele>
        <time>2015-06-07T08:04:37Z</time>
      </trkpt>
      <trkpt lat="45.99321" lon="6.63074">
        <ele>524.8</ele>
        <time>2015-06-07T08:04:38Z</time>
      </trkpt>
      <trkpt lat="45.99405" lon="6.63056">
        <ele>522.53</ele>
        <time>2015-06-07T08:04:52Z</time>
      </trkpt>
      <trkpt lat="45.99483" lon="6.63037">
        <ele>519.85</ele>
        <time>2015-06-07T08:05:04Z</time>
      </trkpt>
      <trkpt lat="45.99489" lon="6.63038">
        <ele>519.65</ele>
        <time>2015-06-07T08:05:05Z</time>
      </trkpt>
      <trkpt lat="45.99495" lon="6.63039">
        <ele>519.37</ele>
        <time>2015-06-07T08:05:06Z</time>
      </trkpt>
      <trkpt lat="45.995" lon="6.63041">
        <ele>519.28</ele>
        <time>2015-06-07T08:05:07Z</time>
      </trkpt>
      <trkpt lat="45.99504" lon="6.63043">
        <ele>520.02</ele>
        <time>2015-06-07T08:05:08Z</time>
      </trkpt>
      <trkpt lat="45.99509" lon="6.63042">
        <ele>519.37</ele>
        <time>2015-06-07T08:05:09Z</time>
      </trkpt>
      <trkpt lat="45.99512" lon="6.63041">
        <ele>519.65</ele>
        <time>2015-06-07T08:05:10Z</time>
      </trkpt>
      <trkpt lat="45.99518" lon="6.63037">
        <ele>519.11</ele>
        <time>2015-06-07T08:05:12Z</time>
      </trkpt>
      <trkpt lat="45.99518" lon="6.63032">
        <ele>519.19</ele>
        <time>2015-06-07T08:05:13Z</time>
      </trkpt>
      <trkpt lat="45.99518" lon="6.63026">
        <ele>518.83</ele>
        <time>2015-06-07T08:05:14Z</time>
      </trkpt>
      <trkpt lat="45.99515" lon="6.63008">
        <ele>518.89</ele>
        <time>2015-06-07T08:05:17Z</time>
      </trkpt>
      <trkpt lat="45.99514" lon="6.62948">
        <ele>518.5</ele>
        <time>2015-06-07T08:05:25Z</time>
      </trkpt>
      <trkpt lat="45.99516" lon="6.62941">
        <ele>518.72</ele>
        <time>2015-06-07T08:05:26Z</time>
      </trkpt>
      <trkpt lat="45.99521" lon="6.62937">
        <ele>518.54</ele>
        <time>2015-06-07T08:05:27Z</time>
      </trkpt>
      <trkpt lat="45.99526" lon="6.62936">
        <ele>518.81</ele>
        <time>2015-06-07T08:05:28Z</time>
      </trkpt>
      <trkpt lat="45.99531" lon="6.62936">
        <ele>518.69</ele>
        <time>2015-06-07T08:05:29Z</time>
      </trkpt>
      <trkpt lat="45.99537" lon="6.62936">
        <ele>519.04</ele>
        <time>2015-06-07T08:05:30Z</time>
      </trkpt>
      <trkpt lat="45.99626" lon="6.62921">
        <ele>518.24</ele>
        <time>2015-06-07T08:05:45Z</time>
      </trkpt>
      <trkpt lat="45.99749" lon="6.62898">
        <ele>517.81</ele>
        <time>2015-06-07T08:06:04Z</time>
      </trkpt>
      <trkpt lat="45.99846" lon="6.62881">
        <ele>517.04</ele>
        <time>2015-06-07T08:06:19Z</time>
      </trkpt>
      <trkpt lat="45.99996" lon="6.62852">
        <ele>516.05</ele>
        <time>2015-06-07T08:06:43Z</time>
      </trkpt>
      <trkpt lat="46.00153" lon="6.62822">
        <ele>515.22</ele>
        <time>2015-06-07T08:07:07Z</time>
      </trkpt>
      <trkpt lat="46.00311" lon="6.62793">
        <ele>515.19</ele>
        <time>2015-06-07T08:07:31Z</time>
      </trkpt>
      <trkpt lat="46.00477" lon="6.62755">
        <ele>515.56</ele>
        <time>2015-06-07T08:07:57Z</time>
      </trkpt>
      <trkpt lat="46.00582" lon="6.62727">
        <ele>515.76</ele>
        <time>2015-06-07T08:08:14Z</time>
      </trkpt>
      <trkpt lat="46.00719" lon="6.62678">
        <ele>515.28</ele>
        <time>2015-06-07T08:08:36Z</time>
      </trkpt>
      <trkpt lat="46.00858" lon="6.62602">
        <ele>516.05</ele>
        <time>2015-06-07T08:08:58Z</time>
      </trkpt>
      <trkpt lat="46.00967" lon="6.62528">
        <ele>515.28</ele>
        <time>2015-06-07T08:09:18Z</time>
      </trkpt>
      <trkpt lat="46.01046" lon="6.62476">
        <ele>513.02</ele>
        <time>2015-06-07T08:09:31Z</time>
      </trkpt>
      <trkpt lat="46.01158" lon="6.62404">
        <ele>511.39</ele>
        <time>2015-06-07T08:09:51Z</time>
      </trkpt>
      <trkpt lat="46.01163" lon="6.624">
        <ele>511.31</ele>
        <time>2015-06-07T08:09:52Z</time>
      </trkpt>
      <trkpt lat="46.01188" lon="6.62369">
        <ele>512.09</ele>
        <time>2015-06-07T08:10:02Z</time>
      </trkpt>
      <trkpt lat="46.0119" lon="6.62366">
        <ele>511.37</ele>
        <time>2015-06-07T08:10:08Z</time>
      </trkpt>
      <trkpt lat="46.0119" lon="6.62363">
        <ele>511.69</ele>
        <time>2015-06-07T08:10:09Z</time>
      </trkpt>
      <trkpt lat="46.0119" lon="6.62359">
        <ele>511.8</ele>
        <time>2015-06-07T08:10:10Z</time>
      </trkpt>
      <trkpt lat="46.01189" lon="6.62355">
        <ele>511.85</ele>
        <time>2015-06-07T08:10:11Z</time>
      </trkpt>
      <trkpt lat="46.01187" lon="6.6235">
        <ele>512.32</ele>
        <time>2015-06-07T08:10:12Z</time>
      </trkpt>
      <trkpt lat="46.01184" lon="6.6227">
        <ele>513.26</ele>
        <time>2015-06-07T08:10:26Z</time>
      </trkpt>
      <trkpt lat="46.01186" lon="6.62265">
        <ele>513.3</ele>
        <time>2015-06-07T08:10:27Z</time>
      </trkpt>
      <trkpt lat="46.0119" lon="6.62259">
        <ele>512.97</ele>
        <time>2015-06-07T08:10:28Z</time>
      </trkpt>
      <trkpt lat="46.01194" lon="6.62254">
        <ele>512.33</ele>
        <time>2015-06-07T08:10:29Z</time>
      </trkpt>
      <trkpt lat="46.01198" lon="6.6225">
        <ele>512.04</ele>
        <time>2015-06-07T08:10:30Z</time>
      </trkpt>
      <trkpt lat="46.01203" lon="6.62247">
        <ele>511.29</ele>
        <time>2015-06-07T08:10:31Z</time>
      </trkpt>
      <trkpt lat="46.01209" lon="6.62243">
        <ele>511.55</ele>
        <time>2015-06-07T08:10:32Z</time>
      </trkpt>
      <trkpt lat="46.01333" lon="6.6216">
        <ele>510.74</ele>
        <time>2015-06-07T08:10:55Z</time>
      </trkpt>
      <trkpt lat="46.01393" lon="6.62073">
        <ele>510.75</ele>
        <time>2015-06-07T08:11:08Z</time>
      </trkpt>
      <trkpt lat="46.01488" lon="6.6201">
        <ele>510.47</ele>
        <time>2015-06-07T08:11:24Z</time>
      </trkpt>
      <trkpt lat="46.01637" lon="6.61914">
        <ele>509.62</ele>
        <time>2015-06-07T08:11:49Z</time>
      </trkpt>
      <trkpt lat="46.01737" lon="6.61849">
        <ele>509.4</ele>
        <time>2015-06-07T08:12:07Z</time>
      </trkpt>
      <trkpt lat="46.01742" lon="6.61847">
        <ele>510.47</ele>
        <time>2015-06-07T08:12:08Z</time>
      </trkpt>
      <trkpt lat="46.01747" lon="6.61846">
        <ele>509.73</ele>
        <time>2015-06-07T08:12:09Z</time>
      </trkpt>
      <trkpt lat="46.01752" lon="6.61846">
        <ele>509.85</ele>
        <time>2015-06-07T08:12:10Z</time>
      </trkpt>
      <trkpt lat="46.01758" lon="6.61849">
        <ele>509.6</ele>
        <time>2015-06-07T08:12:11Z</time>
      </trkpt>
      <trkpt lat="46.01762" lon="6.61853">
        <ele>509.48</ele>
        <time>2015-06-07T08:12:12Z</time>
      </trkpt>
      <trkpt lat="46.01767" lon="6.61857">
        <ele>509.35</ele>
        <time>2015-06-07T08:12:13Z</time>
      </trkpt>
      <trkpt lat="46.01815" lon="6.61875">
        <ele>509.86</ele>
        <time>2015-06-07T08:12:22Z</time>
      </trkpt>
      <trkpt lat="46.01898" lon="6.61837">
        <ele>510.72</ele>
        <time>2015-06-07T08:12:37Z</time>
      </trkpt>
      <trkpt lat="46.0198" lon="6.618">
        <ele>513.66</ele>
        <time>2015-06-07T08:12:54Z</time>
      </trkpt>
      <trkpt lat="46.02031" lon="6.61824">
        <ele>516.78</ele>
        <time>2015-06-07T08:13:08Z</time>
      </trkpt>
      <trkpt lat="46.02084" lon="6.61887">
        <ele>519</ele>
        <time>2015-06-07T08:13:27Z</time>
      </trkpt>
      <trkpt lat="46.02144" lon="6.61905">
        <ele>517.3</ele>
        <time>2015-06-07T08:13:41Z</time>
      </trkpt>
      <trkpt lat="46.02186" lon="6.61916">
        <ele>515.25</ele>
        <time>2015-06-07T08:13:48Z</time>
      </trkpt>
      <trkpt lat="46.02191" lon="6.61921">
        <ele>514.58</ele>
        <time>2015-06-07T08:13:49Z</time>
      </trkpt>
      <trkpt lat="46.02197" lon="6.61927">
        <ele>514.8</ele>
        <time>2015-06-07T08:13:50Z</time>
      </trkpt>
      <trkpt lat="46.02202" lon="6.61934">
        <ele>514.06</ele>
        <time>2015-06-07T08:13:51Z</time>
      </trkpt>
      <trkpt lat="46.02207" lon="6.61941">
        <ele>513.95</ele>
        <time>2015-06-07T08:13:52Z</time>
      </trkpt>
      <trkpt lat="46.02212" lon="6.61948">
        <ele>513.83</ele>
        <time>2015-06-07T08:13:53Z</time>
      </trkpt>
      <trkpt lat="46.02256" lon="6.62006">
        <ele>516.16</ele>
        <time>2015-06-07T08:14:04Z</time>
      </trkpt>
      <trkpt lat="46.02277" lon="6.62038">
        <ele>518.12</ele>
        <time>2015-06-07T08:14:13Z</time>
      </trkpt>
      <trkpt lat="46.0228" lon="6.6204">
        <ele>518.24</ele>
        <time>2015-06-07T08:14:14Z</time>
      </trkpt>
      <trkpt lat="46.02283" lon="6.62041">
        <ele>518.31</ele>
        <time>2015-06-07T08:14:15Z</time>
      </trkpt>
      <trkpt lat="46.02287" lon="6.6204">
        <ele>518.23</ele>
        <time>2015-06-07T08:14:16Z</time>
      </trkpt>
      <trkpt lat="46.02291" lon="6.62039">
        <ele>518.22</ele>
        <time>2015-06-07T08:14:17Z</time>
      </trkpt>
      <trkpt lat="46.02295" lon="6.62038">
        <ele>518.2</ele>
        <time>2015-06-07T08:14:18Z</time>
      </trkpt>
      <trkpt lat="46.0238" lon="6.62013">
        <ele>516.18</ele>
        <time>2015-06-07T08:14:35Z</time>
      </trkpt>
      <trkpt lat="46.02472" lon="6.61981">
        <ele>512.83</ele>
        <time>2015-06-07T08:14:48Z</time>
      </trkpt>
      <trkpt lat="46.02632" lon="6.61921">
        <ele>510.59</ele>
        <time>2015-06-07T08:15:09Z</time>
      </trkpt>
      <trkpt lat="46.02736" lon="6.6184">
        <ele>508.57</ele>
        <time>2015-06-07T08:15:25Z</time>
      </trkpt>
      <trkpt lat="46.0277" lon="6.61805">
        <ele>508.07</ele>
        <time>2015-06-07T08:15:32Z</time>
      </trkpt>
      <trkpt lat="46.02775" lon="6.61802">
        <ele>508.47</ele>
        <time>2015-06-07T08:15:33Z</time>
      </trkpt>
      <trkpt lat="46.02778" lon="6.618">
        <ele>507.91</ele>
        <time>2015-06-07T08:15:34Z</time>
      </trkpt>
      <trkpt lat="46.02782" lon="6.61799">
        <ele>507.72</ele>
        <time>2015-06-07T08:15:35Z</time>
      </trkpt>
      <trkpt lat="46.02786" lon="6.61798">
        <ele>507.42</ele>
        <time>2015-06-07T08:15:36Z</time>
      </trkpt>
      <trkpt lat="46.0279" lon="6.61798">
        <ele>507.85</ele>
        <time>2015-06-07T08:15:37Z</time>
      </trkpt>
      <trkpt lat="46.02794" lon="6.61798">
        <ele>507.46</ele>
        <time>2015-06-07T08:15:38Z</time>
      </trkpt>
      <trkpt lat="46.02798" lon="6.61798">
        <ele>507.1</ele>
        <time>2015-06-07T08:15:39Z</time>
      </trkpt>
      <trkpt lat="46.02808" lon="6.61797">
        <ele>506.9</ele>
        <time>2015-06-07T08:15:41Z</time>
      </trkpt>
      <trkpt lat="46.02813" lon="6.61798">
        <ele>506.84</ele>
        <time>2015-06-07T08:15:42Z</time>
      </trkpt>
      <trkpt lat="46.02822" lon="6.61801">
        <ele>506.48</ele>
        <time>2015-06-07T08:15:44Z</time>
      </trkpt>
      <trkpt lat="46.02827" lon="6.61803">
        <ele>506.61</ele>
        <time>2015-06-07T08:15:45Z</time>
      </trkpt>
      <trkpt lat="46.0283" lon="6.61806">
        <ele>506.5</ele>
        <time>2015-06-07T08:15:46Z</time>
      </trkpt>
      <trkpt lat="46.02834" lon="6.61808">
        <ele>506.3</ele>
        <time>2015-06-07T08:15:47Z</time>
      </trkpt>
      <trkpt lat="46.02838" lon="6.61809">
        <ele>506.6</ele>
        <time>2015-06-07T08:15:48Z</time>
      </trkpt>
      <trkpt lat="46.02872" lon="6.61808">
        <ele>506.74</ele>
        <time>2015-06-07T08:15:59Z</time>
      </trkpt>
      <trkpt lat="46.02921" lon="6.61807">
        <ele>508</ele>
        <time>2015-06-07T08:16:12Z</time>
      </trkpt>
      <trkpt lat="46.0297" lon="6.61805">
        <ele>507.73</ele>
        <time>2015-06-07T08:16:25Z</time>
      </trkpt>
      <trkpt lat="46.02988" lon="6.618">
        <ele>507.31</ele>
        <time>2015-06-07T08:16:29Z</time>
      </trkpt>
      <trkpt lat="46.02992" lon="6.61799">
        <ele>507.16</ele>
        <time>2015-06-07T08:16:30Z</time>
      </trkpt>
      <trkpt lat="46.03018" lon="6.61796">
        <ele>506.31</ele>
        <time>2015-06-07T08:16:36Z</time>
      </trkpt>
      <trkpt lat="46.03022" lon="6.61796">
        <ele>506.5</ele>
        <time>2015-06-07T08:16:37Z</time>
      </trkpt>
      <trkpt lat="46.0303" lon="6.61796">
        <ele>506.49</ele>
        <time>2015-06-07T08:16:39Z</time>
      </trkpt>
      <trkpt lat="46.03048" lon="6.61798">
        <ele>505.91</ele>
        <time>2015-06-07T08:16:43Z</time>
      </trkpt>
      <trkpt lat="46.03112" lon="6.61784">
        <ele>504.41</ele>
        <time>2015-06-07T08:16:58Z</time>
      </trkpt>
      <trkpt lat="46.03169" lon="6.61795">
        <ele>504.62</ele>
        <time>2015-06-07T08:17:10Z</time>
      </trkpt>
      <trkpt lat="46.03305" lon="6.61835">
        <ele>504.78</ele>
        <time>2015-06-07T08:17:31Z</time>
      </trkpt>
      <trkpt lat="46.03459" lon="6.61867">
        <ele>504.58</ele>
        <time>2015-06-07T08:17:53Z</time>
      </trkpt>
      <trkpt lat="46.03572" lon="6.6186">
        <ele>504.55</ele>
        <time>2015-06-07T08:18:09Z</time>
      </trkpt>
      <trkpt lat="46.03664" lon="6.61792">
        <ele>504.24</ele>
        <time>2015-06-07T08:18:24Z</time>
      </trkpt>
      <trkpt lat="46.03756" lon="6.61653">
        <ele>503.13</ele>
        <time>2015-06-07T08:18:44Z</time>
      </trkpt>
      <trkpt lat="46.03841" lon="6.61488">
        <ele>503.39</ele>
        <time>2015-06-07T08:19:07Z</time>
      </trkpt>
      <trkpt lat="46.03861" lon="6.61403">
        <ele>503.42</ele>
        <time>2015-06-07T08:19:19Z</time>
      </trkpt>
      <trkpt lat="46.03862" lon="6.61396">
        <ele>503.59</ele>
        <time>2015-06-07T08:19:20Z</time>
      </trkpt>
      <trkpt lat="46.03865" lon="6.61389">
        <ele>503.6</ele>
        <time>2015-06-07T08:19:21Z</time>
      </trkpt>
      <trkpt lat="46.03868" lon="6.61383">
        <ele>502.82</ele>
        <time>2015-06-07T08:19:22Z</time>
      </trkpt>
      <trkpt lat="46.03872" lon="6.61377">
        <ele>503.34</ele>
        <time>2015-06-07T08:19:23Z</time>
      </trkpt>
      <trkpt lat="46.03875" lon="6.6137">
        <ele>503.4</ele>
        <time>2015-06-07T08:19:24Z</time>
      </trkpt>
      <trkpt lat="46.03876" lon="6.61363">
        <ele>503.47</ele>
        <time>2015-06-07T08:19:25Z</time>
      </trkpt>
      <trkpt lat="46.03876" lon="6.61356">
        <ele>503.21</ele>
        <time>2015-06-07T08:19:26Z</time>
      </trkpt>
      <trkpt lat="46.03874" lon="6.6135">
        <ele>503.43</ele>
        <time>2015-06-07T08:19:27Z</time>
      </trkpt>
      <trkpt lat="46.0387" lon="6.61345">
        <ele>503.11</ele>
        <time>2015-06-07T08:19:28Z</time>
      </trkpt>
      <trkpt lat="46.03865" lon="6.61343">
        <ele>503.61</ele>
        <time>2015-06-07T08:19:29Z</time>
      </trkpt>
      <trkpt lat="46.0386" lon="6.61343">
        <ele>503.35</ele>
        <time>2015-06-07T08:19:30Z</time>
      </trkpt>
      <trkpt lat="46.03855" lon="6.61345">
        <ele>503.4</ele>
        <time>2015-06-07T08:19:31Z</time>
      </trkpt>
      <trkpt lat="46.03851" lon="6.61347">
        <ele>503.13</ele>
        <time>2015-06-07T08:19:32Z</time>
      </trkpt>
      <trkpt lat="46.03846" lon="6.61348">
        <ele>503.39</ele>
        <time>2015-06-07T08:19:33Z</time>
      </trkpt>
      <trkpt lat="46.03841" lon="6.61348">
        <ele>503.23</ele>
        <time>2015-06-07T08:19:34Z</time>
      </trkpt>
      <trkpt lat="46.03837" lon="6.61345">
        <ele>502.92</ele>
        <time>2015-06-07T08:19:35Z</time>
      </trkpt>
      <trkpt lat="46.03833" lon="6.61341">
        <ele>502.76</ele>
        <time>2015-06-07T08:19:36Z</time>
      </trkpt>
      <trkpt lat="46.0383" lon="6.61335">
        <ele>502.53</ele>
        <time>2015-06-07T08:19:37Z</time>
      </trkpt>
      <trkpt lat="46.03828" lon="6.6133">
        <ele>503.34</ele>
        <time>2015-06-07T08:19:38Z</time>
      </trkpt>
      <trkpt lat="46.03827" lon="6.61324">
        <ele>503.4</ele>
        <time>2015-06-07T08:19:39Z</time>
      </trkpt>
      <trkpt lat="46.03827" lon="6.61319">
        <ele>503.08</ele>
        <time>2015-06-07T08:19:40Z</time>
      </trkpt>
      <trkpt lat="46.03826" lon="6.61314">
        <ele>503.02</ele>
        <time>2015-06-07T08:19:41Z</time>
      </trkpt>
      <trkpt lat="46.03826" lon="6.61311">
        <ele>503</ele>
        <time>2015-06-07T08:19:42Z</time>
      </trkpt>
      <trkpt lat="46.03824" lon="6.61309">
        <ele>503.12</ele>
        <time>2015-06-07T08:19:43Z</time>
      </trkpt>
      <trkpt lat="46.03823" lon="6.61313">
        <ele>503.15</ele>
        <time>2015-06-07T08:19:45Z</time>
      </trkpt>
      <trkpt lat="46.03823" lon="6.61318">
        <ele>503.14</ele>
        <time>2015-06-07T08:19:46Z</time>
      </trkpt>
      <trkpt lat="46.03842" lon="6.61357">
        <ele>503.49</ele>
        <time>2015-06-07T08:19:56Z</time>
      </trkpt>
      <trkpt lat="46.03844" lon="6.61353">
        <ele>503.88</ele>
        <time>2015-06-07T08:19:57Z</time>
      </trkpt>
      <trkpt lat="46.03846" lon="6.61349">
        <ele>504.3</ele>
        <time>2015-06-07T08:19:58Z</time>
      </trkpt>
      <trkpt lat="46.03848" lon="6.61346">
        <ele>503.57</ele>
        <time>2015-06-07T08:19:59Z</time>
      </trkpt>
      <trkpt lat="46.03851" lon="6.61344">
        <ele>504.12</ele>
        <time>2015-06-07T08:20:00Z</time>
      </trkpt>
      <trkpt lat="46.03854" lon="6.61341">
        <ele>503.69</ele>
        <time>2015-06-07T08:20:01Z</time>
      </trkpt>
      <trkpt lat="46.03861" lon="6.61328">
        <ele>503.52</ele>
        <time>2015-06-07T08:20:04Z</time>
      </trkpt>
      <trkpt lat="46.03862" lon="6.61322">
        <ele>503.5</ele>
        <time>2015-06-07T08:20:05Z</time>
      </trkpt>
      <trkpt lat="46.0388" lon="6.61187">
        <ele>503.13</ele>
        <time>2015-06-07T08:20:25Z</time>
      </trkpt>
      <trkpt lat="46.03897" lon="6.61062">
        <ele>502.46</ele>
        <time>2015-06-07T08:20:44Z</time>
      </trkpt>
      <trkpt lat="46.03909" lon="6.60976">
        <ele>502.18</ele>
        <time>2015-06-07T08:21:02Z</time>
      </trkpt>
      <trkpt lat="46.0392" lon="6.60907">
        <ele>502.71</ele>
        <time>2015-06-07T08:21:18Z</time>
      </trkpt>
      <trkpt lat="46.0391" lon="6.60863">
        <ele>501.49</ele>
        <time>2015-06-07T08:21:31Z</time>
      </trkpt>
      <trkpt lat="46.03877" lon="6.60836">
        <ele>500.85</ele>
        <time>2015-06-07T08:21:44Z</time>
      </trkpt>
      <trkpt lat="46.03859" lon="6.60871">
        <ele>501.14</ele>
        <time>2015-06-07T08:21:55Z</time>
      </trkpt>
      <trkpt lat="46.03857" lon="6.60879">
        <ele>501</ele>
        <time>2015-06-07T08:22:04Z</time>
      </trkpt>
      <trkpt lat="46.03857" lon="6.6088">
        <ele>500.96</ele>
        <time>2015-06-07T08:22:05Z</time>
      </trkpt>
      <trkpt lat="46.03849" lon="6.60895">
        <ele>501.48</ele>
        <time>2015-06-07T08:22:13Z</time>
      </trkpt>
      <trkpt lat="46.0381" lon="6.60919">
        <ele>500.21</ele>
        <time>2015-06-07T08:22:25Z</time>
      </trkpt>
      <trkpt lat="46.03789" lon="6.60934">
        <ele>500.24</ele>
        <time>2015-06-07T08:22:31Z</time>
      </trkpt>
      <trkpt lat="46.03786" lon="6.60938">
        <ele>499.84</ele>
        <time>2015-06-07T08:22:32Z</time>
      </trkpt>
      <trkpt lat="46.03783" lon="6.60942">
        <ele>500.14</ele>
        <time>2015-06-07T08:22:33Z</time>
      </trkpt>
      <trkpt lat="46.03781" lon="6.60946">
        <ele>500.36</ele>
        <time>2015-06-07T08:22:34Z</time>
      </trkpt>
      <trkpt lat="46.03779" lon="6.60951">
        <ele>500.47</ele>
        <time>2015-06-07T08:22:35Z</time>
      </trkpt>
      <trkpt lat="46.03777" lon="6.60956">
        <ele>500.22</ele>
        <time>2015-06-07T08:22:36Z</time>
      </trkpt>
      <trkpt lat="46.03775" lon="6.6096">
        <ele>500.66</ele>
        <time>2015-06-07T08:22:37Z</time>
      </trkpt>
      <trkpt lat="46.0375" lon="6.60983">
        <ele>500.04</ele>
        <time>2015-06-07T08:22:46Z</time>
      </trkpt>
      <trkpt lat="46.03729" lon="6.60966">
        <ele>498.35</ele>
        <time>2015-06-07T08:22:55Z</time>
      </trkpt>
      <trkpt lat="46.03728" lon="6.60963">
        <ele>498</ele>
        <time>2015-06-07T08:22:56Z</time>
      </trkpt>
      <trkpt lat="46.03728" lon="6.60959">
        <ele>498.02</ele>
        <time>2015-06-07T08:22:57Z</time>
      </trkpt>
      <trkpt lat="46.03728" lon="6.60956">
        <ele>497.63</ele>
        <time>2015-06-07T08:22:58Z</time>
      </trkpt>
      <trkpt lat="46.03728" lon="6.60953">
        <ele>497.81</ele>
        <time>2015-06-07T08:22:59Z</time>
      </trkpt>
      <trkpt lat="46.03728" lon="6.6095">
        <ele>497.99</ele>
        <time>2015-06-07T08:23:00Z</time>
      </trkpt>
      <trkpt lat="46.03731" lon="6.60916">
        <ele>497.63</ele>
        <time>2015-06-07T08:23:12Z</time>
      </trkpt>
      <trkpt lat="46.03731" lon="6.60913">
        <ele>497.62</ele>
        <time>2015-06-07T08:23:13Z</time>
      </trkpt>
      <trkpt lat="46.03734" lon="6.60897">
        <ele>499.54</ele>
        <time>2015-06-07T08:23:22Z</time>
      </trkpt>
      <trkpt lat="46.03743" lon="6.60882">
        <ele>502.5</ele>
        <time>2015-06-07T08:23:37Z</time>
      </trkpt>
      <trkpt lat="46.03745" lon="6.60879">
        <ele>502.12</ele>
        <time>2015-06-07T08:23:46Z</time>
      </trkpt>
      <trkpt lat="46.03746" lon="6.60878">
        <ele>502.22</ele>
        <time>2015-06-07T08:23:47Z</time>
      </trkpt>
      <trkpt lat="46.03748" lon="6.60875">
        <ele>502.22</ele>
        <time>2015-06-07T08:23:48Z</time>
      </trkpt>
      <trkpt lat="46.0375" lon="6.60871">
        <ele>501.04</ele>
        <time>2015-06-07T08:23:49Z</time>
      </trkpt>
      <trkpt lat="46.03752" lon="6.60866">
        <ele>499.86</ele>
        <time>2015-06-07T08:23:50Z</time>
      </trkpt>
      <trkpt lat="46.03753" lon="6.60859">
        <ele>498.77</ele>
        <time>2015-06-07T08:23:51Z</time>
      </trkpt>
      <trkpt lat="46.03753" lon="6.60851">
        <ele>499.07</ele>
        <time>2015-06-07T08:23:52Z</time>
      </trkpt>
      <trkpt lat="46.03753" lon="6.60843">
        <ele>498.6</ele>
        <time>2015-06-07T08:23:53Z</time>
      </trkpt>
      <trkpt lat="46.03753" lon="6.60836">
        <ele>499</ele>
        <time>2015-06-07T08:23:54Z</time>
      </trkpt>
      <trkpt lat="46.03754" lon="6.60823">
        <ele>498.6</ele>
        <time>2015-06-07T08:23:56Z</time>
      </trkpt>
      <trkpt lat="46.03755" lon="6.60816">
        <ele>498.82</ele>
        <time>2015-06-07T08:23:57Z</time>
      </trkpt>
      <trkpt lat="46.03757" lon="6.60787">
        <ele>497.89</ele>
        <time>2015-06-07T08:24:01Z</time>
      </trkpt>
      <trkpt lat="46.03758" lon="6.60781">
        <ele>498.43</ele>
        <time>2015-06-07T08:24:02Z</time>
      </trkpt>
      <trkpt lat="46.0376" lon="6.60776">
        <ele>498.63</ele>
        <time>2015-06-07T08:24:03Z</time>
      </trkpt>
      <trkpt lat="46.03761" lon="6.60771">
        <ele>498.35</ele>
        <time>2015-06-07T08:24:04Z</time>
      </trkpt>
      <trkpt lat="46.03763" lon="6.60767">
        <ele>498.67</ele>
        <time>2015-06-07T08:24:05Z</time>
      </trkpt>
      <trkpt lat="46.03766" lon="6.60752">
        <ele>498.97</ele>
        <time>2015-06-07T08:24:14Z</time>
      </trkpt>
      <trkpt lat="46.03766" lon="6.60751">
        <ele>498.19</ele>
        <time>2015-06-07T08:24:33Z</time>
      </trkpt>
      <trkpt lat="46.03768" lon="6.6075">
        <ele>498.33</ele>
        <time>2015-06-07T08:25:22Z</time>
      </trkpt>
      <trkpt lat="46.03766" lon="6.60747">
        <ele>498.42</ele>
        <time>2015-06-07T08:26:17Z</time>
      </trkpt>
      <trkpt lat="46.03767" lon="6.60751">
        <ele>498.84</ele>
        <time>2015-06-07T08:27:06Z</time>
      </trkpt>
      <trkpt lat="46.03765" lon="6.60751">
        <ele>498.06</ele>
        <time>2015-06-07T08:27:56Z</time>
      </trkpt>
      <trkpt lat="46.03764" lon="6.6074">
        <ele>498.73</ele>
        <time>2015-06-07T08:28:26Z</time>
      </trkpt>
      <trkpt lat="46.03763" lon="6.60734">
        <ele>498.94</ele>
        <time>2015-06-07T08:28:28Z</time>
      </trkpt>
      <trkpt lat="46.03763" lon="6.60731">
        <ele>498.77</ele>
        <time>2015-06-07T08:28:29Z</time>
      </trkpt>
      <trkpt lat="46.03763" lon="6.60728">
        <ele>499</ele>
        <time>2015-06-07T08:28:30Z</time>
      </trkpt>
      <trkpt lat="46.03771" lon="6.60691">
        <ele>499.28</ele>
        <time>2015-06-07T08:28:41Z</time>
      </trkpt>
      <trkpt lat="46.03799" lon="6.60661">
        <ele>499.34</ele>
        <time>2015-06-07T08:28:53Z</time>
      </trkpt>
      <trkpt lat="46.03837" lon="6.60639">
        <ele>498.71</ele>
        <time>2015-06-07T08:29:04Z</time>
      </trkpt>
      <trkpt lat="46.03841" lon="6.60636">
        <ele>498.77</ele>
        <time>2015-06-07T08:29:05Z</time>
      </trkpt>
      <trkpt lat="46.03869" lon="6.60609">
        <ele>498.82</ele>
        <time>2015-06-07T08:29:13Z</time>
      </trkpt>
      <trkpt lat="46.03903" lon="6.60565">
        <ele>500.11</ele>
        <time>2015-06-07T08:29:25Z</time>
      </trkpt>
      <trkpt lat="46.03909" lon="6.60559">
        <ele>500.13</ele>
        <time>2015-06-07T08:29:27Z</time>
      </trkpt>
      <trkpt lat="46.03913" lon="6.60559">
        <ele>500.11</ele>
        <time>2015-06-07T08:29:28Z</time>
      </trkpt>
      <trkpt lat="46.03917" lon="6.60559">
        <ele>499.84</ele>
        <time>2015-06-07T08:29:29Z</time>
      </trkpt>
      <trkpt lat="46.0392" lon="6.60561">
        <ele>499.96</ele>
        <time>2015-06-07T08:29:30Z</time>
      </trkpt>
      <trkpt lat="46.03924" lon="6.60563">
        <ele>499.86</ele>
        <time>2015-06-07T08:29:31Z</time>
      </trkpt>
      <trkpt lat="46.03958" lon="6.60583">
        <ele>499.45</ele>
        <time>2015-06-07T08:29:41Z</time>
      </trkpt>
      <trkpt lat="46.03992" lon="6.6061">
        <ele>499.87</ele>
        <time>2015-06-07T08:29:51Z</time>
      </trkpt>
      <trkpt lat="46.04026" lon="6.60645">
        <ele>499.32</ele>
        <time>2015-06-07T08:30:02Z</time>
      </trkpt>
      <trkpt lat="46.04029" lon="6.60649">
        <ele>499.72</ele>
        <time>2015-06-07T08:30:03Z</time>
      </trkpt>
      <trkpt lat="46.04081" lon="6.60688">
        <ele>499.78</ele>
        <time>2015-06-07T08:30:17Z</time>
      </trkpt>
      <trkpt lat="46.04111" lon="6.60679">
        <ele>499.99</ele>
        <time>2015-06-07T08:30:24Z</time>
      </trkpt>
      <trkpt lat="46.04115" lon="6.60677">
        <ele>499.77</ele>
        <time>2015-06-07T08:30:25Z</time>
      </trkpt>
      <trkpt lat="46.0412" lon="6.60675">
        <ele>499.54</ele>
        <time>2015-06-07T08:30:26Z</time>
      </trkpt>
      <trkpt lat="46.04226" lon="6.60632">
        <ele>498.29</ele>
        <time>2015-06-07T08:30:49Z</time>
      </trkpt>
      <trkpt lat="46.04308" lon="6.60579">
        <ele>497.97</ele>
        <time>2015-06-07T08:31:09Z</time>
      </trkpt>
      <trkpt lat="46.04403" lon="6.60487">
        <ele>498.04</ele>
        <time>2015-06-07T08:31:33Z</time>
      </trkpt>
      <trkpt lat="46.04459" lon="6.60412">
        <ele>498.51</ele>
        <time>2015-06-07T08:31:49Z</time>
      </trkpt>
      <trkpt lat="46.04515" lon="6.60283">
        <ele>498.06</ele>
        <time>2015-06-07T08:32:10Z</time>
      </trkpt>
      <trkpt lat="46.04524" lon="6.6024">
        <ele>496.72</ele>
        <time>2015-06-07T08:32:16Z</time>
      </trkpt>
      <trkpt lat="46.04553" lon="6.60072">
        <ele>496.81</ele>
        <time>2015-06-07T08:32:38Z</time>
      </trkpt>
      <trkpt lat="46.0456" lon="6.60036">
        <ele>496.28</ele>
        <time>2015-06-07T08:32:43Z</time>
      </trkpt>
      <trkpt lat="46.04578" lon="6.59933">
        <ele>497.16</ele>
        <time>2015-06-07T08:32:57Z</time>
      </trkpt>
      <trkpt lat="46.04591" lon="6.59822">
        <ele>496.4</ele>
        <time>2015-06-07T08:33:12Z</time>
      </trkpt>
      <trkpt lat="46.04609" lon="6.59696">
        <ele>495.58</ele>
        <time>2015-06-07T08:33:28Z</time>
      </trkpt>
      <trkpt lat="46.04633" lon="6.59547">
        <ele>495.19</ele>
        <time>2015-06-07T08:33:48Z</time>
      </trkpt>
      <trkpt lat="46.04645" lon="6.59485">
        <ele>495.62</ele>
        <time>2015-06-07T08:33:57Z</time>
      </trkpt>
      <trkpt lat="46.04645" lon="6.59478">
        <ele>495.53</ele>
        <time>2015-06-07T08:33:58Z</time>
      </trkpt>
      <trkpt lat="46.04646" lon="6.59463">
        <ele>495.07</ele>
        <time>2015-06-07T08:34:00Z</time>
      </trkpt>
      <trkpt lat="46.04664" lon="6.59335">
        <ele>494.91</ele>
        <time>2015-06-07T08:34:17Z</time>
      </trkpt>
      <trkpt lat="46.04679" lon="6.59258">
        <ele>494.74</ele>
        <time>2015-06-07T08:34:28Z</time>
      </trkpt>
      <trkpt lat="46.0468" lon="6.59253">
        <ele>495.18</ele>
        <time>2015-06-07T08:34:29Z</time>
      </trkpt>
      <trkpt lat="46.04681" lon="6.59246">
        <ele>494.7</ele>
        <time>2015-06-07T08:34:30Z</time>
      </trkpt>
      <trkpt lat="46.04683" lon="6.59232">
        <ele>494.83</ele>
        <time>2015-06-07T08:34:32Z</time>
      </trkpt>
      <trkpt lat="46.04686" lon="6.59205">
        <ele>494.62</ele>
        <time>2015-06-07T08:34:36Z</time>
      </trkpt>
      <trkpt lat="46.04686" lon="6.59198">
        <ele>494.79</ele>
        <time>2015-06-07T08:34:37Z</time>
      </trkpt>
      <trkpt lat="46.04687" lon="6.59191">
        <ele>494.73</ele>
        <time>2015-06-07T08:34:38Z</time>
      </trkpt>
      <trkpt lat="46.04688" lon="6.59184">
        <ele>494.44</ele>
        <time>2015-06-07T08:34:39Z</time>
      </trkpt>
      <trkpt lat="46.04689" lon="6.59177">
        <ele>494.86</ele>
        <time>2015-06-07T08:34:40Z</time>
      </trkpt>
      <trkpt lat="46.04717" lon="6.59063">
        <ele>493.5</ele>
        <time>2015-06-07T08:34:56Z</time>
      </trkpt>
      <trkpt lat="46.04778" lon="6.5898">
        <ele>494.84</ele>
        <time>2015-06-07T08:35:12Z</time>
      </trkpt>
      <trkpt lat="46.04781" lon="6.58975">
        <ele>494.57</ele>
        <time>2015-06-07T08:35:13Z</time>
      </trkpt>
      <trkpt lat="46.04799" lon="6.58932">
        <ele>494.33</ele>
        <time>2015-06-07T08:35:20Z</time>
      </trkpt>
      <trkpt lat="46.04835" lon="6.58849">
        <ele>494.06</ele>
        <time>2015-06-07T08:35:33Z</time>
      </trkpt>
      <trkpt lat="46.04838" lon="6.58842">
        <ele>493.98</ele>
        <time>2015-06-07T08:35:34Z</time>
      </trkpt>
      <trkpt lat="46.04847" lon="6.58824">
        <ele>494.51</ele>
        <time>2015-06-07T08:35:37Z</time>
      </trkpt>
      <trkpt lat="46.04883" lon="6.58738">
        <ele>494.74</ele>
        <time>2015-06-07T08:35:50Z</time>
      </trkpt>
      <trkpt lat="46.04886" lon="6.58734">
        <ele>495.27</ele>
        <time>2015-06-07T08:35:51Z</time>
      </trkpt>
      <trkpt lat="46.04893" lon="6.5872">
        <ele>495.36</ele>
        <time>2015-06-07T08:35:54Z</time>
      </trkpt>
      <trkpt lat="46.04895" lon="6.58715">
        <ele>494.65</ele>
        <time>2015-06-07T08:35:55Z</time>
      </trkpt>
      <trkpt lat="46.04897" lon="6.58708">
        <ele>494.53</ele>
        <time>2015-06-07T08:35:56Z</time>
      </trkpt>
      <trkpt lat="46.04902" lon="6.58696">
        <ele>493.81</ele>
        <time>2015-06-07T08:35:58Z</time>
      </trkpt>
      <trkpt lat="46.04938" lon="6.58621">
        <ele>494.46</ele>
        <time>2015-06-07T08:36:12Z</time>
      </trkpt>
      <trkpt lat="46.0494" lon="6.58616">
        <ele>494.26</ele>
        <time>2015-06-07T08:36:13Z</time>
      </trkpt>
      <trkpt lat="46.04942" lon="6.58611">
        <ele>494.07</ele>
        <time>2015-06-07T08:36:14Z</time>
      </trkpt>
      <trkpt lat="46.05002" lon="6.58494">
        <ele>493.06</ele>
        <time>2015-06-07T08:36:34Z</time>
      </trkpt>
      <trkpt lat="46.05056" lon="6.58399">
        <ele>492.57</ele>
        <time>2015-06-07T08:36:50Z</time>
      </trkpt>
      <trkpt lat="46.05063" lon="6.58388">
        <ele>492.3</ele>
        <time>2015-06-07T08:36:52Z</time>
      </trkpt>
      <trkpt lat="46.05066" lon="6.58384">
        <ele>492.06</ele>
        <time>2015-06-07T08:36:53Z</time>
      </trkpt>
      <trkpt lat="46.05069" lon="6.5838">
        <ele>492.17</ele>
        <time>2015-06-07T08:36:54Z</time>
      </trkpt>
      <trkpt lat="46.05101" lon="6.58336">
        <ele>491.86</ele>
        <time>2015-06-07T08:37:07Z</time>
      </trkpt>
      <trkpt lat="46.05134" lon="6.58297">
        <ele>492.18</ele>
        <time>2015-06-07T08:37:17Z</time>
      </trkpt>
      <trkpt lat="46.05171" lon="6.58256">
        <ele>491.99</ele>
        <time>2015-06-07T08:37:27Z</time>
      </trkpt>
      <trkpt lat="46.05253" lon="6.58188">
        <ele>492.04</ele>
        <time>2015-06-07T08:37:47Z</time>
      </trkpt>
      <trkpt lat="46.0532" lon="6.58134">
        <ele>491.67</ele>
        <time>2015-06-07T08:38:03Z</time>
      </trkpt>
      <trkpt lat="46.05358" lon="6.58099">
        <ele>491.82</ele>
        <time>2015-06-07T08:38:13Z</time>
      </trkpt>
      <trkpt lat="46.05362" lon="6.58096">
        <ele>491.6</ele>
        <time>2015-06-07T08:38:14Z</time>
      </trkpt>
      <trkpt lat="46.054" lon="6.58074">
        <ele>491.41</ele>
        <time>2015-06-07T08:38:27Z</time>
      </trkpt>
      <trkpt lat="46.05403" lon="6.58071">
        <ele>491.35</ele>
        <time>2015-06-07T08:38:29Z</time>
      </trkpt>
      <trkpt lat="46.05405" lon="6.58071">
        <ele>491.32</ele>
        <time>2015-06-07T08:38:30Z</time>
      </trkpt>
      <trkpt lat="46.05407" lon="6.58071">
        <ele>490.75</ele>
        <time>2015-06-07T08:38:31Z</time>
      </trkpt>
      <trkpt lat="46.05408" lon="6.58071">
        <ele>490.89</ele>
        <time>2015-06-07T08:38:32Z</time>
      </trkpt>
      <trkpt lat="46.05412" lon="6.58072">
        <ele>491.03</ele>
        <time>2015-06-07T08:38:36Z</time>
      </trkpt>
      <trkpt lat="46.05419" lon="6.58066">
        <ele>491.28</ele>
        <time>2015-06-07T08:38:45Z</time>
      </trkpt>
      <trkpt lat="46.0542" lon="6.58056">
        <ele>491.49</ele>
        <time>2015-06-07T08:38:50Z</time>
      </trkpt>
      <trkpt lat="46.05421" lon="6.58055">
        <ele>491.36</ele>
        <time>2015-06-07T08:38:51Z</time>
      </trkpt>
      <trkpt lat="46.05424" lon="6.58056">
        <ele>491.48</ele>
        <time>2015-06-07T08:38:52Z</time>
      </trkpt>
      <trkpt lat="46.05427" lon="6.58059">
        <ele>491.2</ele>
        <time>2015-06-07T08:38:53Z</time>
      </trkpt>
      <trkpt lat="46.0543" lon="6.58061">
        <ele>491.42</ele>
        <time>2015-06-07T08:38:54Z</time>
      </trkpt>
      <trkpt lat="46.05433" lon="6.58063">
        <ele>491.88</ele>
        <time>2015-06-07T08:38:55Z</time>
      </trkpt>
      <trkpt lat="46.05436" lon="6.58066">
        <ele>491.76</ele>
        <time>2015-06-07T08:38:56Z</time>
      </trkpt>
      <trkpt lat="46.05439" lon="6.5807">
        <ele>491.55</ele>
        <time>2015-06-07T08:38:57Z</time>
      </trkpt>
      <trkpt lat="46.0544" lon="6.58075">
        <ele>491.83</ele>
        <time>2015-06-07T08:38:58Z</time>
      </trkpt>
      <trkpt lat="46.05442" lon="6.5808">
        <ele>492.21</ele>
        <time>2015-06-07T08:38:59Z</time>
      </trkpt>
      <trkpt lat="46.05443" lon="6.58085">
        <ele>492.12</ele>
        <time>2015-06-07T08:39:00Z</time>
      </trkpt>
      <trkpt lat="46.05444" lon="6.5809">
        <ele>492.01</ele>
        <time>2015-06-07T08:39:01Z</time>
      </trkpt>
      <trkpt lat="46.05444" lon="6.58099">
        <ele>492.41</ele>
        <time>2015-06-07T08:39:03Z</time>
      </trkpt>
      <trkpt lat="46.05442" lon="6.58103">
        <ele>492.9</ele>
        <time>2015-06-07T08:39:04Z</time>
      </trkpt>
      <trkpt lat="46.05441" lon="6.58105">
        <ele>493.52</ele>
        <time>2015-06-07T08:39:05Z</time>
      </trkpt>
      <trkpt lat="46.05439" lon="6.58107">
        <ele>493.6</ele>
        <time>2015-06-07T08:39:06Z</time>
      </trkpt>
      <trkpt lat="46.05437" lon="6.58108">
        <ele>493.39</ele>
        <time>2015-06-07T08:39:07Z</time>
      </trkpt>
      <trkpt lat="46.05435" lon="6.58109">
        <ele>493.32</ele>
        <time>2015-06-07T08:39:08Z</time>
      </trkpt>
      <trkpt lat="46.05432" lon="6.58109">
        <ele>493.71</ele>
        <time>2015-06-07T08:39:09Z</time>
      </trkpt>
      <trkpt lat="46.0543" lon="6.5811">
        <ele>493.59</ele>
        <time>2015-06-07T08:39:10Z</time>
      </trkpt>
      <trkpt lat="46.05427" lon="6.58112">
        <ele>494.3</ele>
        <time>2015-06-07T08:39:11Z</time>
      </trkpt>
      <trkpt lat="46.05425" lon="6.58114">
        <ele>493.81</ele>
        <time>2015-06-07T08:39:12Z</time>
      </trkpt>
      <trkpt lat="46.05423" lon="6.58116">
        <ele>493.36</ele>
        <time>2015-06-07T08:39:13Z</time>
      </trkpt>
      <trkpt lat="46.05421" lon="6.5812">
        <ele>494.15</ele>
        <time>2015-06-07T08:39:14Z</time>
      </trkpt>
      <trkpt lat="46.0542" lon="6.58124">
        <ele>493.92</ele>
        <time>2015-06-07T08:39:15Z</time>
      </trkpt>
      <trkpt lat="46.05419" lon="6.58128">
        <ele>494.08</ele>
        <time>2015-06-07T08:39:16Z</time>
      </trkpt>
      <trkpt lat="46.05419" lon="6.58133">
        <ele>493.5</ele>
        <time>2015-06-07T08:39:17Z</time>
      </trkpt>
      <trkpt lat="46.05419" lon="6.58138">
        <ele>493.27</ele>
        <time>2015-06-07T08:39:18Z</time>
      </trkpt>
      <trkpt lat="46.0542" lon="6.58144">
        <ele>493.45</ele>
        <time>2015-06-07T08:39:19Z</time>
      </trkpt>
      <trkpt lat="46.0542" lon="6.5815">
        <ele>493.01</ele>
        <time>2015-06-07T08:39:20Z</time>
      </trkpt>
      <trkpt lat="46.05424" lon="6.58168">
        <ele>492.22</ele>
        <time>2015-06-07T08:39:23Z</time>
      </trkpt>
      <trkpt lat="46.05426" lon="6.58175">
        <ele>491.85</ele>
        <time>2015-06-07T08:39:24Z</time>
      </trkpt>
      <trkpt lat="46.05428" lon="6.58181">
        <ele>491.93</ele>
        <time>2015-06-07T08:39:25Z</time>
      </trkpt>
      <trkpt lat="46.05431" lon="6.58187">
        <ele>492.11</ele>
        <time>2015-06-07T08:39:26Z</time>
      </trkpt>
      <trkpt lat="46.05434" lon="6.58191">
        <ele>492.55</ele>
        <time>2015-06-07T08:39:27Z</time>
      </trkpt>
      <trkpt lat="46.05437" lon="6.58194">
        <ele>492.88</ele>
        <time>2015-06-07T08:39:28Z</time>
      </trkpt>
      <trkpt lat="46.05441" lon="6.58196">
        <ele>492.29</ele>
        <time>2015-06-07T08:39:29Z</time>
      </trkpt>
      <trkpt lat="46.05445" lon="6.58197">
        <ele>492.23</ele>
        <time>2015-06-07T08:39:30Z</time>
      </trkpt>
      <trkpt lat="46.05449" lon="6.58198">
        <ele>492.12</ele>
        <time>2015-06-07T08:39:31Z</time>
      </trkpt>
      <trkpt lat="46.05482" lon="6.58206">
        <ele>492.73</ele>
        <time>2015-06-07T08:39:39Z</time>
      </trkpt>
      <trkpt lat="46.05486" lon="6.58204">
        <ele>492.42</ele>
        <time>2015-06-07T08:39:40Z</time>
      </trkpt>
      <trkpt lat="46.0549" lon="6.58201">
        <ele>492.1</ele>
        <time>2015-06-07T08:39:41Z</time>
      </trkpt>
      <trkpt lat="46.05494" lon="6.58198">
        <ele>492.16</ele>
        <time>2015-06-07T08:39:42Z</time>
      </trkpt>
      <trkpt lat="46.05498" lon="6.58194">
        <ele>492.19</ele>
        <time>2015-06-07T08:39:43Z</time>
      </trkpt>
      <trkpt lat="46.0554" lon="6.58162">
        <ele>492.08</ele>
        <time>2015-06-07T08:39:53Z</time>
      </trkpt>
      <trkpt lat="46.0556" lon="6.5815">
        <ele>492.56</ele>
        <time>2015-06-07T08:39:58Z</time>
      </trkpt>
      <trkpt lat="46.05591" lon="6.58133">
        <ele>492.99</ele>
        <time>2015-06-07T08:40:10Z</time>
      </trkpt>
      <trkpt lat="46.05615" lon="6.5812">
        <ele>493.3</ele>
        <time>2015-06-07T08:40:21Z</time>
      </trkpt>
      <trkpt lat="46.05651" lon="6.58129">
        <ele>492.88</ele>
        <time>2015-06-07T08:40:34Z</time>
      </trkpt>
      <trkpt lat="46.05676" lon="6.58125">
        <ele>492.89</ele>
        <time>2015-06-07T08:40:45Z</time>
      </trkpt>
      <trkpt lat="46.05707" lon="6.58114">
        <ele>492.12</ele>
        <time>2015-06-07T08:40:54Z</time>
      </trkpt>
      <trkpt lat="46.05743" lon="6.58105">
        <ele>492.4</ele>
        <time>2015-06-07T08:41:05Z</time>
      </trkpt>
      <trkpt lat="46.05753" lon="6.58098">
        <ele>491.91</ele>
        <time>2015-06-07T08:41:09Z</time>
      </trkpt>
      <trkpt lat="46.05758" lon="6.58088">
        <ele>491.99</ele>
        <time>2015-06-07T08:41:12Z</time>
      </trkpt>
      <trkpt lat="46.05759" lon="6.58083">
        <ele>492.15</ele>
        <time>2015-06-07T08:41:13Z</time>
      </trkpt>
      <trkpt lat="46.05759" lon="6.58078">
        <ele>491.8</ele>
        <time>2015-06-07T08:41:14Z</time>
      </trkpt>
      <trkpt lat="46.05757" lon="6.58074">
        <ele>492</ele>
        <time>2015-06-07T08:41:15Z</time>
      </trkpt>
      <trkpt lat="46.05756" lon="6.5807">
        <ele>491.9</ele>
        <time>2015-06-07T08:41:16Z</time>
      </trkpt>
      <trkpt lat="46.05753" lon="6.58066">
        <ele>491</ele>
        <time>2015-06-07T08:41:17Z</time>
      </trkpt>
      <trkpt lat="46.0575" lon="6.58063">
        <ele>491.42</ele>
        <time>2015-06-07T08:41:18Z</time>
      </trkpt>
      <trkpt lat="46.05746" lon="6.58059">
        <ele>490.85</ele>
        <time>2015-06-07T08:41:19Z</time>
      </trkpt>
      <trkpt lat="46.05728" lon="6.5804">
        <ele>489.17</ele>
        <time>2015-06-07T08:41:24Z</time>
      </trkpt>
      <trkpt lat="46.05726" lon="6.58033">
        <ele>489.75</ele>
        <time>2015-06-07T08:41:25Z</time>
      </trkpt>
      <trkpt lat="46.05718" lon="6.58022">
        <ele>489.74</ele>
        <time>2015-06-07T08:41:27Z</time>
      </trkpt>
      <trkpt lat="46.05714" lon="6.58018">
        <ele>489.55</ele>
        <time>2015-06-07T08:41:28Z</time>
      </trkpt>
      <trkpt lat="46.05698" lon="6.58004">
        <ele>489.05</ele>
        <time>2015-06-07T08:41:32Z</time>
      </trkpt>
      <trkpt lat="46.05698" lon="6.57998">
        <ele>489.19</ele>
        <time>2015-06-07T08:41:33Z</time>
      </trkpt>
      <trkpt lat="46.05697" lon="6.57993">
        <ele>489.03</ele>
        <time>2015-06-07T08:41:34Z</time>
      </trkpt>
      <trkpt lat="46.05697" lon="6.57988">
        <ele>489.12</ele>
        <time>2015-06-07T08:41:35Z</time>
      </trkpt>
      <trkpt lat="46.05696" lon="6.57985">
        <ele>488.77</ele>
        <time>2015-06-07T08:41:36Z</time>
      </trkpt>
      <trkpt lat="46.05693" lon="6.57983">
        <ele>489.28</ele>
        <time>2015-06-07T08:41:37Z</time>
      </trkpt>
      <trkpt lat="46.0569" lon="6.57982">
        <ele>489.05</ele>
        <time>2015-06-07T08:41:38Z</time>
      </trkpt>
      <trkpt lat="46.05689" lon="6.57982">
        <ele>489.29</ele>
        <time>2015-06-07T08:41:39Z</time>
      </trkpt>
      <trkpt lat="46.05687" lon="6.57986">
        <ele>489.57</ele>
        <time>2015-06-07T08:41:41Z</time>
      </trkpt>
      <trkpt lat="46.05688" lon="6.57987">
        <ele>489.97</ele>
        <time>2015-06-07T08:41:42Z</time>
      </trkpt>
      <trkpt lat="46.05689" lon="6.57984">
        <ele>489.49</ele>
        <time>2015-06-07T08:41:43Z</time>
      </trkpt>
      <trkpt lat="46.0569" lon="6.57981">
        <ele>489.6</ele>
        <time>2015-06-07T08:41:44Z</time>
      </trkpt>
      <trkpt lat="46.0569" lon="6.57976">
        <ele>489.23</ele>
        <time>2015-06-07T08:41:45Z</time>
      </trkpt>
      <trkpt lat="46.05689" lon="6.57973">
        <ele>489.29</ele>
        <time>2015-06-07T08:41:46Z</time>
      </trkpt>
      <trkpt lat="46.05688" lon="6.57969">
        <ele>489.44</ele>
        <time>2015-06-07T08:41:47Z</time>
      </trkpt>
      <trkpt lat="46.05685" lon="6.57967">
        <ele>489.37</ele>
        <time>2015-06-07T08:41:48Z</time>
      </trkpt>
      <trkpt lat="46.05683" lon="6.57966">
        <ele>489.86</ele>
        <time>2015-06-07T08:41:49Z</time>
      </trkpt>
      <trkpt lat="46.05663" lon="6.57969">
        <ele>490.37</ele>
        <time>2015-06-07T08:41:56Z</time>
      </trkpt>
      <trkpt lat="46.05662" lon="6.57974">
        <ele>490.76</ele>
        <time>2015-06-07T08:41:57Z</time>
      </trkpt>
      <trkpt lat="46.05662" lon="6.57978">
        <ele>490.91</ele>
        <time>2015-06-07T08:41:58Z</time>
      </trkpt>
      <trkpt lat="46.05666" lon="6.58004">
        <ele>492.15</ele>
        <time>2015-06-07T08:42:04Z</time>
      </trkpt>
      <trkpt lat="46.05664" lon="6.58006">
        <ele>492.34</ele>
        <time>2015-06-07T08:42:05Z</time>
      </trkpt>
      <trkpt lat="46.05661" lon="6.58005">
        <ele>492.2</ele>
        <time>2015-06-07T08:42:06Z</time>
      </trkpt>
      <trkpt lat="46.05659" lon="6.58002">
        <ele>491.9</ele>
        <time>2015-06-07T08:42:07Z</time>
      </trkpt>
      <trkpt lat="46.05658" lon="6.57998">
        <ele>492.48</ele>
        <time>2015-06-07T08:42:08Z</time>
      </trkpt>
      <trkpt lat="46.05656" lon="6.57994">
        <ele>492.89</ele>
        <time>2015-06-07T08:42:09Z</time>
      </trkpt>
      <trkpt lat="46.05655" lon="6.5799">
        <ele>492.69</ele>
        <time>2015-06-07T08:42:10Z</time>
      </trkpt>
      <trkpt lat="46.05644" lon="6.57923">
        <ele>494.25</ele>
        <time>2015-06-07T08:42:26Z</time>
      </trkpt>
      <trkpt lat="46.0565" lon="6.57902">
        <ele>492.83</ele>
        <time>2015-06-07T08:42:29Z</time>
      </trkpt>
      <trkpt lat="46.05653" lon="6.57895">
        <ele>492.14</ele>
        <time>2015-06-07T08:42:30Z</time>
      </trkpt>
      <trkpt lat="46.05657" lon="6.57889">
        <ele>491.59</ele>
        <time>2015-06-07T08:42:31Z</time>
      </trkpt>
      <trkpt lat="46.05662" lon="6.57883">
        <ele>490.77</ele>
        <time>2015-06-07T08:42:32Z</time>
      </trkpt>
      <trkpt lat="46.05667" lon="6.57877">
        <ele>490.22</ele>
        <time>2015-06-07T08:42:33Z</time>
      </trkpt>
      <trkpt lat="46.05672" lon="6.57872">
        <ele>489.06</ele>
        <time>2015-06-07T08:42:34Z</time>
      </trkpt>
      <trkpt lat="46.05677" lon="6.57867">
        <ele>489.66</ele>
        <time>2015-06-07T08:42:35Z</time>
      </trkpt>
      <trkpt lat="46.05682" lon="6.57862">
        <ele>489.2</ele>
        <time>2015-06-07T08:42:36Z</time>
      </trkpt>
      <trkpt lat="46.05685" lon="6.57855">
        <ele>489.35</ele>
        <time>2015-06-07T08:42:37Z</time>
      </trkpt>
      <trkpt lat="46.05687" lon="6.57849">
        <ele>489.15</ele>
        <time>2015-06-07T08:42:38Z</time>
      </trkpt>
      <trkpt lat="46.0569" lon="6.57843">
        <ele>489.26</ele>
        <time>2015-06-07T08:42:39Z</time>
      </trkpt>
      <trkpt lat="46.05694" lon="6.57838">
        <ele>488.87</ele>
        <time>2015-06-07T08:42:40Z</time>
      </trkpt>
      <trkpt lat="46.05711" lon="6.57825">
        <ele>488.11</ele>
        <time>2015-06-07T08:42:44Z</time>
      </trkpt>
      <trkpt lat="46.05715" lon="6.5782">
        <ele>487.83</ele>
        <time>2015-06-07T08:42:45Z</time>
      </trkpt>
      <trkpt lat="46.05734" lon="6.57789">
        <ele>488.15</ele>
        <time>2015-06-07T08:42:51Z</time>
      </trkpt>
      <trkpt lat="46.05737" lon="6.57784">
        <ele>489.06</ele>
        <time>2015-06-07T08:42:52Z</time>
      </trkpt>
      <trkpt lat="46.05804" lon="6.57689">
        <ele>489.44</ele>
        <time>2015-06-07T08:43:10Z</time>
      </trkpt>
      <trkpt lat="46.0587" lon="6.57568">
        <ele>489.34</ele>
        <time>2015-06-07T08:43:30Z</time>
      </trkpt>
      <trkpt lat="46.05932" lon="6.57477">
        <ele>489.96</ele>
        <time>2015-06-07T08:43:48Z</time>
      </trkpt>
      <trkpt lat="46.05939" lon="6.57467">
        <ele>490.6</ele>
        <time>2015-06-07T08:43:52Z</time>
      </trkpt>
      <trkpt lat="46.05941" lon="6.57467">
        <ele>490.63</ele>
        <time>2015-06-07T08:43:53Z</time>
      </trkpt>
      <trkpt lat="46.05942" lon="6.57469">
        <ele>490.78</ele>
        <time>2015-06-07T08:43:54Z</time>
      </trkpt>
      <trkpt lat="46.05945" lon="6.57469">
        <ele>490.23</ele>
        <time>2015-06-07T08:43:55Z</time>
      </trkpt>
      <trkpt lat="46.05948" lon="6.57469">
        <ele>488.67</ele>
        <time>2015-06-07T08:43:56Z</time>
      </trkpt>
      <trkpt lat="46.05952" lon="6.57468">
        <ele>488.42</ele>
        <time>2015-06-07T08:43:57Z</time>
      </trkpt>
      <trkpt lat="46.05957" lon="6.57467">
        <ele>486.48</ele>
        <time>2015-06-07T08:43:58Z</time>
      </trkpt>
      <trkpt lat="46.0596" lon="6.57463">
        <ele>485.92</ele>
        <time>2015-06-07T08:43:59Z</time>
      </trkpt>
      <trkpt lat="46.05962" lon="6.57459">
        <ele>486.1</ele>
        <time>2015-06-07T08:44:00Z</time>
      </trkpt>
      <trkpt lat="46.05965" lon="6.57453">
        <ele>486.71</ele>
        <time>2015-06-07T08:44:01Z</time>
      </trkpt>
      <trkpt lat="46.05967" lon="6.57449">
        <ele>487.21</ele>
        <time>2015-06-07T08:44:02Z</time>
      </trkpt>
      <trkpt lat="46.06001" lon="6.57395">
        <ele>486.45</ele>
        <time>2015-06-07T08:44:16Z</time>
      </trkpt>
      <trkpt lat="46.06004" lon="6.57391">
        <ele>486.3</ele>
        <time>2015-06-07T08:44:17Z</time>
      </trkpt>
      <trkpt lat="46.06063" lon="6.57336">
        <ele>486.63</ele>
        <time>2015-06-07T08:44:32Z</time>
      </trkpt>
      <trkpt lat="46.06129" lon="6.57273">
        <ele>485.55</ele>
        <time>2015-06-07T08:44:48Z</time>
      </trkpt>
      <trkpt lat="46.06154" lon="6.57249">
        <ele>484.91</ele>
        <time>2015-06-07T08:44:54Z</time>
      </trkpt>
      <trkpt lat="46.06199" lon="6.57197">
        <ele>484.84</ele>
        <time>2015-06-07T08:45:07Z</time>
      </trkpt>
      <trkpt lat="46.06239" lon="6.5715">
        <ele>484.91</ele>
        <time>2015-06-07T08:45:20Z</time>
      </trkpt>
      <trkpt lat="46.06256" lon="6.57123">
        <ele>487.34</ele>
        <time>2015-06-07T08:45:29Z</time>
      </trkpt>
      <trkpt lat="46.06275" lon="6.57097">
        <ele>485.91</ele>
        <time>2015-06-07T08:45:36Z</time>
      </trkpt>
      <trkpt lat="46.06278" lon="6.57092">
        <ele>485.41</ele>
        <time>2015-06-07T08:45:37Z</time>
      </trkpt>
      <trkpt lat="46.06285" lon="6.5708">
        <ele>484.65</ele>
        <time>2015-06-07T08:45:39Z</time>
      </trkpt>
      <trkpt lat="46.06308" lon="6.57026">
        <ele>485.33</ele>
        <time>2015-06-07T08:45:48Z</time>
      </trkpt>
      <trkpt lat="46.06316" lon="6.57006">
        <ele>486.07</ele>
        <time>2015-06-07T08:45:52Z</time>
      </trkpt>
      <trkpt lat="46.06334" lon="6.56969">
        <ele>486.84</ele>
        <time>2015-06-07T08:46:00Z</time>
      </trkpt>
      <trkpt lat="46.06369" lon="6.5689">
        <ele>486.62</ele>
        <time>2015-06-07T08:46:15Z</time>
      </trkpt>
      <trkpt lat="46.06403" lon="6.56817">
        <ele>485.48</ele>
        <time>2015-06-07T08:46:28Z</time>
      </trkpt>
      <trkpt lat="46.06431" lon="6.56753">
        <ele>486.8</ele>
        <time>2015-06-07T08:46:41Z</time>
      </trkpt>
      <trkpt lat="46.06444" lon="6.56728">
        <ele>487.53</ele>
        <time>2015-06-07T08:46:49Z</time>
      </trkpt>
      <trkpt lat="46.06443" lon="6.56726">
        <ele>487.03</ele>
        <time>2015-06-07T08:46:50Z</time>
      </trkpt>
      <trkpt lat="46.06426" lon="6.56709">
        <ele>486.92</ele>
        <time>2015-06-07T08:47:03Z</time>
      </trkpt>
      <trkpt lat="46.06425" lon="6.56708">
        <ele>486.58</ele>
        <time>2015-06-07T08:47:04Z</time>
      </trkpt>
      <trkpt lat="46.06425" lon="6.56705">
        <ele>486.9</ele>
        <time>2015-06-07T08:47:05Z</time>
      </trkpt>
      <trkpt lat="46.06426" lon="6.56702">
        <ele>486.97</ele>
        <time>2015-06-07T08:47:06Z</time>
      </trkpt>
      <trkpt lat="46.06428" lon="6.56699">
        <ele>486.9</ele>
        <time>2015-06-07T08:47:07Z</time>
      </trkpt>
      <trkpt lat="46.06429" lon="6.56694">
        <ele>486.72</ele>
        <time>2015-06-07T08:47:08Z</time>
      </trkpt>
      <trkpt lat="46.06449" lon="6.56645">
        <ele>486.75</ele>
        <time>2015-06-07T08:47:18Z</time>
      </trkpt>
      <trkpt lat="46.06448" lon="6.5664">
        <ele>486.67</ele>
        <time>2015-06-07T08:47:19Z</time>
      </trkpt>
      <trkpt lat="46.06445" lon="6.56636">
        <ele>486.56</ele>
        <time>2015-06-07T08:47:20Z</time>
      </trkpt>
      <trkpt lat="46.06443" lon="6.56631">
        <ele>486.44</ele>
        <time>2015-06-07T08:47:21Z</time>
      </trkpt>
      <trkpt lat="46.0644" lon="6.56627">
        <ele>486.33</ele>
        <time>2015-06-07T08:47:22Z</time>
      </trkpt>
      <trkpt lat="46.06419" lon="6.56602">
        <ele>485.89</ele>
        <time>2015-06-07T08:47:28Z</time>
      </trkpt>
      <trkpt lat="46.06415" lon="6.56599">
        <ele>485.97</ele>
        <time>2015-06-07T08:47:29Z</time>
      </trkpt>
      <trkpt lat="46.06411" lon="6.56596">
        <ele>486.03</ele>
        <time>2015-06-07T08:47:30Z</time>
      </trkpt>
      <trkpt lat="46.06408" lon="6.56592">
        <ele>486.03</ele>
        <time>2015-06-07T08:47:31Z</time>
      </trkpt>
      <trkpt lat="46.06405" lon="6.56588">
        <ele>485.8</ele>
        <time>2015-06-07T08:47:32Z</time>
      </trkpt>
      <trkpt lat="46.06343" lon="6.56511">
        <ele>485.86</ele>
        <time>2015-06-07T08:47:50Z</time>
      </trkpt>
      <trkpt lat="46.06339" lon="6.56507">
        <ele>485.17</ele>
        <time>2015-06-07T08:47:51Z</time>
      </trkpt>
      <trkpt lat="46.06337" lon="6.56501">
        <ele>485.59</ele>
        <time>2015-06-07T08:47:52Z</time>
      </trkpt>
      <trkpt lat="46.06336" lon="6.56494">
        <ele>485.76</ele>
        <time>2015-06-07T08:47:53Z</time>
      </trkpt>
      <trkpt lat="46.06334" lon="6.5648">
        <ele>485.74</ele>
        <time>2015-06-07T08:47:55Z</time>
      </trkpt>
      <trkpt lat="46.06331" lon="6.56474">
        <ele>486</ele>
        <time>2015-06-07T08:47:56Z</time>
      </trkpt>
      <trkpt lat="46.06328" lon="6.56469">
        <ele>485.76</ele>
        <time>2015-06-07T08:47:57Z</time>
      </trkpt>
      <trkpt lat="46.06323" lon="6.56467">
        <ele>485.77</ele>
        <time>2015-06-07T08:47:58Z</time>
      </trkpt>
      <trkpt lat="46.06318" lon="6.56466">
        <ele>485.6</ele>
        <time>2015-06-07T08:47:59Z</time>
      </trkpt>
      <trkpt lat="46.06313" lon="6.56467">
        <ele>485.49</ele>
        <time>2015-06-07T08:48:00Z</time>
      </trkpt>
      <trkpt lat="46.06308" lon="6.56468">
        <ele>485.4</ele>
        <time>2015-06-07T08:48:01Z</time>
      </trkpt>
      <trkpt lat="46.06302" lon="6.56467">
        <ele>485.51</ele>
        <time>2015-06-07T08:48:02Z</time>
      </trkpt>
      <trkpt lat="46.06297" lon="6.56465">
        <ele>485.56</ele>
        <time>2015-06-07T08:48:03Z</time>
      </trkpt>
      <trkpt lat="46.06293" lon="6.56462">
        <ele>486</ele>
        <time>2015-06-07T08:48:04Z</time>
      </trkpt>
      <trkpt lat="46.06288" lon="6.56458">
        <ele>485.66</ele>
        <time>2015-06-07T08:48:05Z</time>
      </trkpt>
      <trkpt lat="46.06203" lon="6.5638">
        <ele>484.7</ele>
        <time>2015-06-07T08:48:24Z</time>
      </trkpt>
      <trkpt lat="46.06161" lon="6.56361">
        <ele>484.7</ele>
        <time>2015-06-07T08:48:33Z</time>
      </trkpt>
      <trkpt lat="46.06157" lon="6.56356">
        <ele>484.84</ele>
        <time>2015-06-07T08:48:34Z</time>
      </trkpt>
      <trkpt lat="46.06156" lon="6.5635">
        <ele>485.11</ele>
        <time>2015-06-07T08:48:35Z</time>
      </trkpt>
      <trkpt lat="46.06155" lon="6.56343">
        <ele>484.99</ele>
        <time>2015-06-07T08:48:36Z</time>
      </trkpt>
      <trkpt lat="46.06156" lon="6.56335">
        <ele>484.99</ele>
        <time>2015-06-07T08:48:37Z</time>
      </trkpt>
      <trkpt lat="46.06159" lon="6.56264">
        <ele>485.16</ele>
        <time>2015-06-07T08:48:47Z</time>
      </trkpt>
      <trkpt lat="46.06171" lon="6.56194">
        <ele>486.69</ele>
        <time>2015-06-07T08:48:57Z</time>
      </trkpt>
      <trkpt lat="46.06181" lon="6.56171">
        <ele>487.92</ele>
        <time>2015-06-07T08:49:01Z</time>
      </trkpt>
      <trkpt lat="46.06227" lon="6.5608">
        <ele>491.19</ele>
        <time>2015-06-07T08:49:19Z</time>
      </trkpt>
      <trkpt lat="46.06235" lon="6.55993">
        <ele>492.7</ele>
        <time>2015-06-07T08:49:34Z</time>
      </trkpt>
      <trkpt lat="46.06236" lon="6.55857">
        <ele>490.03</ele>
        <time>2015-06-07T08:49:54Z</time>
      </trkpt>
      <trkpt lat="46.06253" lon="6.55767">
        <ele>486.86</ele>
        <time>2015-06-07T08:50:04Z</time>
      </trkpt>
      <trkpt lat="46.06277" lon="6.55641">
        <ele>488.01</ele>
        <time>2015-06-07T08:50:19Z</time>
      </trkpt>
      <trkpt lat="46.06289" lon="6.55576">
        <ele>487.79</ele>
        <time>2015-06-07T08:50:30Z</time>
      </trkpt>
      <trkpt lat="46.06291" lon="6.55575">
        <ele>487.71</ele>
        <time>2015-06-07T08:50:31Z</time>
      </trkpt>
      <trkpt lat="46.06293" lon="6.55575">
        <ele>487.8</ele>
        <time>2015-06-07T08:50:32Z</time>
      </trkpt>
      <trkpt lat="46.06295" lon="6.55575">
        <ele>487.77</ele>
        <time>2015-06-07T08:50:33Z</time>
      </trkpt>
      <trkpt lat="46.06297" lon="6.55577">
        <ele>487.52</ele>
        <time>2015-06-07T08:50:43Z</time>
      </trkpt>
      <trkpt lat="46.06299" lon="6.55578">
        <ele>487.6</ele>
        <time>2015-06-07T08:51:13Z</time>
      </trkpt>
      <trkpt lat="46.06301" lon="6.55577">
        <ele>487.95</ele>
        <time>2015-06-07T08:51:20Z</time>
      </trkpt>
      <trkpt lat="46.06303" lon="6.55577">
        <ele>487.86</ele>
        <time>2015-06-07T08:51:21Z</time>
      </trkpt>
      <trkpt lat="46.06305" lon="6.55577">
        <ele>487.75</ele>
        <time>2015-06-07T08:51:22Z</time>
      </trkpt>
      <trkpt lat="46.06308" lon="6.55577">
        <ele>487.25</ele>
        <time>2015-06-07T08:51:23Z</time>
      </trkpt>
      <trkpt lat="46.0631" lon="6.55577">
        <ele>487.59</ele>
        <time>2015-06-07T08:51:24Z</time>
      </trkpt>
      <trkpt lat="46.06313" lon="6.55575">
        <ele>487.19</ele>
        <time>2015-06-07T08:51:25Z</time>
      </trkpt>
      <trkpt lat="46.06315" lon="6.55572">
        <ele>487.61</ele>
        <time>2015-06-07T08:51:26Z</time>
      </trkpt>
      <trkpt lat="46.06315" lon="6.55568">
        <ele>487.21</ele>
        <time>2015-06-07T08:51:27Z</time>
      </trkpt>
      <trkpt lat="46.06316" lon="6.55565">
        <ele>487.28</ele>
        <time>2015-06-07T08:51:28Z</time>
      </trkpt>
      <trkpt lat="46.06324" lon="6.55538">
        <ele>487.23</ele>
        <time>2015-06-07T08:51:36Z</time>
      </trkpt>
      <trkpt lat="46.06327" lon="6.55537">
        <ele>487.18</ele>
        <time>2015-06-07T08:51:37Z</time>
      </trkpt>
      <trkpt lat="46.06329" lon="6.55538">
        <ele>487.36</ele>
        <time>2015-06-07T08:51:38Z</time>
      </trkpt>
      <trkpt lat="46.06354" lon="6.55546">
        <ele>486.23</ele>
        <time>2015-06-07T08:51:52Z</time>
      </trkpt>
      <trkpt lat="46.06356" lon="6.55543">
        <ele>486.88</ele>
        <time>2015-06-07T08:52:08Z</time>
      </trkpt>
      <trkpt lat="46.06356" lon="6.55541">
        <ele>487.04</ele>
        <time>2015-06-07T08:52:33Z</time>
      </trkpt>
      <trkpt lat="46.06358" lon="6.55546">
        <ele>486.37</ele>
        <time>2015-06-07T08:53:02Z</time>
      </trkpt>
      <trkpt lat="46.06362" lon="6.55542">
        <ele>486.59</ele>
        <time>2015-06-07T08:53:20Z</time>
      </trkpt>
      <trkpt lat="46.06358" lon="6.55538">
        <ele>487.37</ele>
        <time>2015-06-07T08:54:00Z</time>
      </trkpt>
    </trkseg>
  </trk>
</gpx>